Provisional Data: Starrucca Creek near Stevens Point, PA


Please select a monitoring station.
Please select start date.
Please select start date.

Toggle Unit: C/F Toggle Unit: C/F
Sample Time Temperature (C) Temperature (F) Specific Conductivity (mS/cm) pH   Turbidity (NTU+) DO (mg/L)
4/13/2022 12:00:00 AM 8.58 47.444 0.065 7.16 5.05 11.41
4/13/2022 12:15:00 AM 8.48 47.264 0.065 7.17 4.91 11.45
4/13/2022 12:30:00 AM 8.38 47.084 0.065 7.16 4.87 11.46
4/13/2022 12:45:00 AM 8.28 46.904 0.065 7.17 4.79 11.48
4/13/2022 1:00:00 AM 8.19 46.742 0.065 7.18 4.98 11.52
4/13/2022 1:15:00 AM 8.09 46.562 0.065 7.17 4.95 11.56
4/13/2022 1:30:00 AM 8 46.4 0.065 7.18 4.96 11.59
4/13/2022 1:45:00 AM 7.9 46.22 0.065 7.15 4.95 11.62
4/13/2022 2:00:00 AM 7.81 46.058 0.065 7.18 4.71 11.63
4/13/2022 2:15:00 AM 7.72 45.896 0.066 7.17 5.2 11.64
4/13/2022 2:30:00 AM 7.63 45.734 0.066 7.16 4.84 11.67
4/13/2022 2:45:00 AM 7.55 45.59 0.066 7.16 4.63 11.71
4/13/2022 3:00:00 AM 7.47 45.446 0.066 7.17 4.82 11.74
4/13/2022 3:15:00 AM 7.38 45.284 0.066 7.18 4.64 11.76
4/13/2022 3:30:00 AM 7.31 45.158 0.066 7.15 4.7 11.79
4/13/2022 3:45:00 AM 7.25 45.05 0.066 7.17 4.86 11.8
4/13/2022 4:00:00 AM 7.19 44.942 0.066 7.15 4.59 11.84
4/13/2022 4:15:00 AM 7.15 44.87 0.066 7.15 5.02 11.84
4/13/2022 4:30:00 AM 7.1 44.78 0.066 7.18 4.66 11.84
4/13/2022 4:45:00 AM 7.06 44.708 0.066 7.18 4.46 11.86
4/13/2022 5:00:00 AM 7.03 44.654 0.066 7.17 4.56 11.86
4/13/2022 5:15:00 AM 7 44.6 0.066 7.18 4.47 11.88
4/13/2022 5:30:00 AM 6.97 44.546 0.066 7.18 4.53 11.89
4/13/2022 5:45:00 AM 6.94 44.492 0.066 7.18 4.9 11.9
4/13/2022 6:00:00 AM 6.91 44.438 0.066 7.18 4.43 11.91
4/13/2022 6:15:00 AM 6.89 44.402 0.066 7.17 4.67 11.92
4/13/2022 6:30:00 AM 6.87 44.366 0.066 7.18 4.6 11.93
4/13/2022 6:45:00 AM 6.85 44.33 0.066 7.16 4.5 11.94
4/13/2022 7:00:00 AM 6.84 44.312 0.066 7.18 4.43 11.95
4/13/2022 7:15:00 AM 6.84 44.312 0.066 7.18 4.75 11.96
4/13/2022 7:30:00 AM 6.83 44.294 0.066 7.19 4.41 11.97
4/13/2022 7:45:00 AM 6.84 44.312 0.066 7.18 4.47 11.98
4/13/2022 8:00:00 AM 6.85 44.33 0.066 7.2 4.31 12
4/13/2022 8:15:00 AM 6.87 44.366 0.066 7.18 4.43 12
4/13/2022 8:30:00 AM 6.91 44.438 0.066 7.21 4.24 12.03
4/13/2022 8:45:00 AM 6.97 44.546 0.066 7.2 4.47 12.03
4/13/2022 9:00:00 AM 7.01 44.618 0.066 7.22 4.22 12.02
4/13/2022 9:15:00 AM 7.09 44.762 0.066 7.23 4.25 12.03
4/13/2022 9:30:00 AM 7.25 45.05 0.066 7.24 4.18 12.03
4/13/2022 9:45:00 AM 7.43 45.374 0.066 7.24 4.11 12.02
4/13/2022 10:00:00 AM 7.62 45.716 0.066 7.26 4.02 11.97
4/13/2022 10:15:00 AM 7.83 46.094 0.066 7.26 4.42 11.94
4/13/2022 10:30:00 AM 8.09 46.562 0.066 7.27 3.93 11.88
4/13/2022 10:45:00 AM 8.36 47.048 0.066 7.28 4.18 11.81
4/13/2022 11:00:00 AM 8.61 47.498 0.066 7.29 3.82 11.79
4/13/2022 11:15:00 AM 8.87 47.966 0.066 7.28 4.33 11.7
4/13/2022 11:30:00 AM 9.11 48.398 0.066 7.3 3.89 11.64
4/13/2022 11:45:00 AM 9.28 48.704 0.066 7.3 4.31 11.58
4/13/2022 12:00:00 PM 9.4 48.92 0.066 7.3 3.79 11.52
4/13/2022 12:15:00 PM 9.52 49.136 0.066 7.3 4.27 11.46
4/13/2022 12:30:00 PM 9.66 49.388 0.066 7.3 3.84 11.42
4/13/2022 12:45:00 PM 9.94 49.892 0.066 7.31 4.17 11.38
4/13/2022 1:00:00 PM 10.26 50.468 0.066 7.32 3.79 11.29
4/13/2022 1:15:00 PM 10.47 50.846 0.066 7.32 4.28 11.25
4/13/2022 1:30:00 PM 10.64 51.152 0.066 7.32 3.72 11.2
4/13/2022 1:45:00 PM 10.89 51.602 0.065 7.32 4.26 11.11
4/13/2022 2:00:00 PM 11.03 51.854 0.065 7.34 3.89 11.08
4/13/2022 2:15:00 PM 11.08 51.944 0.065 7.33 4.08 11.05
4/13/2022 2:30:00 PM 11.32 52.376 0.065 7.34 3.79 10.99
4/13/2022 2:45:00 PM 11.55 52.79 0.065 7.35 4.13 10.92
4/13/2022 3:00:00 PM 11.69 53.042 0.065 7.35 3.78 10.89
4/13/2022 3:15:00 PM 11.79 53.222 0.065 7.33 4.2 10.84
4/13/2022 3:30:00 PM 11.82 53.276 0.066 7.35 3.97 10.82
4/13/2022 3:45:00 PM 11.84 53.312 0.066 7.34 4.07 10.79
4/13/2022 4:00:00 PM 11.81 53.258 0.066 7.34 3.96 10.78
4/13/2022 4:15:00 PM 11.86 53.348 0.066 7.33 3.94 10.76
4/13/2022 4:30:00 PM 11.91 53.438 0.066 7.34 3.91 10.75
4/13/2022 4:45:00 PM 11.95 53.51 0.066 7.33 3.97 10.73
4/13/2022 5:00:00 PM 12.02 53.636 0.066 7.34 4.05 10.69
4/13/2022 5:15:00 PM 12.1 53.78 0.066 7.33 4.17 10.66
4/13/2022 5:30:00 PM 12.2 53.96 0.066 7.34 4.01 10.64
4/13/2022 5:45:00 PM 12.23 54.014 0.066 7.32 3.99 10.61
4/13/2022 6:00:00 PM 12.22 53.996 0.066 7.33 3.86 10.6
4/13/2022 6:15:00 PM 12.23 54.014 0.066 7.3 4.08 10.57
4/13/2022 6:30:00 PM 12.19 53.942 0.066 7.31 3.95 10.53
4/13/2022 6:45:00 PM 12.14 53.852 0.066 7.29 4.06 10.5
4/13/2022 7:00:00 PM 12.1 53.78 0.066 7.29 4.02 10.49
4/13/2022 7:15:00 PM 12.04 53.672 0.066 7.26 4.21 10.48
4/13/2022 7:30:00 PM 11.97 53.546 0.066 7.26 3.86 10.48
4/13/2022 7:45:00 PM 11.91 53.438 0.066 7.21 3.95 10.46
4/13/2022 8:00:00 PM 11.86 53.348 0.066 7.23 4.12 10.47
4/13/2022 8:15:00 PM 11.81 53.258 0.066 7.22 4.27 10.47
4/13/2022 8:30:00 PM 11.77 53.186 0.067 7.22 4.17 10.48
4/13/2022 8:45:00 PM 11.72 53.096 0.067 7.19 4.44 10.49
4/13/2022 9:00:00 PM 11.67 53.006 0.067 7.2 4.3 10.48
4/13/2022 9:15:00 PM 11.6 52.88 0.067 7.2 4.57 10.49
4/13/2022 9:30:00 PM 11.54 52.772 0.067 7.19 4.4 10.5
4/13/2022 9:45:00 PM 11.47 52.646 0.067 7.2 4.31 10.52
4/13/2022 10:00:00 PM 11.41 52.538 0.067 7.18 4.36 10.53
4/13/2022 10:15:00 PM 11.35 52.43 0.067 7.19 4.32 10.56
4/13/2022 10:30:00 PM 11.29 52.322 0.067 7.18 4.23 10.57
4/13/2022 10:45:00 PM 11.23 52.214 0.067 7.16 4.34 10.58
4/13/2022 11:00:00 PM 11.17 52.106 0.067 7.18 4.33 10.6
4/13/2022 11:15:00 PM 11.11 51.998 0.067 7.16 4.72 10.61
4/13/2022 11:30:00 PM 11.06 51.908 0.067 7.17 4.23 10.62
4/13/2022 11:45:00 PM 11.01 51.818 0.068 7.15 4.64 10.63
4/14/2022 12:00:00 AM 10.96 51.728 0.068 7.17 4.37 10.63
4/14/2022 12:15:00 AM 10.92 51.656 0.068 7.15 4.62 10.63
4/14/2022 12:30:00 AM 10.87 51.566 0.068 7.17 4.21 10.64
4/14/2022 12:45:00 AM 10.83 51.494 0.068 7.16 4.65 10.66
4/14/2022 1:00:00 AM 10.77 51.386 0.068 7.17 4.13 10.67
4/14/2022 1:15:00 AM 10.71 51.278 0.068 7.16 4.69 10.69
4/14/2022 1:30:00 AM 10.65 51.17 0.068 7.18 4.24 10.7
4/14/2022 1:45:00 AM 10.6 51.08 0.068 7.17 4.71 10.72
4/14/2022 2:00:00 AM 10.54 50.972 0.068 7.18 4.11 10.73
4/14/2022 2:15:00 AM 10.5 50.9 0.068 7.17 4.72 10.74
4/14/2022 2:30:00 AM 10.45 50.81 0.068 7.18 4.37 10.76
4/14/2022 2:45:00 AM 10.42 50.756 0.068 7.17 4.9 10.76
4/14/2022 3:00:00 AM 10.4 50.72 0.068 7.19 4.09 10.78
4/14/2022 3:15:00 AM 10.38 50.684 0.068 7.18 4.71 10.77
4/14/2022 3:30:00 AM 10.36 50.648 0.068 7.2 4.04 10.78
4/14/2022 3:45:00 AM 10.33 50.594 0.068 7.18 4.61 10.78
4/14/2022 4:00:00 AM 10.3 50.54 0.068 7.2 4.09 10.79
4/14/2022 4:15:00 AM 10.27 50.486 0.068 7.2 4.57 10.8
4/14/2022 4:30:00 AM 10.24 50.432 0.068 7.19 4.23 10.79
4/14/2022 4:45:00 AM 10.21 50.378 0.068 7.18 4.56 10.8
4/14/2022 5:00:00 AM 10.18 50.324 0.068 7.19 4.01 10.8
4/14/2022 5:15:00 AM 10.15 50.27 0.068 7.19 4.24 10.81
4/14/2022 5:30:00 AM 10.12 50.216 0.068 7.19 4.16 10.82
4/14/2022 5:45:00 AM 10.08 50.144 0.068 7.19 4.29 10.83
4/14/2022 6:00:00 AM 10.03 50.054 0.068 7.18 4.29 10.85
4/14/2022 6:15:00 AM 9.99 49.982 0.068 7.18 4.6 10.86
4/14/2022 6:30:00 AM 9.95 49.91 0.068 7.18 4.37 10.87
4/14/2022 6:45:00 AM 9.92 49.856 0.068 7.16 4.57 10.9
4/14/2022 7:00:00 AM 9.88 49.784 0.068 7.19 4.16 10.92
4/14/2022 7:15:00 AM 9.85 49.73 0.068 7.18 4.13 10.95
4/14/2022 7:30:00 AM 9.83 49.694 0.068 7.19 4.08 10.97
4/14/2022 7:45:00 AM 9.82 49.676 0.068 7.2 4.28 11.01
4/14/2022 8:00:00 AM 9.82 49.676 0.068 7.22 4.01 11.05
4/14/2022 8:15:00 AM 9.85 49.73 0.068 7.22 4.43 11.07
4/14/2022 8:30:00 AM 9.89 49.802 0.068 7.26 3.92 11.1
4/14/2022 8:45:00 AM 9.96 49.928 0.068 7.25 4.25 11.12
4/14/2022 9:00:00 AM 10.07 50.126 0.068 7.29 3.85 11.12
4/14/2022 9:15:00 AM 10.21 50.378 0.068 7.28 4.35 11.1
4/14/2022 9:30:00 AM 10.37 50.666 0.068 7.32 3.73 11.12
4/14/2022 9:45:00 AM 10.57 51.026 0.068 7.3 4.2 11.11
4/14/2022 10:00:00 AM 10.78 51.404 0.068 7.34 3.87 11.07
4/14/2022 10:15:00 AM 11 51.8 0.068 7.33 4.35 11.03
4/14/2022 10:30:00 AM 11.21 52.178 0.068 7.36 3.62 11.02
4/14/2022 10:45:00 AM 11.45 52.61 0.068 7.34 3.95 10.95
4/14/2022 11:00:00 AM 11.74 53.132 0.068 7.38 3.81 10.92
4/14/2022 11:15:00 AM 11.96 53.528 0.068 7.37 3.92 10.86
4/14/2022 11:30:00 AM 12.09 53.762 0.068 7.39 3.82 10.8
4/14/2022 11:45:00 AM 12.19 53.942 0.068 7.38 3.82 10.76
4/14/2022 12:00:00 PM 12.29 54.122 0.068 7.41 3.78 10.73
4/14/2022 12:15:00 PM 12.51 54.518 0.068 7.4 3.88 10.73
4/14/2022 12:30:00 PM 12.67 54.806 0.068 7.42 3.67 10.67
4/14/2022 12:45:00 PM 12.76 54.968 0.068 7.4 3.84 10.61
4/14/2022 1:00:00 PM 12.79 55.022 0.068 7.41 3.66 10.56
4/14/2022 1:15:00 PM 12.87 55.166 0.068 7.4 3.85 10.52
4/14/2022 1:30:00 PM 12.91 55.238 0.068 7.42 3.62 10.52
4/14/2022 1:45:00 PM 12.91 55.238 0.068 7.39 3.69 10.49
4/14/2022 2:00:00 PM 12.91 55.238 0.068 7.4 3.59 10.45
4/14/2022 2:15:00 PM 12.94 55.292 0.068 7.38 3.9 10.43
4/14/2022 2:30:00 PM 12.97 55.346 0.068 7.4 3.62 10.43
4/14/2022 2:45:00 PM 12.96 55.328 0.068 7.38 4.01 10.42
4/14/2022 3:00:00 PM 12.92 55.256 0.068 7.38 3.78 10.38
4/14/2022 3:15:00 PM 12.88 55.184 0.068 7.34 4.04 10.36
4/14/2022 3:30:00 PM 12.83 55.094 0.068 7.35 3.67 10.33
4/14/2022 3:45:00 PM 12.77 54.986 0.068 7.32 3.88 10.33
4/14/2022 4:00:00 PM 12.7 54.86 0.068 7.34 3.8 10.35
4/14/2022 4:15:00 PM 12.63 54.734 0.068 7.32 4.39 10.38
4/14/2022 4:30:00 PM 12.57 54.626 0.068 7.33 4.34 10.4
4/14/2022 4:45:00 PM 12.5 54.5 0.068 7.31 4.75 10.42
4/14/2022 5:00:00 PM 12.46 54.428 0.068 7.33 4.55 10.46
4/14/2022 5:15:00 PM 12.42 54.356 0.068 7.31 4.76 10.49
4/14/2022 5:30:00 PM 12.39 54.302 0.067 7.35 4.41 10.54
4/14/2022 5:45:00 PM 12.33 54.194 0.067 7.33 4.96 10.55
4/14/2022 6:00:00 PM 12.26 54.068 0.068 7.34 4.57 10.54
4/14/2022 6:15:00 PM 12.19 53.942 0.068 7.33 5.06 10.52
4/14/2022 6:30:00 PM 12.12 53.816 0.068 7.34 4.91 10.53
4/14/2022 6:45:00 PM 12.03 53.654 0.068 7.3 5.18 10.54
4/14/2022 7:00:00 PM 11.94 53.492 0.068 7.32 4.92 10.54
4/14/2022 7:15:00 PM 11.85 53.33 0.068 7.3 5.1 10.54
4/14/2022 7:30:00 PM 11.77 53.186 0.068 7.3 4.76 10.54
4/14/2022 7:45:00 PM 11.69 53.042 0.068 7.28 5.09 10.54
4/14/2022 8:00:00 PM 11.61 52.898 0.068 7.29 4.91 10.52
4/14/2022 8:15:00 PM 11.53 52.754 0.068 7.27 5.44 10.54
4/14/2022 8:30:00 PM 11.44 52.592 0.068 7.28 4.97 10.56
4/14/2022 8:45:00 PM 11.33 52.394 0.068 7.26 5.25 10.59
4/14/2022 9:00:00 PM 11.21 52.178 0.068 7.27 4.84 10.62
4/14/2022 9:15:00 PM 11.09 51.962 0.068 7.25 4.98 10.65
4/14/2022 9:30:00 PM 10.96 51.728 0.068 7.27 4.7 10.66
4/14/2022 9:45:00 PM 10.84 51.512 0.068 7.25 4.84 10.69
4/14/2022 10:00:00 PM 10.72 51.296 0.068 7.27 4.91 10.74
4/14/2022 10:15:00 PM 10.6 51.08 0.068 7.23 5.02 10.77
4/14/2022 10:30:00 PM 10.48 50.864 0.069 7.26 4.55 10.8
4/14/2022 10:45:00 PM 10.38 50.684 0.069 7.25 4.83 10.83
4/14/2022 11:00:00 PM 10.27 50.486 0.069 7.26 4.61 10.85
4/14/2022 11:15:00 PM 10.16 50.288 0.069 7.24 5.15 10.88
4/14/2022 11:30:00 PM 10.04 50.072 0.069 7.26 4.59 10.92
4/14/2022 11:45:00 PM 9.92 49.856 0.069 7.23 4.95 10.96
4/15/2022 12:00:00 AM 9.83 49.694 0.069 7.25 4.33 10.99
4/15/2022 12:15:00 AM 9.73 49.514 0.069 7.23 4.68 11.03
4/15/2022 12:30:00 AM 9.64 49.352 0.069 7.25 4.35 11.04
4/15/2022 12:45:00 AM 9.54 49.172 0.069 7.23 4.81 11.06
4/15/2022 1:00:00 AM 9.44 48.992 0.069 7.26 4.14 11.1
4/15/2022 1:15:00 AM 9.35 48.83 0.069 7.23 4.48 11.13
4/15/2022 1:30:00 AM 9.27 48.686 0.069 7.25 4.08 11.17
4/15/2022 1:45:00 AM 9.19 48.542 0.069 7.24 4.5 11.18
4/15/2022 2:00:00 AM 9.1 48.38 0.069 7.25 4.1 11.21
4/15/2022 2:15:00 AM 9.02 48.236 0.069 7.24 4.03 11.22
4/15/2022 2:30:00 AM 8.93 48.074 0.069 7.26 4.1 11.24
4/15/2022 2:45:00 AM 8.84 47.912 0.069 7.25 4.03 11.27
4/15/2022 3:00:00 AM 8.74 47.732 0.069 7.25 4.03 11.3
4/15/2022 3:15:00 AM 8.65 47.57 0.069 7.24 3.97 11.35
4/15/2022 3:30:00 AM 8.55 47.39 0.07 7.24 4.03 11.36
4/15/2022 3:45:00 AM 8.45 47.21 0.07 7.25 4.15 11.4
4/15/2022 4:00:00 AM 8.35 47.03 0.07 7.25 3.79 11.42
4/15/2022 4:15:00 AM 8.24 46.832 0.07 7.24 4.13 11.44
4/15/2022 4:30:00 AM 8.12 46.616 0.07 7.24 3.89 11.5
4/15/2022 4:45:00 AM 8.01 46.418 0.07 7.25 3.85 11.53
4/15/2022 5:00:00 AM 7.9 46.22 0.07 7.23 3.9 11.58
4/15/2022 5:15:00 AM 7.79 46.022 0.07 7.25 3.79 11.6
4/15/2022 5:30:00 AM 7.69 45.842 0.07 7.23 4.38 11.61
4/15/2022 5:45:00 AM 7.57 45.626 0.07 7.24 3.77 11.64
4/15/2022 6:00:00 AM 7.47 45.446 0.07 7.24 3.78 11.68
4/15/2022 6:15:00 AM 7.37 45.266 0.07 7.25 3.65 11.72
4/15/2022 6:30:00 AM 7.27 45.086 0.07 7.24 4.01 11.76
4/15/2022 6:45:00 AM 7.19 44.942 0.07 7.24 3.71 11.79
4/15/2022 7:00:00 AM 7.11 44.798 0.07 7.25 3.95 11.83
4/15/2022 7:15:00 AM 7.04 44.672 0.07 7.24 3.67 11.88
4/15/2022 7:30:00 AM 6.97 44.546 0.07 7.25 3.79 11.92
4/15/2022 7:45:00 AM 6.93 44.474 0.07 7.26 3.55 11.98
4/15/2022 8:00:00 AM 6.91 44.438 0.07 7.25 3.72 12.04
4/15/2022 8:15:00 AM 6.92 44.456 0.07 7.24 3.9 12.07
4/15/2022 8:30:00 AM 6.93 44.474 0.07 7.22 3.59 12.1
4/15/2022 8:45:00 AM 6.98 44.564 0.07 7.28 3.62 12.13
4/15/2022 9:00:00 AM 7.07 44.726 0.07 7.29 3.79 12.13
4/15/2022 9:15:00 AM 7.2 44.96 0.07 7.32 3.4 12.15
4/15/2022 9:30:00 AM 7.35 45.23 0.07 7.34 3.95 12.13
4/15/2022 9:45:00 AM 7.52 45.536 0.07 7.35 3.36 12.11
4/15/2022 10:00:00 AM 7.71 45.878 0.07 7.36 3.85 12.08
4/15/2022 10:15:00 AM 7.92 46.256 0.07 7.38 3.42 12.07
4/15/2022 10:30:00 AM 8.12 46.616 0.07 7.38 3.8 12.02
4/15/2022 10:45:00 AM 8.33 46.994 0.07 7.4 3.39 11.96
4/15/2022 11:00:00 AM 8.55 47.39 0.07 7.41 3.82 11.92
4/15/2022 11:15:00 AM 8.79 47.822 0.07 7.41 3.4 11.86
4/15/2022 11:30:00 AM 9.03 48.254 0.069 7.41 3.87 11.79
4/15/2022 11:45:00 AM 9.3 48.74 0.069 7.42 3.34 11.74
4/15/2022 12:00:00 PM 9.56 49.208 0.069 7.41 3.78 11.63
4/15/2022 12:15:00 PM 9.83 49.694 0.069 7.43 3.4 11.59
4/15/2022 12:30:00 PM 10.13 50.234 0.069 7.42 3.64 11.51
4/15/2022 12:45:00 PM 10.41 50.738 0.069 7.45 3.24 11.44
4/15/2022 1:00:00 PM 10.66 51.188 0.069 7.44 3.56 11.36
4/15/2022 1:15:00 PM 10.92 51.656 0.069 7.46 3.31 11.28
4/15/2022 1:30:00 PM 11.13 52.034 0.069 7.43 3.67 11.23
4/15/2022 1:45:00 PM 11.31 52.358 0.069 7.46 3.37 11.17
4/15/2022 2:00:00 PM 11.51 52.718 0.069 7.44 3.66 11.08
4/15/2022 2:15:00 PM 11.57 52.826 0.069 7.46 3.31 11.02
4/15/2022 2:30:00 PM 11.65 52.97 0.069 7.44 3.46 11.01
4/15/2022 2:45:00 PM 11.7 53.06 0.069 7.46 3.26 10.98
4/15/2022 3:00:00 PM 11.73 53.114 0.069 7.44 3.49 10.97
4/15/2022 3:15:00 PM 11.78 53.204 0.069 7.48 3.19 10.95
4/15/2022 3:30:00 PM 11.86 53.348 0.069 7.45 3.55 10.92
4/15/2022 3:45:00 PM 11.88 53.384 0.069 7.47 3.15 10.92
4/15/2022 4:00:00 PM 12.02 53.636 0.069 7.47 3.49 10.87
4/15/2022 4:15:00 PM 12.06 53.708 0.069 7.48 3.31 10.85
4/15/2022 4:30:00 PM 11.95 53.51 0.069 7.45 3.53 10.85
4/15/2022 4:45:00 PM 11.91 53.438 0.069 7.46 3.18 10.83
4/15/2022 5:00:00 PM 11.92 53.456 0.069 7.44 3.37 10.83
4/15/2022 5:15:00 PM 11.86 53.348 0.069 7.45 3.34 10.79
4/15/2022 5:30:00 PM 11.77 53.186 0.069 7.41 3.43 10.79
4/15/2022 5:45:00 PM 11.7 53.06 0.069 7.43 3.43 10.79
4/15/2022 6:00:00 PM 11.61 52.898 0.069 7.4 3.7 10.72
4/15/2022 6:15:00 PM 11.53 52.754 0.069 7.4 3.37 10.72
4/15/2022 6:30:00 PM 11.49 52.682 0.069 7.37 3.77 10.75
4/15/2022 6:45:00 PM 11.43 52.574 0.07 7.39 3.48 10.74
4/15/2022 7:00:00 PM 11.36 52.448 0.07 7.35 3.5 10.73
4/15/2022 7:15:00 PM 11.31 52.358 0.07 7.37 3.27 10.7
4/15/2022 7:30:00 PM 11.28 52.304 0.07 7.31 3.52 10.68
4/15/2022 7:45:00 PM 11.21 52.178 0.07 7.33 3.58 10.67
4/15/2022 8:00:00 PM 11.13 52.034 0.07 7.29 4.14 10.66
4/15/2022 8:15:00 PM 11.04 51.872 0.07 7.31 4.23 10.66
4/15/2022 8:30:00 PM 10.95 51.71 0.07 7.28 4.4 10.65
4/15/2022 8:45:00 PM 10.86 51.548 0.07 7.3 4 10.67
4/15/2022 9:00:00 PM 10.77 51.386 0.07 7.27 4.43 10.7
4/15/2022 9:15:00 PM 10.68 51.224 0.07 7.29 3.72 10.72
4/15/2022 9:30:00 PM 10.59 51.062 0.071 7.26 4.21 10.75
4/15/2022 9:45:00 PM 10.5 50.9 0.071 7.29 3.62 10.77
4/15/2022 10:00:00 PM 10.41 50.738 0.071 7.26 4.06 10.79
4/15/2022 10:15:00 PM 10.32 50.576 0.071 7.29 3.85 10.81
4/15/2022 10:30:00 PM 10.22 50.396 0.071 7.25 4.1 10.82
4/15/2022 10:45:00 PM 10.13 50.234 0.071 7.28 3.63 10.85
4/15/2022 11:00:00 PM 10.03 50.054 0.071 7.25 4.13 10.89
4/15/2022 11:15:00 PM 9.93 49.874 0.071 7.28 3.61 10.93
4/15/2022 11:30:00 PM 9.85 49.73 0.071 7.25 3.81 10.95
4/15/2022 11:45:00 PM 9.76 49.568 0.071 7.28 3.65 10.98
4/16/2022 12:00:00 AM 9.67 49.406 0.071 7.26 3.65 10.99
4/16/2022 12:15:00 AM 9.59 49.262 0.071 7.25 3.53 10.99
4/16/2022 12:30:00 AM 9.52 49.136 0.071 7.28 3.54 11.01
4/16/2022 12:45:00 AM 9.44 48.992 0.071 7.27 3.81 11.04
4/16/2022 1:00:00 AM 9.36 48.848 0.071 7.28 3.58 11.07
4/16/2022 1:15:00 AM 9.27 48.686 0.072 7.27 3.84 11.09
4/16/2022 1:30:00 AM 9.2 48.56 0.072 7.26 3.46 11.11
4/16/2022 1:45:00 AM 9.13 48.434 0.072 7.25 4.06 11.13
4/16/2022 2:00:00 AM 9.07 48.326 0.072 7.27 3.3 11.15
4/16/2022 2:15:00 AM 9.01 48.218 0.072 7.25 4 11.16
4/16/2022 2:30:00 AM 8.96 48.128 0.072 7.27 3.41 11.16
4/16/2022 2:45:00 AM 8.92 48.056 0.072 7.25 3.86 11.18
4/16/2022 3:00:00 AM 8.87 47.966 0.072 7.27 3.45 11.2
4/16/2022 3:15:00 AM 8.83 47.894 0.072 7.26 4.01 11.21
4/16/2022 3:30:00 AM 8.79 47.822 0.072 7.27 3.8 11.23
4/16/2022 3:45:00 AM 8.76 47.768 0.072 7.27 4.21 11.24
4/16/2022 4:00:00 AM 8.73 47.714 0.072 7.25 3.64 11.25
4/16/2022 4:15:00 AM 8.7 47.66 0.072 7.26 4.47 11.26
4/16/2022 4:30:00 AM 8.67 47.606 0.072 7.25 3.6 11.28
4/16/2022 4:45:00 AM 8.64 47.552 0.072 7.26 4 11.29
4/16/2022 5:00:00 AM 8.62 47.516 0.072 7.25 3.51 11.29
4/16/2022 5:15:00 AM 8.6 47.48 0.072 7.26 4.21 11.3
4/16/2022 5:30:00 AM 8.56 47.408 0.072 7.26 3.77 11.31
4/16/2022 5:45:00 AM 8.52 47.336 0.072 7.26 4.03 11.33
4/16/2022 6:00:00 AM 8.49 47.282 0.072 7.24 3.49 11.33
4/16/2022 6:15:00 AM 8.45 47.21 0.072 7.24 3.75 11.35
4/16/2022 6:30:00 AM 8.43 47.174 0.072 7.26 3.41 11.37
4/16/2022 6:45:00 AM 8.4 47.12 0.072 7.25 3.76 11.37
4/16/2022 7:00:00 AM 8.39 47.102 0.072 7.25 3.41 11.41
4/16/2022 7:15:00 AM 8.38 47.084 0.072 7.26 3.7 11.43
4/16/2022 7:30:00 AM 8.36 47.048 0.072 7.25 3.47 11.44
4/16/2022 7:45:00 AM 8.36 47.048 0.072 7.27 3.4 11.44
4/16/2022 8:00:00 AM 8.35 47.03 0.072 7.28 3.34 11.47
4/16/2022 8:15:00 AM 8.35 47.03 0.072 7.28 3.43 11.5
4/16/2022 8:30:00 AM 8.36 47.048 0.072 7.3 3.31 11.55
4/16/2022 8:45:00 AM 8.38 47.084 0.072 7.32 3.74 11.6
4/16/2022 9:00:00 AM 8.4 47.12 0.072 7.32 3.34 11.63
4/16/2022 9:15:00 AM 8.49 47.282 0.072 7.33 3.63 11.69
4/16/2022 9:30:00 AM 8.58 47.444 0.072 7.38 3.22 11.72
4/16/2022 9:45:00 AM 8.7 47.66 0.072 7.37 3.54 11.74
4/16/2022 10:00:00 AM 8.78 47.804 0.072 7.41 3.29 11.72
4/16/2022 10:15:00 AM 8.87 47.966 0.072 7.42 3.63 11.7
4/16/2022 10:30:00 AM 9.01 48.218 0.072 7.44 3.2 11.67
4/16/2022 10:45:00 AM 9.22 48.596 0.072 7.42 3.64 11.68
4/16/2022 11:00:00 AM 9.41 48.938 0.071 7.46 3.2 11.63
4/16/2022 11:15:00 AM 9.54 49.172 0.071 7.46 3.53 11.58
4/16/2022 11:30:00 AM 9.65 49.37 0.071 7.47 3.2 11.57
4/16/2022 11:45:00 AM 9.73 49.514 0.071 7.47 3.57 11.52
4/16/2022 12:00:00 PM 9.8 49.64 0.071 7.47 3.18 11.49
4/16/2022 12:15:00 PM 9.88 49.784 0.071 7.48 3.54 11.45
4/16/2022 12:30:00 PM 9.93 49.874 0.071 7.45 3.39 11.42
4/16/2022 12:45:00 PM 9.94 49.892 0.071 7.46 3.88 11.37
4/16/2022 1:00:00 PM 9.99 49.982 0.071 7.47 3.18 11.34
4/16/2022 1:15:00 PM 10.04 50.072 0.071 7.44 3.65 11.31
4/16/2022 1:30:00 PM 10.03 50.054 0.071 7.45 3.19 11.24
4/16/2022 1:45:00 PM 10.02 50.036 0.071 7.42 3.69 11.2
4/16/2022 2:00:00 PM 9.99 49.982 0.071 7.43 3.31 11.19
4/16/2022 2:15:00 PM 9.98 49.964 0.071 7.39 3.63 11.16
4/16/2022 2:30:00 PM 9.97 49.946 0.071 7.41 3.38 11.12
4/16/2022 2:45:00 PM 9.98 49.964 0.071 7.38 3.82 11.12
4/16/2022 3:00:00 PM 9.98 49.964 0.07 7.39 3.49 11.12
4/16/2022 3:15:00 PM 9.96 49.928 0.07 7.36 3.8 11.1
4/16/2022 3:30:00 PM 9.91 49.838 0.07 7.39 3.71 11.13
4/16/2022 3:45:00 PM 9.86 49.748 0.07 7.37 3.9 11.14
4/16/2022 4:00:00 PM 9.81 49.658 0.07 7.4 3.94 11.16
4/16/2022 4:15:00 PM 9.74 49.532 0.07 7.37 4.5 11.16
4/16/2022 4:30:00 PM 9.67 49.406 0.069 7.38 4.31 11.18
4/16/2022 4:45:00 PM 9.59 49.262 0.069 7.36 4.9 11.2
4/16/2022 5:00:00 PM 9.51 49.118 0.069 7.37 4.95 11.23
4/16/2022 5:15:00 PM 9.45 49.01 0.069 7.35 5.75 11.26
4/16/2022 5:30:00 PM 9.37 48.866 0.069 7.36 5.91 11.28
4/16/2022 5:45:00 PM 9.29 48.722 0.069 7.36 6.65 11.29
4/16/2022 6:00:00 PM 9.22 48.596 0.069 7.35 6.25 11.3
4/16/2022 6:15:00 PM 9.14 48.452 0.069 7.33 7.33 11.32
4/16/2022 6:30:00 PM 9.06 48.308 0.069 7.34 7.05 11.31
4/16/2022 6:45:00 PM 8.97 48.146 0.068 7.32 7.79 11.29
4/16/2022 7:00:00 PM 8.9 48.02 0.068 7.34 7.8 11.3
4/16/2022 7:15:00 PM 8.83 47.894 0.068 7.31 7.82 11.32
4/16/2022 7:30:00 PM 8.76 47.768 0.068 7.32 7.08 11.34
4/16/2022 7:45:00 PM 8.68 47.624 0.068 7.29 7.37 11.35
4/16/2022 8:00:00 PM 8.62 47.516 0.068 7.31 6.84 11.36
4/16/2022 8:15:00 PM 8.55 47.39 0.069 7.29 7.09 11.37
4/16/2022 8:30:00 PM 8.49 47.282 0.069 7.31 6.64 11.37
4/16/2022 8:45:00 PM 8.43 47.174 0.069 7.29 7.37 11.38
4/16/2022 9:00:00 PM 8.36 47.048 0.069 7.3 7.74 11.39
4/16/2022 9:15:00 PM 8.3 46.94 0.069 7.29 8.33 11.4
4/16/2022 9:30:00 PM 8.24 46.832 0.069 7.29 8.18 11.43
4/16/2022 9:45:00 PM 8.18 46.724 0.069 7.29 8.49 11.45
4/16/2022 10:00:00 PM 8.12 46.616 0.069 7.29 7.61 11.48
4/16/2022 10:15:00 PM 8.05 46.49 0.069 7.27 7.4 11.5
4/16/2022 10:30:00 PM 7.96 46.328 0.069 7.29 7.04 11.54
4/16/2022 10:45:00 PM 7.9 46.22 0.069 7.28 7.27 11.54
4/16/2022 11:00:00 PM 7.84 46.112 0.069 7.28 6.6 11.56
4/16/2022 11:15:00 PM 7.78 46.004 0.069 7.26 6.55 11.57
4/16/2022 11:30:00 PM 7.72 45.896 0.069 7.29 6.21 11.59
4/16/2022 11:45:00 PM 7.66 45.788 0.069 7.27 6.24 11.6
4/17/2022 12:00:00 AM 7.58 45.644 0.07 7.28 6.16 11.62
4/17/2022 12:15:00 AM 7.51 45.518 0.07 7.3 6.56 11.64
4/17/2022 12:30:00 AM 7.45 45.41 0.07 7.28 5.62 11.67
4/17/2022 12:45:00 AM 7.38 45.284 0.07 7.28 5.84 11.7
4/17/2022 1:00:00 AM 7.32 45.176 0.07 7.28 5.44 11.72
4/17/2022 1:15:00 AM 7.26 45.068 0.07 7.26 5.65 11.73
4/17/2022 1:30:00 AM 7.21 44.978 0.07 7.27 5 11.75
4/17/2022 1:45:00 AM 7.17 44.906 0.07 7.26 5.24 11.75
4/17/2022 2:00:00 AM 7.12 44.816 0.07 7.25 4.88 11.76
4/17/2022 2:15:00 AM 7.06 44.708 0.07 7.19 5.19 11.77
4/17/2022 2:30:00 AM 6.99 44.582 0.07 7.21 4.58 11.79
4/17/2022 2:45:00 AM 6.92 44.456 0.07 7.21 4.92 11.82
4/17/2022 3:00:00 AM 6.86 44.348 0.07 7.21 4.52 11.85
4/17/2022 3:15:00 AM 6.79 44.222 0.07 7.2 4.77 11.87
4/17/2022 3:30:00 AM 6.73 44.114 0.07 7.21 4.37 11.89
4/17/2022 3:45:00 AM 6.68 44.024 0.07 7.22 4.51 11.91
4/17/2022 4:00:00 AM 6.61 43.898 0.07 7.21 4.27 11.93
4/17/2022 4:15:00 AM 6.55 43.79 0.07 7.22 4.51 11.95
4/17/2022 4:30:00 AM 6.48 43.664 0.07 7.22 4.24 11.95
4/17/2022 4:45:00 AM 6.4 43.52 0.07 7.22 4.72 11.97
4/17/2022 5:00:00 AM 6.32 43.376 0.07 7.22 4.04 12
4/17/2022 5:15:00 AM 6.24 43.232 0.07 7.22 5.09 12.04
4/17/2022 5:30:00 AM 6.17 43.106 0.07 7.23 4.03 12.07
4/17/2022 5:45:00 AM 6.1 42.98 0.07 7.22 4.26 12.1
4/17/2022 6:00:00 AM 6.04 42.872 0.07 7.22 4.11 12.12
4/17/2022 6:15:00 AM 5.98 42.764 0.07 7.24 4.25 12.14
4/17/2022 6:30:00 AM 5.93 42.674 0.07 7.23 3.94 12.16
4/17/2022 6:45:00 AM 5.89 42.602 0.07 7.24 4.27 12.2
4/17/2022 7:00:00 AM 5.84 42.512 0.07 7.25 3.88 12.24
4/17/2022 7:15:00 AM 5.8 42.44 0.07 7.26 4.23 12.29
4/17/2022 7:30:00 AM 5.76 42.368 0.07 7.27 3.87 12.35
4/17/2022 7:45:00 AM 5.74 42.332 0.07 7.3 4 12.42
4/17/2022 8:00:00 AM 5.73 42.314 0.07 7.32 3.84 12.48
4/17/2022 8:15:00 AM 5.71 42.278 0.07 7.32 3.75 12.51
4/17/2022 8:30:00 AM 5.7 42.26 0.07 7.33 3.99 12.55
4/17/2022 8:45:00 AM 5.72 42.296 0.07 7.36 4.02 12.57
4/17/2022 9:00:00 AM 5.72 42.296 0.07 7.37 3.68 12.6
4/17/2022 9:15:00 AM 5.74 42.332 0.07 7.37 3.57 12.61
4/17/2022 9:30:00 AM 5.78 42.404 0.07 7.39 4.01 12.62
4/17/2022 9:45:00 AM 5.84 42.512 0.07 7.41 3.59 12.63
4/17/2022 10:00:00 AM 5.88 42.584 0.07 7.41 4.06 12.64
4/17/2022 10:15:00 AM 5.94 42.692 0.07 7.43 3.47 12.64
4/17/2022 10:30:00 AM 6.07 42.926 0.07 7.44 3.82 12.64
4/17/2022 10:45:00 AM 6.17 43.106 0.07 7.44 3.45 12.62
4/17/2022 11:00:00 AM 6.21 43.178 0.07 7.44 3.89 12.6
4/17/2022 11:15:00 AM 6.33 43.394 0.07 7.45 3.45 12.56
4/17/2022 11:30:00 AM 6.42 43.556 0.07 7.44 3.63 12.53
4/17/2022 11:45:00 AM 6.74 44.132 0.07 7.46 3.75 12.51
4/17/2022 12:00:00 PM 6.8 44.24 0.07 7.47 3.47 12.47
4/17/2022 12:15:00 PM 6.88 44.384 0.069 7.47 3.56 12.45
4/17/2022 12:30:00 PM 6.88 44.384 0.069 7.47 3.33 12.41
4/17/2022 12:45:00 PM 6.91 44.438 0.069 7.46 3.65 12.39
4/17/2022 1:00:00 PM 7.02 44.636 0.069 7.48 3.48 12.36
4/17/2022 1:15:00 PM 7.07 44.726 0.069 7.48 3.65 12.35
4/17/2022 1:30:00 PM 7.06 44.708 0.069 7.48 3.64 12.34
4/17/2022 1:45:00 PM 7.14 44.852 0.069 7.49 3.42 12.32
4/17/2022 2:00:00 PM 7.39 45.302 0.069 7.49 3.39 12.31
4/17/2022 2:15:00 PM 7.48 45.464 0.069 7.48 3.39 12.26
4/17/2022 2:30:00 PM 7.48 45.464 0.069 7.49 3.48 12.22
4/17/2022 2:45:00 PM 7.6 45.68 0.069 7.47 3.73 12.19
4/17/2022 3:00:00 PM 7.69 45.842 0.069 7.49 3.24 12.15
4/17/2022 3:15:00 PM 7.67 45.806 0.069 7.46 3.64 12.13
4/17/2022 3:30:00 PM 7.62 45.716 0.069 7.49 3.32 12.13
4/17/2022 3:45:00 PM 7.65 45.77 0.069 7.49 3.68 12.14
4/17/2022 4:00:00 PM 7.67 45.806 0.069 7.47 3.28 12.13
4/17/2022 4:15:00 PM 7.63 45.734 0.07 7.49 4.05 12.12
4/17/2022 4:30:00 PM 7.63 45.734 0.07 7.48 3.31 12.11
4/17/2022 4:45:00 PM 7.64 45.752 0.07 7.46 3.77 12.1
4/17/2022 5:00:00 PM 7.61 45.698 0.07 7.48 3.34 12.12
4/17/2022 5:15:00 PM 7.63 45.734 0.07 7.48 3.69 12.12
4/17/2022 5:30:00 PM 7.58 45.644 0.07 7.48 3.4 12.1
4/17/2022 5:45:00 PM 7.53 45.554 0.07 7.44 3.83 12.09
4/17/2022 6:00:00 PM 7.48 45.464 0.07 7.45 3.37 12.08
4/17/2022 6:15:00 PM 7.45 45.41 0.07 7.42 3.8 12.06
4/17/2022 6:30:00 PM 7.37 45.266 0.07 7.43 3.29 12.06
4/17/2022 6:45:00 PM 7.27 45.086 0.07 7.41 3.97 12.04
4/17/2022 7:00:00 PM 7.18 44.924 0.07 7.39 3.42 12.04
4/17/2022 7:15:00 PM 7.11 44.798 0.07 7.36 3.86 12.02
4/17/2022 7:30:00 PM 7.03 44.654 0.07 7.35 3.5 12.01
4/17/2022 7:45:00 PM 6.95 44.51 0.07 7.34 3.87 12
4/17/2022 8:00:00 PM 6.87 44.366 0.07 7.3 3.49 12.01
4/17/2022 8:15:00 PM 6.8 44.24 0.07 7.29 4.03 12.01
4/17/2022 8:30:00 PM 6.73 44.114 0.07 7.26 3.47 12.01
4/17/2022 8:45:00 PM 6.65 43.97 0.07 7.26 3.81 12.03
4/17/2022 9:00:00 PM 6.56 43.808 0.071 7.25 3.41 12.05
4/17/2022 9:15:00 PM 6.46 43.628 0.071 7.22 3.91 12.06
4/17/2022 9:30:00 PM 6.38 43.484 0.071 7.23 3.57 12.08
4/17/2022 9:45:00 PM 6.29 43.322 0.071 7.22 3.96 12.11
4/17/2022 10:00:00 PM 6.19 43.142 0.071 7.22 3.44 12.15
4/17/2022 10:15:00 PM 6.11 42.998 0.071 7.22 3.94 12.18
4/17/2022 10:30:00 PM 6.02 42.836 0.071 7.22 3.61 12.21
4/17/2022 10:45:00 PM 5.93 42.674 0.071 7.22 3.78 12.23
4/17/2022 11:00:00 PM 5.85 42.53 0.071 7.22 3.79 12.25
4/17/2022 11:15:00 PM 5.76 42.368 0.071 7.22 3.85 12.27
4/17/2022 11:30:00 PM 5.67 42.206 0.071 7.2 3.41 12.31
4/17/2022 11:45:00 PM 5.59 42.062 0.071 7.22 3.55 12.34
4/18/2022 12:00:00 AM 5.51 41.918 0.071 7.22 3.29 12.38
4/18/2022 12:15:00 AM 5.43 41.774 0.071 7.21 3.57 12.41
4/18/2022 12:30:00 AM 5.35 41.63 0.072 7.23 3.41 12.43
4/18/2022 12:45:00 AM 5.27 41.486 0.072 7.22 3.69 12.45
4/18/2022 1:00:00 AM 5.2 41.36 0.072 7.22 3.32 12.47
4/18/2022 1:15:00 AM 5.13 41.234 0.072 7.2 3.27 12.48
4/18/2022 1:30:00 AM 5.05 41.09 0.072 7.23 3.31 12.52
4/18/2022 1:45:00 AM 4.98 40.964 0.072 7.22 3.2 12.55
4/18/2022 2:00:00 AM 4.91 40.838 0.072 7.21 3.15 12.58
4/18/2022 2:15:00 AM 4.83 40.694 0.072 7.22 3.21 12.61
4/18/2022 2:30:00 AM 4.76 40.568 0.072 7.23 3.2 12.63
4/18/2022 2:45:00 AM 4.69 40.442 0.072 7.22 3.57 12.65
4/18/2022 3:00:00 AM 4.62 40.316 0.072 7.28 3 12.67
4/18/2022 3:15:00 AM 4.56 40.208 0.07 7.23 3.47 12.68
4/18/2022 3:30:00 AM 4.49 40.082 0.07 7.23 3.63 12.71
4/18/2022 3:45:00 AM 4.42 39.956 0.072 7.22 3.44 12.74
4/18/2022 4:00:00 AM 4.35 39.83 0.072 7.22 3.42 12.76
4/18/2022 4:15:00 AM 4.29 39.722 0.072 7.23 2.95 12.79
4/18/2022 4:30:00 AM 4.22 39.596 0.072 7.22 4.01 12.82
4/18/2022 4:45:00 AM 4.16 39.488 0.072 7.22 3.04 12.85
4/18/2022 5:00:00 AM 4.1 39.38 0.072 7.23 3.37 12.86
4/18/2022 5:15:00 AM 4.04 39.272 0.072 7.22 2.93 12.88
4/18/2022 5:30:00 AM 3.98 39.164 0.072 7.22 3.42 12.9
4/18/2022 5:45:00 AM 3.92 39.056 0.072 7.22 2.99 12.91
4/18/2022 6:00:00 AM 3.86 38.948 0.072 7.23 3.35 12.93
4/18/2022 6:15:00 AM 3.8 38.84 0.072 7.24 2.97 12.95
4/18/2022 6:30:00 AM 3.75 38.75 0.072 7.24 3.38 12.99
4/18/2022 6:45:00 AM 3.7 38.66 0.072 7.25 2.98 13.03
4/18/2022 7:00:00 AM 3.65 38.57 0.072 7.25 3.34 13.09
4/18/2022 7:15:00 AM 3.61 38.498 0.072 7.25 3.04 13.14
4/18/2022 7:30:00 AM 3.58 38.444 0.072 7.28 3.34 13.18
4/18/2022 7:45:00 AM 3.56 38.408 0.072 7.29 3.15 13.23
4/18/2022 8:00:00 AM 3.57 38.426 0.072 7.31 3.47 13.28
4/18/2022 8:15:00 AM 3.62 38.516 0.072 7.32 3.22 13.31
4/18/2022 8:30:00 AM 3.68 38.624 0.072 7.35 3.31 13.33
4/18/2022 8:45:00 AM 3.77 38.786 0.072 7.37 3.32 13.35
4/18/2022 9:00:00 AM 3.88 38.984 0.072 7.36 3.23 13.33
4/18/2022 9:15:00 AM 4.04 39.272 0.072 7.4 3.08 13.33
4/18/2022 9:30:00 AM 4.23 39.614 0.072 7.41 2.96 13.31
4/18/2022 9:45:00 AM 4.43 39.974 0.072 7.42 3.24 13.25
4/18/2022 10:00:00 AM 4.67 40.406 0.072 7.43 3.29 13.22
4/18/2022 10:15:00 AM 4.88 40.784 0.072 7.44 4.02 13.18
4/18/2022 10:30:00 AM 5.11 41.198 0.072 7.46 3.15 13.09
4/18/2022 10:45:00 AM 5.35 41.63 0.072 7.47 3.5 13.05
4/18/2022 11:00:00 AM 5.56 42.008 0.072 7.47 2.88 12.98
4/18/2022 11:15:00 AM 5.73 42.314 0.071 7.48 3.25 12.91
4/18/2022 11:30:00 AM 5.93 42.674 0.071 7.49 2.9 12.87
4/18/2022 11:45:00 AM 6.14 43.052 0.071 7.48 3.21 12.81
4/18/2022 12:00:00 PM 6.34 43.412 0.071 7.5 2.9 12.72
4/18/2022 12:15:00 PM 6.47 43.646 0.071 7.49 2.97 12.66
4/18/2022 12:30:00 PM 6.61 43.898 0.071 7.5 2.98 12.63
4/18/2022 12:45:00 PM 6.72 44.096 0.071 7.5 2.81 12.59
4/18/2022 1:00:00 PM 6.82 44.276 0.071 7.52 3 12.54
4/18/2022 1:15:00 PM 6.91 44.438 0.071 7.5 2.95 12.5
4/18/2022 1:30:00 PM 7.01 44.618 0.071 7.53 2.87 12.45
4/18/2022 1:45:00 PM 7.11 44.798 0.071 7.5 2.94 12.43
4/18/2022 2:00:00 PM 7.22 44.996 0.071 7.53 2.9 12.41
4/18/2022 2:15:00 PM 7.31 45.158 0.071 7.54 2.9 12.37
4/18/2022 2:30:00 PM 7.38 45.284 0.071 7.52 2.97 12.34
4/18/2022 2:45:00 PM 7.43 45.374 0.071 7.54 2.92 12.31
4/18/2022 3:00:00 PM 7.45 45.41 0.071 7.53 2.97 12.28
4/18/2022 3:15:00 PM 7.43 45.374 0.071 7.53 2.94 12.26
4/18/2022 3:30:00 PM 7.39 45.302 0.071 7.52 3.2 12.23
4/18/2022 3:45:00 PM 7.35 45.23 0.071 7.5 2.86 12.22
4/18/2022 4:00:00 PM 7.33 45.194 0.071 7.52 3.49 12.21
4/18/2022 4:15:00 PM 7.3 45.14 0.071 7.51 3.07 12.21
4/18/2022 4:30:00 PM 7.25 45.05 0.071 7.49 3.59 12.19
4/18/2022 4:45:00 PM 7.22 44.996 0.071 7.49 3.25 12.17
4/18/2022 5:00:00 PM 7.18 44.924 0.071 7.48 3.62 12.13
4/18/2022 5:15:00 PM 7.13 44.834 0.071 7.45 3.01 12.09
4/18/2022 5:30:00 PM 7.06 44.708 0.071 7.43 3.32 12.06
4/18/2022 5:45:00 PM 7 44.6 0.071 7.44 3.47 12.05
4/18/2022 6:00:00 PM 6.93 44.474 0.071 7.42 3.16 12.05
4/18/2022 6:15:00 PM 6.83 44.294 0.071 7.4 3.16 12.06
4/18/2022 6:30:00 PM 6.7 44.06 0.071 7.37 3.08 12.06
4/18/2022 6:45:00 PM 6.57 43.826 0.071 7.38 3.63 12.05
4/18/2022 7:00:00 PM 6.46 43.628 0.071 7.38 3.12 12.05
4/18/2022 7:15:00 PM 6.34 43.412 0.071 7.34 3.35 12.05
4/18/2022 7:30:00 PM 6.2 43.16 0.071 7.33 3.23 12.08
4/18/2022 7:45:00 PM 6.05 42.89 0.071 7.33 3.63 12.12
4/18/2022 8:00:00 PM 5.93 42.674 0.071 7.3 3.46 12.14
4/18/2022 8:15:00 PM 5.84 42.512 0.071 7.33 3.49 12.15
4/18/2022 8:30:00 PM 5.75 42.35 0.071 7.32 3.33 12.18
4/18/2022 8:45:00 PM 5.68 42.224 0.071 7.3 3.87 12.2
4/18/2022 9:00:00 PM 5.61 42.098 0.071 7.3 4.38 12.23
4/18/2022 9:15:00 PM 5.54 41.972 0.072 7.3 4.73 12.27
4/18/2022 9:30:00 PM 5.47 41.846 0.072 7.28 6.35 12.28
4/18/2022 9:45:00 PM 5.4 41.72 0.072 7.3 7.1 12.31
4/18/2022 10:00:00 PM 5.33 41.594 0.072 7.29 7.82 12.32
4/18/2022 10:15:00 PM 5.24 41.432 0.072 7.29 7.85 12.32
4/18/2022 10:30:00 PM 5.13 41.234 0.071 7.28 7.07 12.33
4/18/2022 10:45:00 PM 5.03 41.054 0.072 7.29 6.31 12.37
4/18/2022 11:00:00 PM 4.9 40.82 0.072 7.28 6.08 12.42
4/18/2022 11:15:00 PM 4.76 40.568 0.072 7.28 5.42 12.44
4/18/2022 11:30:00 PM 4.57 40.226 0.071 7.27 5.53 12.48
4/18/2022 11:45:00 PM 4.39 39.902 0.071 7.27 5.12 12.53
4/19/2022 12:00:00 AM 4.24 39.632 0.071 7.24 4.92 12.59
4/19/2022 12:15:00 AM 4.01 39.218 0.071 7.23 5.46 12.64
4/19/2022 12:30:00 AM 3.73 38.714 0.071 7.2 5.25 12.7
4/19/2022 12:45:00 AM 3.34 38.012 0.071 7.17 4.87 12.76
4/19/2022 1:00:00 AM 2.79 37.022 0.071 7.15 5.01 12.86
4/19/2022 1:15:00 AM 2.52 36.536 0.07 7.15 4.88 12.97
4/19/2022 1:30:00 AM 2.18 35.924 0.07 7.12 5.07 13.11
4/19/2022 1:45:00 AM 1.91 35.438 0.07 7.13 4.68 13.26
4/19/2022 2:00:00 AM 1.69 35.042 0.069 7.15 4.61 13.38
4/19/2022 2:15:00 AM 1.5 34.7 0.069 7.15 5.02 13.48
4/19/2022 2:30:00 AM 1.32 34.376 0.069 7.16 4.67 13.56
4/19/2022 2:45:00 AM 1.22 34.196 0.069 7.16 4.49 13.67
4/19/2022 3:00:00 AM 1.03 33.854 0.068 7.15 4.41 13.78
4/19/2022 3:15:00 AM 0.84 33.512 0.068 7.14 4.4 13.85
4/19/2022 3:30:00 AM 0.7 33.26 0.067 7.14 4.77 13.92
4/19/2022 3:45:00 AM 0.54 32.972 0.067 7.15 4.89 14
4/19/2022 4:00:00 AM 0.41 32.738 0.067 7.14 4.46 14.05
4/19/2022 4:15:00 AM 0.33 32.594 0.067 7.16 4.62 14.08
4/19/2022 4:30:00 AM 0.25 32.45 0.067 7.16 4.72 14.09
4/19/2022 4:45:00 AM 0.23 32.414 0.067 7.18 4.9 14.09
4/19/2022 5:00:00 AM 0.24 32.432 0.067 7.18 8.99 14.1
4/19/2022 5:15:00 AM 0.29 32.522 0.066 7.2 4.59 14.1
4/19/2022 5:30:00 AM 0.34 32.612 0.066 7.21 4.81 14.09
4/19/2022 5:45:00 AM 0.37 32.666 0.066 7.22 4.4 14.08
4/19/2022 6:00:00 AM 0.39 32.702 0.066 7.21 4.88 14.07
4/19/2022 6:15:00 AM 0.41 32.738 0.066 7.21 4.5 14.06
4/19/2022 6:30:00 AM 0.44 32.792 0.066 7.22 5.16 14.06
4/19/2022 6:45:00 AM 0.47 32.846 0.066 7.23 4.5 14.06
4/19/2022 7:00:00 AM 0.51 32.918 0.066 7.22 5.04 14.06
4/19/2022 7:15:00 AM 0.55 32.99 0.066 7.23 4.85 14.06
4/19/2022 7:30:00 AM 0.57 33.026 0.066 7.23 5.24 14.05
4/19/2022 7:45:00 AM 0.6 33.08 0.066 7.24 4.87 14.05
4/19/2022 8:00:00 AM 0.62 33.116 0.066 7.24 5.3 14.04
4/19/2022 8:15:00 AM 0.69 33.242 0.066 7.26 4.77 14.05
4/19/2022 8:30:00 AM 0.77 33.386 0.066 7.26 4.98 14.04
4/19/2022 8:45:00 AM 0.87 33.566 0.066 7.28 5.13 14.04
4/19/2022 9:00:00 AM 1 33.8 0.066 7.29 5.01 14.05
4/19/2022 9:15:00 AM 1.13 34.034 0.066 7.28 5.09 14.03
4/19/2022 9:30:00 AM 1.25 34.25 0.066 7.32 5.06 13.98
4/19/2022 9:45:00 AM 1.36 34.448 0.066 7.32 4.91 13.94
4/19/2022 10:00:00 AM 1.48 34.664 0.067 7.34 5.15 13.92
4/19/2022 10:15:00 AM 1.59 34.862 0.067 7.33 4.92 13.91
4/19/2022 10:30:00 AM 1.71 35.078 0.067 7.34 5.02 13.87
4/19/2022 10:45:00 AM 1.83 35.294 0.067 7.31 4.93 13.84
4/19/2022 11:00:00 AM 2 35.6 0.067 7.36 5.1 13.78
4/19/2022 11:15:00 AM 2.1 35.78 0.067 7.33 5.24 13.76
4/19/2022 11:30:00 AM 2.23 36.014 0.068 7.36 5.38 13.73
4/19/2022 11:45:00 AM 2.35 36.23 0.068 7.37 5 13.7
4/19/2022 12:00:00 PM 2.42 36.356 0.068 7.36 5.05 13.65
4/19/2022 12:15:00 PM 2.51 36.518 0.068 7.38 5.3 13.62
4/19/2022 12:30:00 PM 2.61 36.698 0.068 7.37 5.58 13.6
4/19/2022 12:45:00 PM 2.7 36.86 0.068 7.38 5.48 13.59
4/19/2022 1:00:00 PM 2.78 37.004 0.068 7.37 5.48 13.57
4/19/2022 1:15:00 PM 2.87 37.166 0.068 7.4 5.56 13.53
4/19/2022 1:30:00 PM 2.95 37.31 0.068 7.38 5.57 13.5
4/19/2022 1:45:00 PM 3.02 37.436 0.068 7.4 5.69 13.49
4/19/2022 2:00:00 PM 3.09 37.562 0.068 7.39 5.83 13.46
4/19/2022 2:15:00 PM 3.18 37.724 0.068 7.4 5.62 13.42
4/19/2022 2:30:00 PM 3.28 37.904 0.068 7.39 5.8 13.39
4/19/2022 2:45:00 PM 3.34 38.012 0.068 7.4 5.76 13.37
4/19/2022 3:00:00 PM 3.44 38.192 0.068 7.38 6.17 13.36
4/19/2022 3:15:00 PM 3.54 38.372 0.068 7.41 6.11 13.34
4/19/2022 3:30:00 PM 3.59 38.462 0.068 7.4 6.23 13.32
4/19/2022 3:45:00 PM 3.65 38.57 0.068 7.4 5.92 13.28
4/19/2022 4:00:00 PM 3.72 38.696 0.068 7.4 6.34 13.25
4/19/2022 4:15:00 PM 3.79 38.822 0.068 7.39 6.01 13.23
4/19/2022 4:30:00 PM 3.84 38.912 0.068 7.4 6.27 13.2
4/19/2022 4:45:00 PM 3.94 39.092 0.068 7.39 6.2 13.18
4/19/2022 5:00:00 PM 4.01 39.218 0.068 7.39 6.58 13.17
4/19/2022 5:15:00 PM 4.03 39.254 0.068 7.39 6.13 13.14
4/19/2022 5:30:00 PM 4.1 39.38 0.068 7.4 6.72 13.12
4/19/2022 5:45:00 PM 4.11 39.398 0.069 7.39 6.45 13.1
4/19/2022 6:00:00 PM 4.11 39.398 0.069 7.38 6.96 13.05
4/19/2022 6:15:00 PM 4.11 39.398 0.069 7.37 6.28 13
4/19/2022 6:30:00 PM 4.11 39.398 0.069 7.36 6.7 12.97
4/19/2022 6:45:00 PM 4.09 39.362 0.069 7.36 6.5 12.96
4/19/2022 7:00:00 PM 4.08 39.344 0.069 7.33 6.68 12.93
4/19/2022 7:15:00 PM 4.06 39.308 0.069 7.32 6.6 12.91
4/19/2022 7:30:00 PM 4.04 39.272 0.069 7.32 6.92 12.89
4/19/2022 7:45:00 PM 4.01 39.218 0.069 7.31 6.87 12.86
4/19/2022 8:00:00 PM 3.98 39.164 0.069 7.29 7.01 12.84
4/19/2022 8:15:00 PM 3.94 39.092 0.07 7.28 6.64 12.82
4/19/2022 8:30:00 PM 3.91 39.038 0.07 7.27 7.28 12.82
4/19/2022 8:45:00 PM 3.88 38.984 0.07 7.28 6.49 12.82
4/19/2022 9:00:00 PM 3.84 38.912 0.07 7.26 6.92 12.83
4/19/2022 9:15:00 PM 3.81 38.858 0.07 7.25 6.46 12.84
4/19/2022 9:30:00 PM 3.79 38.822 0.07 7.26 6.6 12.85
4/19/2022 9:45:00 PM 3.77 38.786 0.07 7.25 6.26 12.86
4/19/2022 10:00:00 PM 3.74 38.732 0.07 7.24 6.72 12.87
4/19/2022 10:15:00 PM 3.71 38.678 0.071 7.25 6.53 12.88
4/19/2022 10:30:00 PM 3.69 38.642 0.071 7.24 7.26 12.89
4/19/2022 10:45:00 PM 3.66 38.588 0.071 7.25 6.97 12.91
4/19/2022 11:00:00 PM 3.64 38.552 0.072 7.23 6.96 12.91
4/19/2022 11:15:00 PM 3.61 38.498 0.072 7.24 6.66 12.92
4/19/2022 11:30:00 PM 3.59 38.462 0.072 7.25 6.81 12.93
4/19/2022 11:45:00 PM 3.57 38.426 0.072 7.23 6.25 12.94
4/20/2022 12:00:00 AM 3.55 38.39 0.072 7.24 6.6 12.95
4/20/2022 12:15:00 AM 3.54 38.372 0.072 7.25 5.92 12.96
4/20/2022 12:30:00 AM 3.52 38.336 0.072 7.23 6.18 12.97
4/20/2022 12:45:00 AM 3.5 38.3 0.072 7.24 5.64 12.98
4/20/2022 1:00:00 AM 3.48 38.264 0.072 7.23 5.78 12.99
4/20/2022 1:15:00 AM 3.47 38.246 0.072 7.24 5.49 12.99
4/20/2022 1:30:00 AM 3.46 38.228 0.072 7.23 5.53 13
4/20/2022 1:45:00 AM 3.45 38.21 0.072 7.24 5.09 13.01
4/20/2022 2:00:00 AM 3.44 38.192 0.072 7.23 5.61 13.02
4/20/2022 2:15:00 AM 3.43 38.174 0.072 7.24 4.98 13.03
4/20/2022 2:30:00 AM 3.42 38.156 0.073 7.24 5.32 13.03
4/20/2022 2:45:00 AM 3.41 38.138 0.073 7.25 4.87 13.04
4/20/2022 3:00:00 AM 3.4 38.12 0.073 7.24 5.24 13.04
4/20/2022 3:15:00 AM 3.39 38.102 0.073 7.23 4.89 13.05
4/20/2022 3:30:00 AM 3.39 38.102 0.073 7.23 5.15 13.05
4/20/2022 3:45:00 AM 3.38 38.084 0.073 7.23 4.69 13.05
4/20/2022 4:00:00 AM 3.38 38.084 0.073 7.23 4.96 13.07
4/20/2022 4:15:00 AM 3.36 38.048 0.073 7.24 4.43 13.07
4/20/2022 4:30:00 AM 3.37 38.066 0.073 7.23 4.88 13.07
4/20/2022 4:45:00 AM 3.37 38.066 0.073 7.24 4.91 13.08
4/20/2022 5:00:00 AM 3.35 38.03 0.073 7.23 4.75 13.09
4/20/2022 5:15:00 AM 3.35 38.03 0.073 7.23 4.59 13.09
4/20/2022 5:30:00 AM 3.34 38.012 0.073 7.23 4.53 13.09
4/20/2022 5:45:00 AM 3.32 37.976 0.073 7.23 4.63 13.1
4/20/2022 6:00:00 AM 3.33 37.994 0.073 7.22 4.14 13.1
4/20/2022 6:15:00 AM 3.32 37.976 0.073 7.21 4.57 13.11
4/20/2022 6:30:00 AM 3.32 37.976 0.073 7.22 4.5 13.12
4/20/2022 6:45:00 AM 3.32 37.976 0.073 7.23 4.7 13.13
4/20/2022 7:00:00 AM 3.32 37.976 0.073 7.22 4.48 13.15
4/20/2022 7:15:00 AM 3.33 37.994 0.073 7.24 4.43 13.19
4/20/2022 7:30:00 AM 3.34 38.012 0.073 7.25 4.3 13.24
4/20/2022 7:45:00 AM 3.34 38.012 0.072 7.25 4.47 13.28
4/20/2022 8:00:00 AM 3.37 38.066 0.072 7.26 4.09 13.33
4/20/2022 8:15:00 AM 3.42 38.156 0.072 7.26 4.4 13.39
4/20/2022 8:30:00 AM 3.46 38.228 0.072 7.29 3.96 13.42
4/20/2022 8:45:00 AM 3.51 38.318 0.072 7.29 4.27 13.43
4/20/2022 9:00:00 AM 3.57 38.426 0.072 7.32 3.98 13.45
4/20/2022 9:15:00 AM 3.67 38.606 0.072 7.32 4.4 13.45
4/20/2022 9:30:00 AM 3.79 38.822 0.072 7.33 4.02 13.42
4/20/2022 9:45:00 AM 3.94 39.092 0.072 7.35 4.47 13.4
4/20/2022 10:00:00 AM 4.11 39.398 0.072 7.35 4.09 13.38
4/20/2022 10:15:00 AM 4.25 39.65 0.072 7.37 3.89 13.35
4/20/2022 10:30:00 AM 4.46 40.028 0.072 7.37 3.75 13.28
4/20/2022 10:45:00 AM 4.72 40.496 0.072 7.38 4.04 13.25
4/20/2022 11:00:00 AM 4.84 40.712 0.072 7.39 3.82 13.2
4/20/2022 11:15:00 AM 5.06 41.108 0.071 7.4 3.75 13.15
4/20/2022 11:30:00 AM 5.36 41.648 0.07 7.4 4.44 13.09
4/20/2022 11:45:00 AM 5.58 42.044 0.07 7.4 4.34 13.02
4/20/2022 12:00:00 PM 5.97 42.746 0.071 7.41 4.57 12.91
4/20/2022 12:15:00 PM 6.23 43.214 0.071 7.41 4.61 12.84
4/20/2022 12:30:00 PM 6.52 43.736 0.071 7.42 4.11 12.77
4/20/2022 12:45:00 PM 6.78 44.204 0.071 7.42 4.43 12.71
4/20/2022 1:00:00 PM 6.99 44.582 0.071 7.42 4.19 12.61
4/20/2022 1:15:00 PM 7.17 44.906 0.071 7.41 4.28 12.56
4/20/2022 1:30:00 PM 7.35 45.23 0.071 7.43 4.44 12.51
4/20/2022 1:45:00 PM 7.53 45.554 0.07 7.43 4.59 12.45
4/20/2022 2:00:00 PM 7.69 45.842 0.07 7.44 4.88 12.38
4/20/2022 2:15:00 PM 7.81 46.058 0.07 7.43 5.47 12.35
4/20/2022 2:30:00 PM 7.94 46.292 0.07 7.43 5.34 12.3
4/20/2022 2:45:00 PM 8.08 46.544 0.07 7.42 5.63 12.23
4/20/2022 3:00:00 PM 8.22 46.796 0.069 7.44 5.95 12.15
4/20/2022 3:15:00 PM 8.34 47.012 0.069 7.42 6.19 12.09
4/20/2022 3:30:00 PM 8.43 47.174 0.069 7.39 6.8 12.06
4/20/2022 3:45:00 PM 8.49 47.282 0.069 7.39 7.7 12.02
4/20/2022 4:00:00 PM 8.52 47.336 0.068 7.38 8.97 11.99
4/20/2022 4:15:00 PM 8.53 47.354 0.069 7.38 9.79 11.96
4/20/2022 4:30:00 PM 8.51 47.318 0.069 7.36 12.08 11.93
4/20/2022 4:45:00 PM 8.47 47.246 0.068 7.34 13.86 11.9
4/20/2022 5:00:00 PM 8.41 47.138 0.068 7.31 17.39 11.87
4/20/2022 5:15:00 PM 8.33 46.994 0.068 7.32 17.88 11.85
4/20/2022 5:30:00 PM 8.24 46.832 0.068 7.31 17.47 11.84
4/20/2022 5:45:00 PM 8.12 46.616 0.068 7.31 17.18 11.86
4/20/2022 6:00:00 PM 8 46.4 0.068 7.29 16.52 11.89
4/20/2022 6:15:00 PM 7.87 46.166 0.068 7.29 16.41 11.89
4/20/2022 6:30:00 PM 7.73 45.914 0.068 7.27 16.83 11.89
4/20/2022 6:45:00 PM 7.59 45.662 0.068 7.26 18.22 11.9
4/20/2022 7:00:00 PM 7.45 45.41 0.068 7.25 19.13 11.94
4/20/2022 7:15:00 PM 7.3 45.14 0.067 7.24 18.06 11.98
4/20/2022 7:30:00 PM 7.14 44.852 0.066 7.22 17.81 12
4/20/2022 7:45:00 PM 6.98 44.564 0.066 7.21 18.29 12.03
4/20/2022 8:00:00 PM 6.82 44.276 0.065 7.21 18.06 12.09
4/20/2022 8:15:00 PM 6.67 44.006 0.065 7.22 18.83 12.13
4/20/2022 8:30:00 PM 6.51 43.718 0.065 7.19 17.22 12.17
4/20/2022 8:45:00 PM 6.35 43.43 0.064 7.19 16.07 12.21
4/20/2022 9:00:00 PM 6.2 43.16 0.064 7.19 15.59 12.27
4/20/2022 9:15:00 PM 6.05 42.89 0.064 7.18 15.04 12.32
4/20/2022 9:30:00 PM 5.91 42.638 0.064 7.18 15.53 12.37
4/20/2022 9:45:00 PM 5.79 42.422 0.064 7.15 16.82 12.39
4/20/2022 10:00:00 PM 5.67 42.206 0.065 7.11 15.68 12.43
4/20/2022 10:15:00 PM 5.56 42.008 0.065 7.11 14.29 12.48
4/20/2022 10:30:00 PM 5.45 41.81 0.065 7.07 12.53 12.52
4/20/2022 10:45:00 PM 5.36 41.648 0.066 7.09 11.54 12.54
4/20/2022 11:00:00 PM 5.27 41.486 0.066 7.09 11.23 12.58
4/20/2022 11:15:00 PM 5.19 41.342 0.066 7.11 10.49 12.59
4/20/2022 11:30:00 PM 5.11 41.198 0.066 7.09 9.88 12.6
4/20/2022 11:45:00 PM 5.04 41.072 0.067 7.12 9.67 12.63
4/21/2022 12:00:00 AM 4.97 40.946 0.067 7.1 9.49 12.66
4/21/2022 12:15:00 AM 4.91 40.838 0.067 7.12 8.87 12.69
4/21/2022 12:30:00 AM 4.85 40.73 0.067 7.09 9.11 12.71
4/21/2022 12:45:00 AM 4.79 40.622 0.068 7.12 8.1 12.73
4/21/2022 1:00:00 AM 4.73 40.514 0.068 7.11 8.72 12.75
4/21/2022 1:15:00 AM 4.68 40.424 0.068 7.11 7.7 12.76
4/21/2022 1:30:00 AM 4.62 40.316 0.068 7.12 7.98 12.77
4/21/2022 1:45:00 AM 4.58 40.244 0.068 7.11 7.23 12.78
4/21/2022 2:00:00 AM 4.53 40.154 0.068 7.12 7.59 12.79
4/21/2022 2:15:00 AM 4.49 40.082 0.068 7.12 6.92 12.8
4/21/2022 2:30:00 AM 4.46 40.028 0.068 7.11 7.67 12.82
4/21/2022 2:45:00 AM 4.43 39.974 0.068 7.13 6.74 12.84
4/21/2022 3:00:00 AM 4.41 39.938 0.068 7.13 6.96 12.84
4/21/2022 3:15:00 AM 4.38 39.884 0.069 7.14 6.51 12.85
4/21/2022 3:30:00 AM 4.36 39.848 0.069 7.13 6.86 12.86
4/21/2022 3:45:00 AM 4.34 39.812 0.069 7.14 6.37 12.87
4/21/2022 4:00:00 AM 4.34 39.812 0.069 7.13 6.75 12.88
4/21/2022 4:15:00 AM 4.33 39.794 0.069 7.14 6.13 12.87
4/21/2022 4:30:00 AM 4.33 39.794 0.069 7.13 6.5 12.88
4/21/2022 4:45:00 AM 4.32 39.776 0.069 7.13 5.93 12.88
4/21/2022 5:00:00 AM 4.32 39.776 0.069 7.13 6.34 12.88
4/21/2022 5:15:00 AM 4.31 39.758 0.069 7.14 6.31 12.87
4/21/2022 5:30:00 AM 4.31 39.758 0.069 7.14 5.76 12.88
4/21/2022 5:45:00 AM 4.3 39.74 0.069 7.15 6.18 12.88
4/21/2022 6:00:00 AM 4.29 39.722 0.069 7.15 6.05 12.87
4/21/2022 6:15:00 AM 4.29 39.722 0.069 7.15 5.95 12.89
4/21/2022 6:30:00 AM 4.28 39.704 0.069 7.15 5.96 12.89
4/21/2022 6:45:00 AM 4.28 39.704 0.069 7.15 5.68 12.91
4/21/2022 7:00:00 AM 4.29 39.722 0.069 7.14 5.58 12.93
4/21/2022 7:15:00 AM 4.3 39.74 0.069 7.18 5.69 12.97
4/21/2022 7:30:00 AM 4.31 39.758 0.069 7.17 5.48 13
4/21/2022 7:45:00 AM 4.33 39.794 0.069 7.19 5.33 13.04
4/21/2022 8:00:00 AM 4.37 39.866 0.069 7.2 5.56 13.07
4/21/2022 8:15:00 AM 4.41 39.938 0.069 7.22 5.38 13.09
4/21/2022 8:30:00 AM 4.48 40.064 0.069 7.23 5.37 13.11
4/21/2022 8:45:00 AM 4.55 40.19 0.069 7.25 5.07 13.12
4/21/2022 9:00:00 AM 4.65 40.37 0.069 7.25 4.95 13.13
4/21/2022 9:15:00 AM 4.79 40.622 0.069 7.25 5.06 13.14
4/21/2022 9:30:00 AM 4.92 40.856 0.069 7.29 4.98 13.12
4/21/2022 9:45:00 AM 4.99 40.982 0.069 7.3 5.2 13.1
4/21/2022 10:00:00 AM 5.07 41.126 0.069 7.29 4.99 13.07
4/21/2022 10:15:00 AM 5.14 41.252 0.069 7.31 4.9 13.04
4/21/2022 10:30:00 AM 5.23 41.414 0.069 7.32 4.66 13.02
4/21/2022 10:45:00 AM 5.31 41.558 0.069 7.31 4.99 12.99
4/21/2022 11:00:00 AM 5.36 41.648 0.069 7.28 4.89 12.96
4/21/2022 11:15:00 AM 5.42 41.756 0.069 7.31 4.89 12.93
4/21/2022 11:30:00 AM 5.49 41.882 0.069 7.31 4.92 12.91
4/21/2022 11:45:00 AM 5.57 42.026 0.068 7.33 4.6 12.89
4/21/2022 12:00:00 PM 5.64 42.152 0.068 7.31 4.66 12.84
4/21/2022 12:15:00 PM 5.73 42.314 0.068 7.33 4.48 12.81
4/21/2022 12:30:00 PM 5.81 42.458 0.068 7.33 4.93 12.8
4/21/2022 12:45:00 PM 5.87 42.566 0.068 7.34 4.52 12.78
4/21/2022 1:00:00 PM 5.92 42.656 0.068 7.34 5.14 12.75
4/21/2022 1:15:00 PM 5.96 42.728 0.068 7.33 4.42 12.73
4/21/2022 1:30:00 PM 6.01 42.818 0.068 7.32 5.12 12.71
4/21/2022 1:45:00 PM 6.09 42.962 0.067 7.33 4.64 12.7
4/21/2022 2:00:00 PM 6.16 43.088 0.067 7.34 5.19 12.67
4/21/2022 2:15:00 PM 6.21 43.178 0.067 7.34 4.97 12.62
4/21/2022 2:30:00 PM 6.27 43.286 0.067 7.32 5.54 12.56
4/21/2022 2:45:00 PM 6.31 43.358 0.067 7.33 5.47 12.53
4/21/2022 3:00:00 PM 6.33 43.394 0.067 7.32 5.82 12.48
4/21/2022 3:15:00 PM 6.35 43.43 0.066 7.3 5.62 12.44
4/21/2022 3:30:00 PM 6.37 43.466 0.066 7.3 6.24 12.4
4/21/2022 3:45:00 PM 6.39 43.502 0.066 7.3 6.04 12.38
4/21/2022 4:00:00 PM 6.4 43.52 0.065 7.29 6.58 12.37
4/21/2022 4:15:00 PM 6.41 43.538 0.065 7.28 6.87 12.37
4/21/2022 4:30:00 PM 6.4 43.52 0.065 7.26 8.16 12.35
4/21/2022 4:45:00 PM 6.4 43.52 0.064 7.27 9.9 12.33
4/21/2022 5:00:00 PM 6.39 43.502 0.064 7.26 10.65 12.32
4/21/2022 5:15:00 PM 6.38 43.484 0.063 7.25 11 12.31
4/21/2022 5:30:00 PM 6.37 43.466 0.063 7.22 10.5 12.3
4/21/2022 5:45:00 PM 6.37 43.466 0.063 7.24 10.85 12.29
4/21/2022 6:00:00 PM 6.36 43.448 0.062 7.23 11.77 12.29
4/21/2022 6:15:00 PM 6.35 43.43 0.062 7.21 12.47 12.28
4/21/2022 6:30:00 PM 6.34 43.412 0.062 7.21 13.47 12.28
4/21/2022 6:45:00 PM 6.32 43.376 0.061 7.21 13.1 12.28
4/21/2022 7:00:00 PM 6.3 43.34 0.061 7.21 13.95 12.28
4/21/2022 7:15:00 PM 6.28 43.304 0.061 7.21 13.95 12.29
4/21/2022 7:30:00 PM 6.25 43.25 0.061 7.2 15.18 12.3
4/21/2022 7:45:00 PM 6.22 43.196 0.061 7.19 14.94 12.3
4/21/2022 8:00:00 PM 6.18 43.124 0.061 7.19 15.21 12.3
4/21/2022 8:15:00 PM 6.15 43.07 0.06 7.19 15.48 12.31
4/21/2022 8:30:00 PM 6.12 43.016 0.06 7.15 16.05 12.32
4/21/2022 8:45:00 PM 6.09 42.962 0.06 7.18 16.28 12.34
4/21/2022 9:00:00 PM 6.05 42.89 0.06 7.17 16.88 12.35
4/21/2022 9:15:00 PM 6.02 42.836 0.06 7.16 15.81 12.36
4/21/2022 9:30:00 PM 5.97 42.746 0.06 7.16 16.13 12.37
4/21/2022 9:45:00 PM 5.92 42.656 0.059 7.15 15.68 12.38
4/21/2022 10:00:00 PM 5.86 42.548 0.059 7.13 15.48 12.39
4/21/2022 10:15:00 PM 5.81 42.458 0.059 7.13 15.19 12.41
4/21/2022 10:30:00 PM 5.75 42.35 0.059 7.1 15.15 12.42
4/21/2022 10:45:00 PM 5.71 42.278 0.059 7.08 14.86 12.43
4/21/2022 11:00:00 PM 5.66 42.188 0.059 7.09 14.84 12.47
4/21/2022 11:15:00 PM 5.61 42.098 0.059 7.09 14.37 12.48
4/21/2022 11:30:00 PM 5.56 42.008 0.059 7.1 14.3 12.51
4/21/2022 11:45:00 PM 5.52 41.936 0.059 7.1 13.28 12.52
4/22/2022 12:00:00 AM 5.48 41.864 0.059 7.09 13.38 12.52
4/22/2022 12:15:00 AM 5.44 41.792 0.059 7.1 13.56 12.55
4/22/2022 12:30:00 AM 5.4 41.72 0.059 7.09 12.58 12.55
4/22/2022 12:45:00 AM 5.36 41.648 0.059 7.09 11.91 12.56
4/22/2022 1:00:00 AM 5.33 41.594 0.059 7.1 11.61 12.56
4/22/2022 1:15:00 AM 5.3 41.54 0.059 7.09 11.12 12.58
4/22/2022 1:30:00 AM 5.27 41.486 0.059 7.1 11.16 12.59
4/22/2022 1:45:00 AM 5.24 41.432 0.06 7.09 10.66 12.59
4/22/2022 2:00:00 AM 5.22 41.396 0.06 7.1 10.75 12.59
4/22/2022 2:15:00 AM 5.19 41.342 0.06 7.09 10.32 12.59
4/22/2022 2:30:00 AM 5.17 41.306 0.06 7.08 9.94 12.59
4/22/2022 2:45:00 AM 5.15 41.27 0.06 7.09 9.05 12.6
4/22/2022 3:00:00 AM 5.13 41.234 0.06 7.09 9.58 12.6
4/22/2022 3:15:00 AM 5.11 41.198 0.06 7.07 9.17 12.6
4/22/2022 3:30:00 AM 5.08 41.144 0.06 7.09 8.94 12.61
4/22/2022 3:45:00 AM 5.06 41.108 0.06 7.07 8.24 12.62
4/22/2022 4:00:00 AM 5.04 41.072 0.06 7.06 8.76 12.63
4/22/2022 4:15:00 AM 5.03 41.054 0.06 7.08 8.05 12.64
4/22/2022 4:30:00 AM 5.01 41.018 0.06 7.07 8.31 12.65
4/22/2022 4:45:00 AM 5.01 41.018 0.06 7.07 7.9 12.65
4/22/2022 5:00:00 AM 5 41 0.06 7.08 8.14 12.66
4/22/2022 5:15:00 AM 5 41 0.06 7.09 7.9 12.66
4/22/2022 5:30:00 AM 5 41 0.06 7.07 7.8 12.67
4/22/2022 5:45:00 AM 5.01 41.018 0.06 7.08 7.62 12.66
4/22/2022 6:00:00 AM 5.02 41.036 0.06 7.09 7.25 12.67
4/22/2022 6:15:00 AM 5.03 41.054 0.06 7.05 7.65 12.66
4/22/2022 6:30:00 AM 5.05 41.09 0.06 7.09 7.09 12.66
4/22/2022 6:45:00 AM 5.06 41.108 0.06 7.09 7.37 12.67
4/22/2022 7:00:00 AM 5.07 41.126 0.06 7.09 6.69 12.69
4/22/2022 7:15:00 AM 5.09 41.162 0.06 7.1 6.91 12.7
4/22/2022 7:30:00 AM 5.11 41.198 0.06 7.12 6.54 12.72
4/22/2022 7:45:00 AM 5.15 41.27 0.06 7.13 6.9 12.74
4/22/2022 8:00:00 AM 5.19 41.342 0.06 7.14 6.31 12.77
4/22/2022 8:15:00 AM 5.24 41.432 0.059 7.16 6.57 12.79
4/22/2022 8:30:00 AM 5.32 41.576 0.059 7.17 6.08 12.82
4/22/2022 8:45:00 AM 5.4 41.72 0.059 7.18 6.63 12.85
4/22/2022 9:00:00 AM 5.48 41.864 0.059 7.2 5.92 12.84
4/22/2022 9:15:00 AM 5.58 42.044 0.059 7.2 6.33 12.85
4/22/2022 9:30:00 AM 5.7 42.26 0.059 7.22 6 12.84
4/22/2022 9:45:00 AM 5.82 42.476 0.059 7.21 6.17 12.81
4/22/2022 10:00:00 AM 5.96 42.728 0.059 7.23 5.79 12.81
4/22/2022 10:15:00 AM 6.11 42.998 0.059 7.25 5.99 12.79
4/22/2022 10:30:00 AM 6.26 43.268 0.059 7.26 5.63 12.75
4/22/2022 10:45:00 AM 6.43 43.574 0.059 7.26 6.12 12.7
4/22/2022 11:00:00 AM 6.61 43.898 0.059 7.27 5.56 12.68
4/22/2022 11:15:00 AM 6.8 44.24 0.059 7.28 6.02 12.65
4/22/2022 11:30:00 AM 7 44.6 0.059 7.28 5.34 12.57
4/22/2022 11:45:00 AM 7.2 44.96 0.058 7.27 5.7 12.54
4/22/2022 12:00:00 PM 7.4 45.32 0.058 7.31 5.31 12.51
4/22/2022 12:15:00 PM 7.6 45.68 0.058 7.29 5.65 12.43
4/22/2022 12:30:00 PM 7.8 46.04 0.058 7.3 5.45 12.38
4/22/2022 12:45:00 PM 8.01 46.418 0.058 7.28 5.81 12.33
4/22/2022 1:00:00 PM 8.21 46.778 0.058 7.31 5.52 12.26
4/22/2022 1:15:00 PM 8.4 47.12 0.058 7.3 5.92 12.2
4/22/2022 1:30:00 PM 8.58 47.444 0.058 7.32 5.52 12.16
4/22/2022 1:45:00 PM 8.76 47.768 0.057 7.31 6.02 12.08
4/22/2022 2:00:00 PM 8.93 48.074 0.057 7.33 5.59 12.01
4/22/2022 2:15:00 PM 9.09 48.362 0.057 7.32 6.23 11.97
4/22/2022 2:30:00 PM 9.24 48.632 0.057 7.32 5.89 11.92
4/22/2022 2:45:00 PM 9.38 48.884 0.057 7.32 6.47 11.86
4/22/2022 3:00:00 PM 9.5 49.1 0.057 7.32 6.4 11.8
4/22/2022 3:15:00 PM 9.61 49.298 0.057 7.3 6.51 11.75
4/22/2022 3:30:00 PM 9.69 49.442 0.056 7.33 6.47 11.71
4/22/2022 3:45:00 PM 9.77 49.586 0.056 7.31 7.12 11.69
4/22/2022 4:00:00 PM 9.82 49.676 0.056 7.31 6.82 11.66
4/22/2022 4:15:00 PM 9.88 49.784 0.056 7.28 7.21 11.63
4/22/2022 4:30:00 PM 9.91 49.838 0.056 7.31 7.29 11.6
4/22/2022 4:45:00 PM 9.93 49.874 0.056 7.27 7.59 11.57
4/22/2022 5:00:00 PM 9.94 49.892 0.055 7.28 7.39 11.54
4/22/2022 5:15:00 PM 9.92 49.856 0.055 7.25 7.67 11.52
4/22/2022 5:30:00 PM 9.9 49.82 0.055 7.26 7.59 11.49
4/22/2022 5:45:00 PM 9.85 49.73 0.055 7.23 7.78 11.47
4/22/2022 6:00:00 PM 9.81 49.658 0.055 7.24 7.77 11.47
4/22/2022 6:15:00 PM 9.74 49.532 0.055 7.22 7.72 11.45
4/22/2022 6:30:00 PM 9.67 49.406 0.055 7.23 7.55 11.44
4/22/2022 6:45:00 PM 9.59 49.262 0.055 7.17 8.19 11.41
4/22/2022 7:00:00 PM 9.51 49.118 0.055 7.19 7.49 11.41
4/22/2022 7:15:00 PM 9.43 48.974 0.055 7.15 7.41 11.42
4/22/2022 7:30:00 PM 9.34 48.812 0.055 7.17 7.21 11.43
4/22/2022 7:45:00 PM 9.24 48.632 0.055 7.14 7.39 11.43
4/22/2022 8:00:00 PM 9.14 48.452 0.055 7.14 6.95 11.45
4/22/2022 8:15:00 PM 9.04 48.272 0.055 7.11 7.65 11.45
4/22/2022 8:30:00 PM 8.93 48.074 0.055 7.14 7.26 11.45
4/22/2022 8:45:00 PM 8.83 47.894 0.055 7.09 7.51 11.48
4/22/2022 9:00:00 PM 8.72 47.696 0.055 7.1 7.47 11.52
4/22/2022 9:15:00 PM 8.62 47.516 0.055 7.09 7.3 11.55
4/22/2022 9:30:00 PM 8.52 47.336 0.056 7.09 7.2 11.57
4/22/2022 9:45:00 PM 8.43 47.174 0.056 7.06 6.96 11.59
4/22/2022 10:00:00 PM 8.33 46.994 0.056 7.09 6.79 11.61
4/22/2022 10:15:00 PM 8.23 46.814 0.056 7.06 7.09 11.63
4/22/2022 10:30:00 PM 8.14 46.652 0.056 7.09 6.75 11.67
4/22/2022 10:45:00 PM 8.05 46.49 0.056 7.06 7.11 11.7
4/22/2022 11:00:00 PM 7.95 46.31 0.056 7.08 6.44 11.73
4/22/2022 11:15:00 PM 7.85 46.13 0.056 7.08 6.74 11.76
4/22/2022 11:30:00 PM 7.76 45.968 0.056 7.08 6.36 11.78
4/22/2022 11:45:00 PM 7.66 45.788 0.056 7.08 6.54 11.79
4/23/2022 12:00:00 AM 7.57 45.626 0.056 7.08 6.29 11.83
4/23/2022 12:15:00 AM 7.47 45.446 0.056 7.07 6.1 11.87
4/23/2022 12:30:00 AM 7.38 45.284 0.056 7.09 6.12 11.9
4/23/2022 12:45:00 AM 7.29 45.122 0.056 7.06 6.11 11.93
4/23/2022 1:00:00 AM 7.2 44.96 0.056 7.06 5.88 11.96
4/23/2022 1:15:00 AM 7.11 44.798 0.056 7.08 5.8 11.98
4/23/2022 1:30:00 AM 7.03 44.654 0.056 7.09 5.95 11.99
4/23/2022 1:45:00 AM 6.94 44.492 0.056 7.07 5.84 12.02
4/23/2022 2:00:00 AM 6.86 44.348 0.056 7.08 5.61 12.05
4/23/2022 2:15:00 AM 6.78 44.204 0.056 7.07 6.04 12.08
4/23/2022 2:30:00 AM 6.7 44.06 0.056 7.07 5.54 12.11
4/23/2022 2:45:00 AM 6.63 43.934 0.056 7.08 5.53 12.12
4/23/2022 3:00:00 AM 6.56 43.808 0.057 7.08 5.67 12.14
4/23/2022 3:15:00 AM 6.49 43.682 0.057 7.06 5.82 12.15
4/23/2022 3:30:00 AM 6.43 43.574 0.057 7.08 5.21 12.16
4/23/2022 3:45:00 AM 6.37 43.466 0.057 7.04 5.69 12.18
4/23/2022 4:00:00 AM 6.32 43.376 0.057 7.07 5.35 12.21
4/23/2022 4:15:00 AM 6.26 43.268 0.057 7.05 5.28 12.23
4/23/2022 4:30:00 AM 6.22 43.196 0.057 7.06 4.98 12.25
4/23/2022 4:45:00 AM 6.17 43.106 0.057 7.03 5.55 12.26
4/23/2022 5:00:00 AM 6.13 43.034 0.057 7.05 5.27 12.29
4/23/2022 5:15:00 AM 6.09 42.962 0.057 7.04 5.92 12.3
4/23/2022 5:30:00 AM 6.06 42.908 0.057 7.06 4.98 12.32
4/23/2022 5:45:00 AM 6.03 42.854 0.057 7.04 5.62 12.32
4/23/2022 6:00:00 AM 6 42.8 0.057 7.06 5.04 12.33
4/23/2022 6:15:00 AM 5.97 42.746 0.058 7.05 5.35 12.34
4/23/2022 6:30:00 AM 5.95 42.71 0.058 7.07 4.83 12.36
4/23/2022 6:45:00 AM 5.93 42.674 0.058 7.07 5.55 12.38
4/23/2022 7:00:00 AM 5.92 42.656 0.058 7.07 4.71 12.4
4/23/2022 7:15:00 AM 5.92 42.656 0.058 7.09 5.17 12.44
4/23/2022 7:30:00 AM 5.93 42.674 0.058 7.12 4.78 12.48
4/23/2022 7:45:00 AM 5.95 42.71 0.058 7.13 5.09 12.52
4/23/2022 8:00:00 AM 5.97 42.746 0.058 7.16 4.71 12.57
4/23/2022 8:15:00 AM 6 42.8 0.058 7.16 4.84 12.61
4/23/2022 8:30:00 AM 6.03 42.854 0.058 7.18 4.4 12.63
4/23/2022 8:45:00 AM 6.07 42.926 0.058 7.2 4.79 12.63
4/23/2022 9:00:00 AM 6.11 42.998 0.058 7.22 4.2 12.63
4/23/2022 9:15:00 AM 6.15 43.07 0.058 7.22 4.55 12.63
4/23/2022 9:30:00 AM 6.2 43.16 0.058 7.22 4.11 12.63
4/23/2022 9:45:00 AM 6.26 43.268 0.058 7.23 4.7 12.63
4/23/2022 10:00:00 AM 6.32 43.376 0.058 7.27 4.02 12.62
4/23/2022 10:15:00 AM 6.43 43.574 0.058 7.27 4.46 12.62
4/23/2022 10:30:00 AM 6.64 43.952 0.058 7.29 4.2 12.64
4/23/2022 10:45:00 AM 6.87 44.366 0.055 7.29 4.35 12.62
4/23/2022 11:00:00 AM 7.09 44.762 0.058 7.32 3.92 12.55
4/23/2022 11:15:00 AM 7.23 45.014 0.058 7.33 4.36 12.53
4/23/2022 11:30:00 AM 7.37 45.266 0.058 7.34 3.9 12.49
4/23/2022 11:45:00 AM 7.55 45.59 0.058 7.36 4.28 12.45
4/23/2022 12:00:00 PM 7.78 46.004 0.058 7.38 4.06 12.39
4/23/2022 12:15:00 PM 8.07 46.526 0.058 7.37 4.18 12.35
4/23/2022 12:30:00 PM 8.32 46.976 0.058 7.39 3.9 12.25
4/23/2022 12:45:00 PM 8.5 47.3 0.057 7.38 4.18 12.21
4/23/2022 1:00:00 PM 8.61 47.498 0.057 7.41 4.09 12.15
4/23/2022 1:15:00 PM 8.73 47.714 0.057 7.41 4.14 12.1
4/23/2022 1:30:00 PM 8.9 48.02 0.057 7.42 3.83 12.04
4/23/2022 1:45:00 PM 9.08 48.344 0.057 7.41 4.12 12.01
4/23/2022 2:00:00 PM 9.22 48.596 0.057 7.44 3.88 11.97
4/23/2022 2:15:00 PM 9.36 48.848 0.057 7.4 4.31 11.92
4/23/2022 2:30:00 PM 9.43 48.974 0.057 7.44 4.07 11.86
4/23/2022 2:45:00 PM 9.57 49.226 0.057 7.4 4.46 11.77
4/23/2022 3:00:00 PM 9.68 49.424 0.057 7.44 3.93 11.73
4/23/2022 3:15:00 PM 9.78 49.604 0.057 7.41 4.4 11.72
4/23/2022 3:30:00 PM 9.88 49.784 0.057 7.45 3.94 11.7
4/23/2022 3:45:00 PM 9.96 49.928 0.058 7.43 4.28 11.65
4/23/2022 4:00:00 PM 9.98 49.964 0.058 7.43 3.86 11.62
4/23/2022 4:15:00 PM 9.95 49.91 0.058 7.41 4.18 11.58
4/23/2022 4:30:00 PM 9.95 49.91 0.058 7.41 3.95 11.56
4/23/2022 4:45:00 PM 9.96 49.928 0.058 7.37 4.09 11.55
4/23/2022 5:00:00 PM 9.99 49.982 0.058 7.4 3.97 11.54
4/23/2022 5:15:00 PM 10 50 0.058 7.36 4.38 11.51
4/23/2022 5:30:00 PM 10 50 0.058 7.37 3.95 11.5
4/23/2022 5:45:00 PM 9.99 49.982 0.058 7.36 4.1 11.49
4/23/2022 6:00:00 PM 9.96 49.928 0.058 7.36 4.02 11.46
4/23/2022 6:15:00 PM 9.95 49.91 0.058 7.34 4.12 11.45
4/23/2022 6:30:00 PM 9.91 49.838 0.058 7.34 3.98 11.44
4/23/2022 6:45:00 PM 9.89 49.802 0.058 7.31 4.18 11.42
4/23/2022 7:00:00 PM 9.86 49.748 0.058 7.3 4.16 11.4
4/23/2022 7:15:00 PM 9.83 49.694 0.058 7.28 4.11 11.37
4/23/2022 7:30:00 PM 9.79 49.622 0.058 7.28 4.21 11.31
4/23/2022 7:45:00 PM 9.75 49.55 0.058 7.23 4.24 11.27
4/23/2022 8:00:00 PM 9.7 49.46 0.059 7.24 4.2 11.23
4/23/2022 8:15:00 PM 9.66 49.388 0.059 7.19 4.53 11.19
4/23/2022 8:30:00 PM 9.62 49.316 0.059 7.2 4.2 11.17
4/23/2022 8:45:00 PM 9.58 49.244 0.059 7.16 4.55 11.17
4/23/2022 9:00:00 PM 9.54 49.172 0.059 7.16 4.34 11.18
4/23/2022 9:15:00 PM 9.49 49.082 0.059 7.14 4.79 11.19
4/23/2022 9:30:00 PM 9.45 49.01 0.059 7.15 4.38 11.2
4/23/2022 9:45:00 PM 9.41 48.938 0.059 7.1 4.74 11.21
4/23/2022 10:00:00 PM 9.36 48.848 0.059 7.13 4.51 11.22
4/23/2022 10:15:00 PM 9.3 48.74 0.059 7.12 4.7 11.23
4/23/2022 10:30:00 PM 9.25 48.65 0.059 7.14 4.46 11.24
4/23/2022 10:45:00 PM 9.21 48.578 0.059 7.1 5.01 11.26
4/23/2022 11:00:00 PM 9.17 48.506 0.06 7.13 4.5 11.27
4/23/2022 11:15:00 PM 9.13 48.434 0.06 7.1 5.02 11.28
4/23/2022 11:30:00 PM 9.09 48.362 0.06 7.13 4.48 11.29
4/23/2022 11:45:00 PM 9.05 48.29 0.06 7.11 5.58 11.3
4/24/2022 12:00:00 AM 9 48.2 0.06 7.13 4.27 11.31
4/24/2022 12:15:00 AM 8.95 48.11 0.06 7.1 5.43 11.3
4/24/2022 12:30:00 AM 8.89 48.002 0.06 7.11 4.25 11.32
4/24/2022 12:45:00 AM 8.84 47.912 0.06 7.1 4.98 11.34
4/24/2022 1:00:00 AM 8.79 47.822 0.06 7.13 4 11.36
4/24/2022 1:15:00 AM 8.74 47.732 0.06 7.11 4.46 11.37
4/24/2022 1:30:00 AM 8.69 47.642 0.06 7.13 3.95 11.4
4/24/2022 1:45:00 AM 8.64 47.552 0.06 7.13 4.44 11.41
4/24/2022 2:00:00 AM 8.59 47.462 0.06 7.15 4.04 11.42
4/24/2022 2:15:00 AM 8.54 47.372 0.06 7.14 4.46 11.43
4/24/2022 2:30:00 AM 8.48 47.264 0.06 7.14 4.03 11.44
4/24/2022 2:45:00 AM 8.43 47.174 0.06 7.14 4.18 11.45
4/24/2022 3:00:00 AM 8.37 47.066 0.06 7.14 4.1 11.46
4/24/2022 3:15:00 AM 8.32 46.976 0.06 7.13 4.66 11.47
4/24/2022 3:30:00 AM 8.26 46.868 0.06 7.16 3.87 11.48
4/24/2022 3:45:00 AM 8.21 46.778 0.06 7.12 4.32 11.51
4/24/2022 4:00:00 AM 8.16 46.688 0.06 7.14 3.98 11.53
4/24/2022 4:15:00 AM 8.1 46.58 0.06 7.15 3.87 11.54
4/24/2022 4:30:00 AM 8.05 46.49 0.06 7.15 4.02 11.57
4/24/2022 4:45:00 AM 7.99 46.382 0.06 7.14 4.09 11.58
4/24/2022 5:00:00 AM 7.94 46.292 0.06 7.15 3.96 11.59
4/24/2022 5:15:00 AM 7.88 46.184 0.06 7.15 3.92 11.62
4/24/2022 5:30:00 AM 7.83 46.094 0.06 7.13 3.88 11.63
4/24/2022 5:45:00 AM 7.79 46.022 0.061 7.15 3.87 11.64
4/24/2022 6:00:00 AM 7.74 45.932 0.061 7.13 3.96 11.66
4/24/2022 6:15:00 AM 7.69 45.842 0.061 7.16 3.65 11.67
4/24/2022 6:30:00 AM 7.65 45.77 0.061 7.13 4.02 11.7
4/24/2022 6:45:00 AM 7.61 45.698 0.061 7.16 3.6 11.75
4/24/2022 7:00:00 AM 7.57 45.626 0.061 7.18 3.8 11.8
4/24/2022 7:15:00 AM 7.54 45.572 0.061 7.19 3.48 11.86
4/24/2022 7:30:00 AM 7.52 45.536 0.061 7.21 3.79 11.93
4/24/2022 7:45:00 AM 7.5 45.5 0.061 7.22 3.46 11.99
4/24/2022 8:00:00 AM 7.48 45.464 0.061 7.25 3.63 12.04
4/24/2022 8:15:00 AM 7.48 45.464 0.061 7.26 3.42 12.09
4/24/2022 8:30:00 AM 7.5 45.5 0.061 7.28 3.42 12.14
4/24/2022 8:45:00 AM 7.57 45.626 0.06 7.29 3.4 12.2
4/24/2022 9:00:00 AM 7.68 45.824 0.06 7.34 3.42 12.21
4/24/2022 9:15:00 AM 7.8 46.04 0.06 7.32 3.22 12.25
4/24/2022 9:30:00 AM 7.95 46.31 0.06 7.39 3.42 12.27
4/24/2022 9:45:00 AM 8.09 46.562 0.06 7.4 3.28 12.27
4/24/2022 10:00:00 AM 8.17 46.706 0.06 7.4 3.26 12.24
4/24/2022 10:15:00 AM 8.24 46.832 0.06 7.43 3.14 12.19
4/24/2022 10:30:00 AM 8.33 46.994 0.06 7.43 3.22 12.16
4/24/2022 10:45:00 AM 8.45 47.21 0.06 7.45 3.15 12.18
4/24/2022 11:00:00 AM 8.59 47.462 0.06 7.47 3.41 12.16
4/24/2022 11:15:00 AM 8.81 47.858 0.06 7.5 3.12 12.13
4/24/2022 11:30:00 AM 9 48.2 0.06 7.51 3.55 12.07
4/24/2022 11:45:00 AM 9.28 48.704 0.06 7.53 3.16 12.05
4/24/2022 12:00:00 PM 9.55 49.19 0.06 7.52 3.5 11.98
4/24/2022 12:15:00 PM 9.79 49.622 0.06 7.55 3.02 11.94
4/24/2022 12:30:00 PM 10.08 50.144 0.06 7.55 3.57 11.87
4/24/2022 12:45:00 PM 10.35 50.63 0.06 7.57 2.97 11.82
4/24/2022 1:00:00 PM 10.6 51.08 0.06 7.55 3.71 11.75
4/24/2022 1:15:00 PM 10.85 51.53 0.06 7.59 3.2 11.66
4/24/2022 1:30:00 PM 11.1 51.98 0.06 7.58 3.11 11.6
4/24/2022 1:45:00 PM 11.33 52.394 0.06 7.6 2.97 11.53
4/24/2022 2:00:00 PM 11.55 52.79 0.06 7.59 3.3 11.45
4/24/2022 2:15:00 PM 11.76 53.168 0.06 7.6 3.02 11.4
4/24/2022 2:30:00 PM 11.96 53.528 0.06 7.6 3.21 11.34
4/24/2022 2:45:00 PM 12.14 53.852 0.06 7.62 3.14 11.25
4/24/2022 3:00:00 PM 12.29 54.122 0.06 7.59 3.2 11.21
4/24/2022 3:15:00 PM 12.42 54.356 0.06 7.62 3.05 11.17
4/24/2022 3:30:00 PM 12.55 54.59 0.06 7.59 3.16 11.12
4/24/2022 3:45:00 PM 12.65 54.77 0.06 7.62 3.03 11.06
4/24/2022 4:00:00 PM 12.74 54.932 0.06 7.58 3.2 11.01
4/24/2022 4:15:00 PM 12.81 55.058 0.06 7.6 3.08 10.97
4/24/2022 4:30:00 PM 12.89 55.202 0.06 7.58 3.12 10.93
4/24/2022 4:45:00 PM 12.94 55.292 0.06 7.59 3.09 10.89
4/24/2022 5:00:00 PM 12.97 55.346 0.06 7.56 3.21 10.86
4/24/2022 5:15:00 PM 12.98 55.364 0.06 7.55 3.11 10.8
4/24/2022 5:30:00 PM 12.97 55.346 0.06 7.51 3.26 10.75
4/24/2022 5:45:00 PM 12.98 55.364 0.06 7.51 3.29 10.73
4/24/2022 6:00:00 PM 12.97 55.346 0.061 7.5 3.21 10.71
4/24/2022 6:15:00 PM 12.93 55.274 0.061 7.48 3.15 10.67
4/24/2022 6:30:00 PM 12.89 55.202 0.061 7.46 3.28 10.63
4/24/2022 6:45:00 PM 12.84 55.112 0.061 7.44 3.24 10.57
4/24/2022 7:00:00 PM 12.78 55.004 0.061 7.4 3.25 10.54
4/24/2022 7:15:00 PM 12.71 54.878 0.061 7.4 3.31 10.53
4/24/2022 7:30:00 PM 12.63 54.734 0.061 7.36 3.26 10.5
4/24/2022 7:45:00 PM 12.53 54.554 0.061 7.35 3.23 10.48
4/24/2022 8:00:00 PM 12.45 54.41 0.061 7.3 3.28 10.43
4/24/2022 8:15:00 PM 12.36 54.248 0.061 7.3 3.37 10.41
4/24/2022 8:30:00 PM 12.26 54.068 0.062 7.27 3.53 10.39
4/24/2022 8:45:00 PM 12.16 53.888 0.062 7.28 3.7 10.4
4/24/2022 9:00:00 PM 12.04 53.672 0.062 7.24 3.74 10.43
4/24/2022 9:15:00 PM 11.93 53.474 0.062 7.26 3.49 10.47
4/24/2022 9:30:00 PM 11.81 53.258 0.062 7.23 3.77 10.48
4/24/2022 9:45:00 PM 11.7 53.06 0.062 7.25 3.52 10.5
4/24/2022 10:00:00 PM 11.58 52.844 0.062 7.21 3.78 10.51
4/24/2022 10:15:00 PM 11.47 52.646 0.062 7.24 3.55 10.54
4/24/2022 10:30:00 PM 11.36 52.448 0.062 7.21 4.18 10.58
4/24/2022 10:45:00 PM 11.26 52.268 0.063 7.21 3.42 10.62
4/24/2022 11:00:00 PM 11.15 52.07 0.063 7.22 3.66 10.64
4/24/2022 11:15:00 PM 11.05 51.89 0.063 7.22 3.61 10.67
4/24/2022 11:30:00 PM 10.95 51.71 0.063 7.2 4.15 10.68
4/24/2022 11:45:00 PM 10.86 51.548 0.063 7.21 3.37 10.7
4/25/2022 12:00:00 AM 10.76 51.368 0.063 7.2 3.92 10.73
4/25/2022 12:15:00 AM 10.67 51.206 0.063 7.21 3.52 10.77
4/25/2022 12:30:00 AM 10.58 51.044 0.063 7.19 3.75 10.79
4/25/2022 12:45:00 AM 10.49 50.882 0.063 7.21 3.45 10.83
4/25/2022 1:00:00 AM 10.4 50.72 0.063 7.2 3.59 10.84
4/25/2022 1:15:00 AM 10.31 50.558 0.063 7.21 3.33 10.86
4/25/2022 1:30:00 AM 10.23 50.414 0.063 7.21 3.69 10.87
4/25/2022 1:45:00 AM 10.14 50.252 0.063 7.21 3.37 10.9
4/25/2022 2:00:00 AM 10.06 50.108 0.063 7.21 3.52 10.93
4/25/2022 2:15:00 AM 9.99 49.982 0.063 7.19 3.44 10.95
4/25/2022 2:30:00 AM 9.91 49.838 0.063 7.2 3.7 10.98
4/25/2022 2:45:00 AM 9.83 49.694 0.063 7.22 3.52 10.98
4/25/2022 3:00:00 AM 9.75 49.55 0.063 7.19 3.68 11.01
4/25/2022 3:15:00 AM 9.67 49.406 0.063 7.19 3.29 11.02
4/25/2022 3:30:00 AM 9.6 49.28 0.063 7.19 3.55 11.03
4/25/2022 3:45:00 AM 9.52 49.136 0.063 7.21 3.28 11.06
4/25/2022 4:00:00 AM 9.45 49.01 0.063 7.2 3.64 11.08
4/25/2022 4:15:00 AM 9.38 48.884 0.063 7.21 3.16 11.11
4/25/2022 4:30:00 AM 9.31 48.758 0.064 7.2 3.71 11.13
4/25/2022 4:45:00 AM 9.25 48.65 0.064 7.21 3.19 11.16
4/25/2022 5:00:00 AM 9.18 48.524 0.064 7.19 3.6 11.18
4/25/2022 5:15:00 AM 9.11 48.398 0.064 7.2 3.19 11.2
4/25/2022 5:30:00 AM 9.05 48.29 0.064 7.19 3.54 11.21
4/25/2022 5:45:00 AM 8.99 48.182 0.064 7.2 3.16 11.22
4/25/2022 6:00:00 AM 8.93 48.074 0.064 7.18 3.61 11.23
4/25/2022 6:15:00 AM 8.88 47.984 0.064 7.21 3.25 11.25
4/25/2022 6:30:00 AM 8.83 47.894 0.064 7.2 3.39 11.3
4/25/2022 6:45:00 AM 8.79 47.822 0.064 7.23 3.1 11.37
4/25/2022 7:00:00 AM 8.76 47.768 0.064 7.23 3.39 11.46
4/25/2022 7:15:00 AM 8.74 47.732 0.064 7.27 3.02 11.55
4/25/2022 7:30:00 AM 8.72 47.696 0.064 7.29 3.48 11.63
4/25/2022 7:45:00 AM 8.72 47.696 0.064 7.32 2.97 11.74
4/25/2022 8:00:00 AM 8.72 47.696 0.064 7.37 3.23 11.81
4/25/2022 8:15:00 AM 8.74 47.732 0.063 7.38 2.97 11.88
4/25/2022 8:30:00 AM 8.78 47.804 0.063 7.42 3.32 11.93
4/25/2022 8:45:00 AM 8.83 47.894 0.063 7.47 2.94 11.97
4/25/2022 9:00:00 AM 8.88 47.984 0.063 7.47 3.35 12
4/25/2022 9:15:00 AM 8.95 48.11 0.063 7.51 2.85 12.02
4/25/2022 9:30:00 AM 9.02 48.236 0.063 7.54 3.27 12.05
4/25/2022 9:45:00 AM 9.11 48.398 0.063 7.57 2.85 12.07
4/25/2022 10:00:00 AM 9.21 48.578 0.063 7.6 3.23 12.07
4/25/2022 10:15:00 AM 9.31 48.758 0.063 7.62 2.87 12.07
4/25/2022 10:30:00 AM 9.43 48.974 0.063 7.65 3.69 12.05
4/25/2022 10:45:00 AM 9.55 49.19 0.063 7.66 2.86 12.02
4/25/2022 11:00:00 AM 9.71 49.478 0.063 7.68 3.27 12.03
4/25/2022 11:15:00 AM 9.92 49.856 0.063 7.7 2.81 11.99
4/25/2022 11:30:00 AM 10.15 50.27 0.063 7.71 3.13 11.95
4/25/2022 11:45:00 AM 10.38 50.684 0.063 7.74 2.82 11.9
4/25/2022 12:00:00 PM 10.63 51.134 0.063 7.73 3.26 11.86
4/25/2022 12:15:00 PM 10.87 51.566 0.063 7.76 2.72 11.78
4/25/2022 12:30:00 PM 11.08 51.944 0.062 7.78 4.36 11.74
4/25/2022 12:45:00 PM 11.29 52.322 0.062 7.81 2.69 11.68
4/25/2022 1:00:00 PM 11.49 52.682 0.062 7.79 3.63 11.61
4/25/2022 1:15:00 PM 11.71 53.078 0.062 7.81 3.14 11.58
4/25/2022 1:30:00 PM 11.92 53.456 0.062 7.82 2.71 11.51
4/25/2022 1:45:00 PM 12.13 53.834 0.062 7.83 3.01 11.44
4/25/2022 2:00:00 PM 12.34 54.212 0.062 7.85 2.61 11.4
4/25/2022 2:15:00 PM 12.54 54.572 0.062 7.83 2.79 11.35
4/25/2022 2:30:00 PM 12.72 54.896 0.062 7.86 2.68 11.27
4/25/2022 2:45:00 PM 12.89 55.202 0.062 7.83 2.89 11.2
4/25/2022 3:00:00 PM 13.03 55.454 0.062 7.85 2.73 11.17
4/25/2022 3:15:00 PM 13.15 55.67 0.062 7.85 2.9 11.12
4/25/2022 3:30:00 PM 13.25 55.85 0.062 7.86 2.71 11.08
4/25/2022 3:45:00 PM 13.35 56.03 0.062 7.82 2.84 11.02
4/25/2022 4:00:00 PM 13.41 56.138 0.062 7.84 2.79 10.98
4/25/2022 4:15:00 PM 13.47 56.246 0.062 7.82 2.99 10.94
4/25/2022 4:30:00 PM 13.52 56.336 0.062 7.81 2.82 10.91
4/25/2022 4:45:00 PM 13.55 56.39 0.062 7.77 2.81 10.88
4/25/2022 5:00:00 PM 13.56 56.408 0.062 7.77 2.68 10.86
4/25/2022 5:15:00 PM 13.55 56.39 0.062 7.73 2.73 10.82
4/25/2022 5:30:00 PM 13.52 56.336 0.063 7.72 3.09 10.79
4/25/2022 5:45:00 PM 13.47 56.246 0.063 7.69 3.82 10.76
4/25/2022 6:00:00 PM 13.4 56.12 0.063 7.68 4.45 10.73
4/25/2022 6:15:00 PM 13.32 55.976 0.063 7.62 4.48 10.7
4/25/2022 6:30:00 PM 13.23 55.814 0.063 7.62 4.07 10.69
4/25/2022 6:45:00 PM 13.13 55.634 0.063 7.57 3.74 10.66
4/25/2022 7:00:00 PM 13.04 55.472 0.063 7.57 3.47 10.64
4/25/2022 7:15:00 PM 12.96 55.328 0.063 7.49 3.46 10.57
4/25/2022 7:30:00 PM 12.87 55.166 0.063 7.48 3.41 10.48
4/25/2022 7:45:00 PM 12.76 54.968 0.064 7.42 3.56 10.42
4/25/2022 8:00:00 PM 12.65 54.77 0.064 7.4 3.35 10.37
4/25/2022 8:15:00 PM 12.54 54.572 0.064 7.35 3.53 10.35
4/25/2022 8:30:00 PM 12.44 54.392 0.064 7.34 3.21 10.33
4/25/2022 8:45:00 PM 12.32 54.176 0.064 7.3 3.57 10.34
4/25/2022 9:00:00 PM 12.19 53.942 0.064 7.32 3.35 10.34
4/25/2022 9:15:00 PM 12.05 53.69 0.064 7.28 3.94 10.37
4/25/2022 9:30:00 PM 11.92 53.456 0.065 7.29 3.42 10.4
4/25/2022 9:45:00 PM 11.81 53.258 0.065 7.25 3.65 10.45
4/25/2022 10:00:00 PM 11.7 53.06 0.065 7.28 3.16 10.47
4/25/2022 10:15:00 PM 11.6 52.88 0.065 7.26 3.57 10.48
4/25/2022 10:30:00 PM 11.51 52.718 0.065 7.27 3.22 10.5
4/25/2022 10:45:00 PM 11.42 52.556 0.065 7.26 3.79 10.53
4/25/2022 11:00:00 PM 11.34 52.412 0.065 7.26 3.19 10.56
4/25/2022 11:15:00 PM 11.26 52.268 0.065 7.25 3.61 10.58
4/25/2022 11:30:00 PM 11.18 52.124 0.065 7.24 3.3 10.59
4/25/2022 11:45:00 PM 11.11 51.998 0.065 7.25 3.62 10.6
4/26/2022 12:00:00 AM 11.05 51.89 0.065 7.26 3.29 10.62
4/26/2022 12:15:00 AM 10.99 51.782 0.065 7.25 3.57 10.63
4/26/2022 12:30:00 AM 10.93 51.674 0.066 7.25 3.3 10.64
4/26/2022 12:45:00 AM 10.87 51.566 0.066 7.25 3.58 10.66
4/26/2022 1:00:00 AM 10.82 51.476 0.066 7.25 3.11 10.68
4/26/2022 1:15:00 AM 10.76 51.368 0.066 7.24 3.39 10.7
4/26/2022 1:30:00 AM 10.7 51.26 0.066 7.25 3.12 10.72
4/26/2022 1:45:00 AM 10.64 51.152 0.066 7.24 3.54 10.73
4/26/2022 2:00:00 AM 10.59 51.062 0.066 7.24 2.99 10.75
4/26/2022 2:15:00 AM 10.54 50.972 0.066 7.24 3.61 10.77
4/26/2022 2:30:00 AM 10.49 50.882 0.066 7.26 3.18 10.78
4/26/2022 2:45:00 AM 10.45 50.81 0.066 7.25 3.59 10.79
4/26/2022 3:00:00 AM 10.41 50.738 0.066 7.25 3.07 10.79
4/26/2022 3:15:00 AM 10.36 50.648 0.066 7.24 3.41 10.8
4/26/2022 3:30:00 AM 10.32 50.576 0.066 7.25 3.02 10.81
4/26/2022 3:45:00 AM 10.29 50.522 0.066 7.24 3.45 10.82
4/26/2022 4:00:00 AM 10.25 50.45 0.066 7.25 2.98 10.82
4/26/2022 4:15:00 AM 10.22 50.396 0.066 7.24 3.77 10.83
4/26/2022 4:30:00 AM 10.19 50.342 0.066 7.25 2.9 10.84
4/26/2022 4:45:00 AM 10.15 50.27 0.066 7.24 3.48 10.85
4/26/2022 5:00:00 AM 10.12 50.216 0.066 7.25 2.89 10.86
4/26/2022 5:15:00 AM 10.09 50.162 0.066 7.23 3.45 10.88
4/26/2022 5:30:00 AM 10.06 50.108 0.066 7.25 2.96 10.89
4/26/2022 5:45:00 AM 10.03 50.054 0.066 7.24 3.31 10.89
4/26/2022 6:00:00 AM 10 50 0.066 7.25 2.87 10.9
4/26/2022 6:15:00 AM 9.98 49.964 0.066 7.24 3.2 10.92
4/26/2022 6:30:00 AM 9.95 49.91 0.066 7.25 2.92 10.93
4/26/2022 6:45:00 AM 9.93 49.874 0.066 7.24 3.2 10.95
4/26/2022 7:00:00 AM 9.91 49.838 0.066 7.26 2.79 10.98
4/26/2022 7:15:00 AM 9.89 49.802 0.066 7.26 3.2 11.01
4/26/2022 7:30:00 AM 9.86 49.748 0.066 7.27 2.69 11.04
4/26/2022 7:45:00 AM 9.85 49.73 0.066 7.28 3.33 11.07
4/26/2022 8:00:00 AM 9.83 49.694 0.066 7.3 2.73 11.12
4/26/2022 8:15:00 AM 9.82 49.676 0.066 7.31 3.25 11.17
4/26/2022 8:30:00 AM 9.81 49.658 0.066 7.34 2.69 11.23
4/26/2022 8:45:00 AM 9.81 49.658 0.066 7.35 3.23 11.28
4/26/2022 9:00:00 AM 9.8 49.64 0.066 7.38 2.75 11.34
4/26/2022 9:15:00 AM 9.81 49.658 0.066 7.4 3.12 11.42
4/26/2022 9:30:00 AM 9.82 49.676 0.066 7.43 2.63 11.48
4/26/2022 9:45:00 AM 9.83 49.694 0.066 7.46 3.09 11.52
4/26/2022 10:00:00 AM 9.84 49.712 0.065 7.49 2.63 11.57
4/26/2022 10:15:00 AM 9.86 49.748 0.065 7.5 3.1 11.59
4/26/2022 10:30:00 AM 9.88 49.784 0.065 7.53 2.63 11.62
4/26/2022 10:45:00 AM 9.9 49.82 0.065 7.56 3.21 11.66
4/26/2022 11:00:00 AM 9.92 49.856 0.065 7.58 2.68 11.66
4/26/2022 11:15:00 AM 9.93 49.874 0.065 7.59 3.46 11.66
4/26/2022 11:30:00 AM 9.96 49.928 0.065 7.63 2.77 11.68
4/26/2022 11:45:00 AM 9.97 49.946 0.065 7.62 3.33 11.66
4/26/2022 12:00:00 PM 9.99 49.982 0.065 7.62 2.77 11.65
4/26/2022 12:15:00 PM 10.03 50.054 0.065 7.65 3.3 11.69
4/26/2022 12:30:00 PM 10.07 50.126 0.065 7.69 2.89 11.7
4/26/2022 12:45:00 PM 10.08 50.144 0.065 7.66 3.35 11.65
4/26/2022 1:00:00 PM 10.11 50.198 0.065 7.67 2.71 11.64
4/26/2022 1:15:00 PM 10.14 50.252 0.065 7.67 3.17 11.62
4/26/2022 1:30:00 PM 10.15 50.27 0.064 7.68 2.75 11.6
4/26/2022 1:45:00 PM 10.18 50.324 0.064 7.66 3.26 11.57
4/26/2022 2:00:00 PM 10.22 50.396 0.064 7.69 2.77 11.59
4/26/2022 2:15:00 PM 10.25 50.45 0.064 7.68 3.35 11.58
4/26/2022 2:30:00 PM 10.27 50.486 0.064 7.69 2.92 11.55
4/26/2022 2:45:00 PM 10.29 50.522 0.064 7.71 3.29 11.55
4/26/2022 3:00:00 PM 10.34 50.612 0.064 7.72 2.83 11.58
4/26/2022 3:15:00 PM 10.37 50.666 0.064 7.74 3.23 11.62
4/26/2022 3:30:00 PM 10.38 50.684 0.064 7.7 2.81 11.55
4/26/2022 3:45:00 PM 10.38 50.684 0.064 7.64 3.12 11.43
4/26/2022 4:00:00 PM 10.4 50.72 0.064 7.63 2.75 11.42
4/26/2022 4:15:00 PM 10.41 50.738 0.064 7.6 3.32 11.38
4/26/2022 4:30:00 PM 10.4 50.72 0.065 7.56 2.99 11.28
4/26/2022 4:45:00 PM 10.41 50.738 0.064 7.56 3.42 11.3
4/26/2022 5:00:00 PM 10.42 50.756 0.065 7.56 2.86 11.31
4/26/2022 5:15:00 PM 10.42 50.756 0.065 7.55 3.54 11.3
4/26/2022 5:30:00 PM 10.41 50.738 0.065 7.51 2.88 11.23
4/26/2022 5:45:00 PM 10.41 50.738 0.065 7.5 3.55 11.21
4/26/2022 6:00:00 PM 10.41 50.738 0.065 7.49 2.91 11.18
4/26/2022 6:15:00 PM 10.41 50.738 0.065 7.45 3.35 11.12
4/26/2022 6:30:00 PM 10.41 50.738 0.065 7.45 2.96 11.12
4/26/2022 6:45:00 PM 10.4 50.72 0.065 7.42 3.59 11.08
4/26/2022 7:00:00 PM 10.39 50.702 0.065 7.4 3.08 11.04
4/26/2022 7:15:00 PM 10.38 50.684 0.065 7.37 3.52 10.99
4/26/2022 7:30:00 PM 10.36 50.648 0.065 7.36 3.12 10.93
4/26/2022 7:45:00 PM 10.34 50.612 0.065 7.34 3.46 10.9
4/26/2022 8:00:00 PM 10.31 50.558 0.065 7.34 3.25 10.87
4/26/2022 8:15:00 PM 10.27 50.486 0.065 7.31 3.74 10.85
4/26/2022 8:30:00 PM 10.24 50.432 0.065 7.32 3.57 10.84
4/26/2022 8:45:00 PM 10.2 50.36 0.066 7.3 4.04 10.83
4/26/2022 9:00:00 PM 10.16 50.288 0.066 7.32 3.52 10.84
4/26/2022 9:15:00 PM 10.12 50.216 0.066 7.3 4.32 10.86
4/26/2022 9:30:00 PM 10.07 50.126 0.066 7.3 3.71 10.87
4/26/2022 9:45:00 PM 10.03 50.054 0.066 7.29 4.27 10.89
4/26/2022 10:00:00 PM 9.98 49.964 0.066 7.29 3.78 10.91
4/26/2022 10:15:00 PM 9.92 49.856 0.066 7.28 4.4 10.93
4/26/2022 10:30:00 PM 9.86 49.748 0.066 7.3 4.68 10.94
4/26/2022 10:45:00 PM 9.82 49.676 0.066 7.28 5.09 10.96
4/26/2022 11:00:00 PM 9.77 49.586 0.066 7.29 4.44 10.97
4/26/2022 11:15:00 PM 9.73 49.514 0.066 7.26 4.77 10.98
4/26/2022 11:30:00 PM 9.69 49.442 0.066 7.28 4.22 10.99
4/26/2022 11:45:00 PM 9.64 49.352 0.066 7.26 4.47 11
4/27/2022 12:00:00 AM 9.59 49.262 0.066 7.28 4.37 11
4/27/2022 12:15:00 AM 9.54 49.172 0.066 7.27 4.63 11.02
4/27/2022 12:30:00 AM 9.49 49.082 0.067 7.28 4.83 11.04
4/27/2022 12:45:00 AM 9.43 48.974 0.067 7.26 5.39 11.05
4/27/2022 1:00:00 AM 9.37 48.866 0.067 7.29 4.83 11.07
4/27/2022 1:15:00 AM 9.3 48.74 0.067 7.26 5.22 11.08
4/27/2022 1:30:00 AM 9.23 48.614 0.067 7.29 4.33 11.1
4/27/2022 1:45:00 AM 9.17 48.506 0.067 7.27 6.56 11.12
4/27/2022 2:00:00 AM 9.1 48.38 0.067 7.27 3.97 11.13
4/27/2022 2:15:00 AM 9.05 48.29 0.067 7.26 4.52 11.15
4/27/2022 2:30:00 AM 8.99 48.182 0.067 7.27 3.84 11.16
4/27/2022 2:45:00 AM 8.91 48.038 0.067 7.25 4.59 11.17
4/27/2022 3:00:00 AM 8.84 47.912 0.067 7.27 3.75 11.2
4/27/2022 3:15:00 AM 8.76 47.768 0.067 7.26 4.16 11.23
4/27/2022 3:30:00 AM 8.68 47.624 0.067 7.27 3.69 11.25
4/27/2022 3:45:00 AM 8.6 47.48 0.067 7.26 4.01 11.28
4/27/2022 4:00:00 AM 8.53 47.354 0.067 7.25 3.67 11.29
4/27/2022 4:15:00 AM 8.46 47.228 0.067 7.25 4.04 11.31
4/27/2022 4:30:00 AM 8.39 47.102 0.067 7.26 3.6 11.32
4/27/2022 4:45:00 AM 8.33 46.994 0.067 7.24 4.01 11.32
4/27/2022 5:00:00 AM 8.26 46.868 0.067 7.25 3.26 11.34
4/27/2022 5:15:00 AM 8.21 46.778 0.067 7.24 3.93 11.36
4/27/2022 5:30:00 AM 8.15 46.67 0.067 7.25 3.23 11.39
4/27/2022 5:45:00 AM 8.09 46.562 0.067 7.24 5.76 11.42
4/27/2022 6:00:00 AM 8.03 46.454 0.067 7.24 3.11 11.43
4/27/2022 6:15:00 AM 7.97 46.346 0.067 7.24 3.86 11.48
4/27/2022 6:30:00 AM 7.92 46.256 0.067 7.27 3.11 11.53
4/27/2022 6:45:00 AM 7.87 46.166 0.067 7.28 3.76 11.59
4/27/2022 7:00:00 AM 7.82 46.076 0.067 7.26 3.14 11.65
4/27/2022 7:15:00 AM 7.77 45.986 0.067 7.3 3.51 11.73
4/27/2022 7:30:00 AM 7.72 45.896 0.067 7.34 2.98 11.81
4/27/2022 7:45:00 AM 7.68 45.824 0.067 7.37 3.52 11.91
4/27/2022 8:00:00 AM 7.67 45.806 0.067 7.41 2.99 12.01
4/27/2022 8:15:00 AM 7.67 45.806 0.067 7.44 3.47 12.13
4/27/2022 8:30:00 AM 7.68 45.824 0.067 7.5 2.79 12.19
4/27/2022 8:45:00 AM 7.66 45.788 0.067 7.5 3.31 12.19
4/27/2022 9:00:00 AM 7.67 45.806 0.067 7.54 2.67 12.23
4/27/2022 9:15:00 AM 7.67 45.806 0.067 7.56 3.37 12.27
4/27/2022 9:30:00 AM 7.68 45.824 0.067 7.6 2.75 12.33
4/27/2022 9:45:00 AM 7.69 45.842 0.066 7.65 3.38 12.38
4/27/2022 10:00:00 AM 7.69 45.842 0.066 7.69 2.73 12.41
4/27/2022 10:15:00 AM 7.73 45.914 0.066 7.72 4.43 12.44
4/27/2022 10:30:00 AM 7.78 46.004 0.066 7.76 2.66 12.46
4/27/2022 10:45:00 AM 7.83 46.094 0.066 7.78 3.25 12.5
4/27/2022 11:00:00 AM 7.85 46.13 0.066 7.81 2.59 12.49
4/27/2022 11:15:00 AM 7.84 46.112 0.066 7.84 3.11 12.48
4/27/2022 11:30:00 AM 7.95 46.31 0.066 7.85 2.71 12.47
4/27/2022 11:45:00 AM 8 46.4 0.066 7.85 3.16 12.44
4/27/2022 12:00:00 PM 8.11 46.598 0.065 7.87 2.63 12.44
4/27/2022 12:15:00 PM 8.12 46.616 0.065 7.86 3.31 12.39
4/27/2022 12:30:00 PM 8.11 46.598 0.065 7.86 2.51 12.35
4/27/2022 12:45:00 PM 8.13 46.634 0.065 7.87 5.35 12.35
4/27/2022 1:00:00 PM 8.15 46.67 0.065 7.9 2.57 12.39
4/27/2022 1:15:00 PM 8.12 46.616 0.065 7.89 2.95 12.37
4/27/2022 1:30:00 PM 8.03 46.454 0.065 7.87 2.55 12.34
4/27/2022 1:45:00 PM 8.02 46.436 0.065 7.85 2.96 12.34
4/27/2022 2:00:00 PM 8.12 46.616 0.065 7.89 2.57 12.35
4/27/2022 2:15:00 PM 8.02 46.436 0.065 7.84 2.98 12.32
4/27/2022 2:30:00 PM 8.12 46.616 0.065 7.87 2.63 12.34
4/27/2022 2:45:00 PM 8.26 46.868 0.065 7.91 3.04 12.33
4/27/2022 3:00:00 PM 8.21 46.778 0.065 7.93 2.59 12.35
4/27/2022 3:15:00 PM 8.18 46.724 0.065 7.92 3.07 12.35
4/27/2022 3:30:00 PM 8.24 46.832 0.065 7.96 2.6 12.36
4/27/2022 3:45:00 PM 8.34 47.012 0.065 7.99 3.06 12.35
4/27/2022 4:00:00 PM 8.22 46.796 0.065 7.89 2.57 12.24
4/27/2022 4:15:00 PM 8.16 46.688 0.065 7.81 2.97 12.19
4/27/2022 4:30:00 PM 8.21 46.778 0.065 7.83 2.5 12.2
4/27/2022 4:45:00 PM 8.13 46.634 0.065 7.79 3.11 12.17
4/27/2022 5:00:00 PM 8.02 46.436 0.065 7.78 2.52 12.19
4/27/2022 5:15:00 PM 7.98 46.364 0.065 7.77 2.75 12.21
4/27/2022 5:30:00 PM 7.91 46.238 0.065 7.74 2.55 12.17
4/27/2022 5:45:00 PM 7.83 46.094 0.065 7.66 3.14 12.09
4/27/2022 6:00:00 PM 7.77 45.986 0.065 7.64 2.59 12.06
4/27/2022 6:15:00 PM 7.72 45.896 0.066 7.61 3.02 12.03
4/27/2022 6:30:00 PM 7.65 45.77 0.066 7.58 2.62 12
4/27/2022 6:45:00 PM 7.57 45.626 0.066 7.56 3.06 12
4/27/2022 7:00:00 PM 7.49 45.482 0.066 7.53 2.57 11.94
4/27/2022 7:15:00 PM 7.43 45.374 0.066 7.48 3.32 11.89
4/27/2022 7:30:00 PM 7.35 45.23 0.066 7.46 2.82 11.86
4/27/2022 7:45:00 PM 7.27 45.086 0.066 7.43 3.26 11.82
4/27/2022 8:00:00 PM 7.19 44.942 0.067 7.41 2.61 11.79
4/27/2022 8:15:00 PM 7.11 44.798 0.067 7.37 5.53 11.77
4/27/2022 8:30:00 PM 7.03 44.654 0.067 7.36 2.68 11.77
4/27/2022 8:45:00 PM 6.95 44.51 0.067 7.36 3.33 11.79
4/27/2022 9:00:00 PM 6.88 44.384 0.067 7.34 2.66 11.8
4/27/2022 9:15:00 PM 6.83 44.294 0.067 7.34 3.32 11.82
4/27/2022 9:30:00 PM 6.76 44.168 0.067 7.33 2.68 11.84
4/27/2022 9:45:00 PM 6.7 44.06 0.067 7.33 3.19 11.86
4/27/2022 10:00:00 PM 6.64 43.952 0.067 7.31 2.63 11.88
4/27/2022 10:15:00 PM 6.58 43.844 0.067 7.31 3.18 11.9
4/27/2022 10:30:00 PM 6.51 43.718 0.068 7.32 2.64 11.91
4/27/2022 10:45:00 PM 6.45 43.61 0.068 7.3 5.67 11.92
4/27/2022 11:00:00 PM 6.39 43.502 0.068 7.3 2.66 11.93
4/27/2022 11:15:00 PM 6.32 43.376 0.068 7.31 3.16 11.96
4/27/2022 11:30:00 PM 6.26 43.268 0.068 7.32 2.67 11.99
4/27/2022 11:45:00 PM 6.2 43.16 0.068 7.3 3.13 12.01
4/28/2022 12:00:00 AM 6.14 43.052 0.068 7.31 2.71 12.04
4/28/2022 12:15:00 AM 6.09 42.962 0.068 7.3 5.57 12.05
4/28/2022 12:30:00 AM 6.03 42.854 0.068 7.31 2.62 12.06
4/28/2022 12:45:00 AM 5.98 42.764 0.068 7.31 3.07 12.09
4/28/2022 1:00:00 AM 5.94 42.692 0.068 7.31 2.65 12.1
4/28/2022 1:15:00 AM 5.9 42.62 0.068 7.3 2.89 12.11
4/28/2022 1:30:00 AM 5.85 42.53 0.068 7.29 2.99 12.12
4/28/2022 1:45:00 AM 5.8 42.44 0.068 7.31 2.61 12.13
4/28/2022 2:00:00 AM 5.75 42.35 0.068 7.31 3.05 12.14
4/28/2022 2:15:00 AM 5.71 42.278 0.068 7.3 2.72 12.16
4/28/2022 2:30:00 AM 5.67 42.206 0.068 7.31 2.93 12.17
4/28/2022 2:45:00 AM 5.64 42.152 0.068 7.3 2.58 12.18
4/28/2022 3:00:00 AM 5.6 42.08 0.068 7.29 3.11 12.2
4/28/2022 3:15:00 AM 5.56 42.008 0.068 7.31 2.53 12.22
4/28/2022 3:30:00 AM 5.52 41.936 0.068 7.29 3.24 12.23
4/28/2022 3:45:00 AM 5.49 41.882 0.068 7.27 2.48 12.25
4/28/2022 4:00:00 AM 5.45 41.81 0.068 7.25 3.11 12.27
4/28/2022 4:15:00 AM 5.41 41.738 0.068 7.25 2.49 12.27
4/28/2022 4:30:00 AM 5.38 41.684 0.068 7.25 3.06 12.28
4/28/2022 4:45:00 AM 5.34 41.612 0.068 7.26 2.46 12.29
4/28/2022 5:00:00 AM 5.3 41.54 0.068 7.26 3.07 12.31
4/28/2022 5:15:00 AM 5.27 41.486 0.068 7.26 2.46 12.32
4/28/2022 5:30:00 AM 5.24 41.432 0.068 7.26 2.65 12.33
4/28/2022 5:45:00 AM 5.21 41.378 0.068 7.25 2.52 12.32
4/28/2022 6:00:00 AM 5.17 41.306 0.068 7.27 2.89 12.33
4/28/2022 6:15:00 AM 5.12 41.216 0.069 7.27 2.48 12.36
4/28/2022 6:30:00 AM 5.1 41.18 0.069 7.27 2.89 12.38
4/28/2022 6:45:00 AM 5.09 41.162 0.068 7.28 2.5 12.44
4/28/2022 7:00:00 AM 5.07 41.126 0.068 7.3 2.52 12.52
4/28/2022 7:15:00 AM 5.04 41.072 0.068 7.33 2.65 12.6
4/28/2022 7:30:00 AM 5.03 41.054 0.068 7.35 2.6 12.68
4/28/2022 7:45:00 AM 4.99 40.982 0.068 7.37 2.58 12.77
4/28/2022 8:00:00 AM 4.96 40.928 0.068 7.39 2.35 12.85
4/28/2022 8:15:00 AM 4.96 40.928 0.068 7.41 2.98 12.94
4/28/2022 8:30:00 AM 5 41 0.068 7.47 2.39 13.03
4/28/2022 8:45:00 AM 5.04 41.072 0.068 7.5 2.97 13.1
4/28/2022 9:00:00 AM 5.11 41.198 0.068 7.55 2.39 13.14
4/28/2022 9:15:00 AM 5.23 41.414 0.068 7.59 2.47 13.19
4/28/2022 9:30:00 AM 5.37 41.666 0.068 7.62 2.49 13.22
4/28/2022 9:45:00 AM 5.52 41.936 0.067 7.65 2.66 13.2
4/28/2022 10:00:00 AM 5.7 42.26 0.067 7.68 2.29 13.16
4/28/2022 10:15:00 AM 5.87 42.566 0.067 7.7 2.68 13.15
4/28/2022 10:30:00 AM 6.07 42.926 0.067 7.72 2.34 13.13
4/28/2022 10:45:00 AM 6.28 43.304 0.067 7.74 2.46 13.07
4/28/2022 11:00:00 AM 6.49 43.682 0.067 7.75 2.27 13.02
4/28/2022 11:15:00 AM 6.71 44.078 0.067 7.78 2.47 12.98
4/28/2022 11:30:00 AM 6.96 44.528 0.067 7.78 2.28 12.9
4/28/2022 11:45:00 AM 7.21 44.978 0.067 7.82 2.46 12.84
4/28/2022 12:00:00 PM 7.47 45.446 0.066 7.83 2.28 12.78
4/28/2022 12:15:00 PM 7.73 45.914 0.066 7.86 2.38 12.68
4/28/2022 12:30:00 PM 7.98 46.364 0.066 7.88 2.42 12.63
4/28/2022 12:45:00 PM 8.21 46.778 0.066 7.88 2.53 12.55
4/28/2022 1:00:00 PM 8.45 47.21 0.066 7.9 2.34 12.5
4/28/2022 1:15:00 PM 8.66 47.588 0.066 7.93 2.3 12.43
4/28/2022 1:30:00 PM 8.88 47.984 0.066 7.95 2.45 12.35
4/28/2022 1:45:00 PM 9.06 48.308 0.066 7.96 2.25 12.3
4/28/2022 2:00:00 PM 9.21 48.578 0.066 7.96 2.24 12.24
4/28/2022 2:15:00 PM 9.35 48.83 0.066 7.96 2.34 12.2
4/28/2022 2:30:00 PM 9.46 49.028 0.066 7.97 2.3 12.13
4/28/2022 2:45:00 PM 9.57 49.226 0.066 7.98 2.35 12.06
4/28/2022 3:00:00 PM 9.67 49.406 0.066 7.98 2.52 12.02
4/28/2022 3:15:00 PM 9.75 49.55 0.066 7.99 2.28 11.99
4/28/2022 3:30:00 PM 9.79 49.622 0.066 7.98 2.34 11.97
4/28/2022 3:45:00 PM 9.82 49.676 0.066 7.97 2.31 11.94
4/28/2022 4:00:00 PM 9.85 49.73 0.066 7.96 2.35 11.9
4/28/2022 4:15:00 PM 9.83 49.694 0.066 7.94 2.43 11.87
4/28/2022 4:30:00 PM 9.82 49.676 0.066 7.93 2.35 11.84
4/28/2022 4:45:00 PM 9.8 49.64 0.066 7.9 2.53 11.82
4/28/2022 5:00:00 PM 9.76 49.568 0.066 7.89 2.37 11.79
4/28/2022 5:15:00 PM 9.7 49.46 0.066 7.85 2.38 11.77
4/28/2022 5:30:00 PM 9.6 49.28 0.066 7.83 2.41 11.74
4/28/2022 5:45:00 PM 9.49 49.082 0.066 7.8 2.39 11.73
4/28/2022 6:00:00 PM 9.37 48.866 0.066 7.76 2.56 11.74
4/28/2022 6:15:00 PM 9.22 48.596 0.066 7.74 2.58 11.72
4/28/2022 6:30:00 PM 9.07 48.326 0.067 7.69 2.77 11.69
4/28/2022 6:45:00 PM 8.92 48.056 0.067 7.66 2.49 11.66
4/28/2022 7:00:00 PM 8.77 47.786 0.067 7.6 3 11.64
4/28/2022 7:15:00 PM 8.6 47.48 0.067 7.58 2.49 11.64
4/28/2022 7:30:00 PM 8.48 47.264 0.067 7.54 2.94 11.63
4/28/2022 7:45:00 PM 8.34 47.012 0.067 7.52 2.46 11.58
4/28/2022 8:00:00 PM 8.22 46.796 0.067 7.47 3.05 11.55
4/28/2022 8:15:00 PM 8.11 46.598 0.068 7.45 2.56 11.53
4/28/2022 8:30:00 PM 8.01 46.418 0.068 7.41 3.21 11.51
4/28/2022 8:45:00 PM 7.9 46.22 0.068 7.41 2.68 11.52
4/28/2022 9:00:00 PM 7.79 46.022 0.068 7.38 3.38 11.52
4/28/2022 9:15:00 PM 7.67 45.806 0.068 7.38 2.73 11.53
4/28/2022 9:30:00 PM 7.56 45.608 0.068 7.36 3.14 11.57
4/28/2022 9:45:00 PM 7.45 45.41 0.069 7.36 2.56 11.61
4/28/2022 10:00:00 PM 7.34 45.212 0.069 7.34 2.9 11.64
4/28/2022 10:15:00 PM 7.21 44.978 0.069 7.34 2.61 11.68
4/28/2022 10:30:00 PM 7.09 44.762 0.069 7.33 2.49 11.71
4/28/2022 10:45:00 PM 6.96 44.528 0.069 7.33 2.66 11.74
4/28/2022 11:00:00 PM 6.83 44.294 0.069 7.33 2.51 11.8
4/28/2022 11:15:00 PM 6.72 44.096 0.069 7.32 2.54 11.84
4/28/2022 11:30:00 PM 6.6 43.88 0.069 7.3 2.51 11.87
4/28/2022 11:45:00 PM 6.49 43.682 0.069 7.3 2.5 11.89
4/29/2022 12:00:00 AM 6.38 43.484 0.069 7.3 2.59 11.92
4/29/2022 12:15:00 AM 6.27 43.286 0.069 7.3 2.42 11.97
4/29/2022 12:30:00 AM 6.16 43.088 0.07 7.3 2.44 12.02
4/29/2022 12:45:00 AM 6.05 42.89 0.07 7.29 2.42 12.05
4/29/2022 1:00:00 AM 5.95 42.71 0.07 7.29 2.55 12.09
4/29/2022 1:15:00 AM 5.85 42.53 0.07 7.29 2.69 12.11
4/29/2022 1:30:00 AM 5.75 42.35 0.07 7.29 2.39 12.13
4/29/2022 1:45:00 AM 5.66 42.188 0.07 7.28 2.45 12.17
4/29/2022 2:00:00 AM 5.56 42.008 0.07 7.28 2.93 12.21
4/29/2022 2:15:00 AM 5.47 41.846 0.07 7.22 2.41 12.24
4/29/2022 2:30:00 AM 5.38 41.684 0.07 7.22 2.95 12.27
4/29/2022 2:45:00 AM 5.3 41.54 0.07 7.2 2.41 12.29
4/29/2022 3:00:00 AM 5.21 41.378 0.07 7.21 2.87 12.32
4/29/2022 3:15:00 AM 5.12 41.216 0.07 7.21 2.33 12.34
4/29/2022 3:30:00 AM 5.04 41.072 0.07 7.21 2.98 12.37
4/29/2022 3:45:00 AM 4.96 40.928 0.07 7.2 2.28 12.4
4/29/2022 4:00:00 AM 4.89 40.802 0.07 7.21 2.98 12.44
4/29/2022 4:15:00 AM 4.81 40.658 0.07 7.21 2.36 12.47
4/29/2022 4:30:00 AM 4.73 40.514 0.07 7.21 2.85 12.49
4/29/2022 4:45:00 AM 4.66 40.388 0.07 7.21 2.32 12.52
4/29/2022 5:00:00 AM 4.59 40.262 0.07 7.21 2.92 12.53
4/29/2022 5:15:00 AM 4.52 40.136 0.07 7.21 2.25 12.55
4/29/2022 5:30:00 AM 4.45 40.01 0.07 7.21 2.98 12.57
4/29/2022 5:45:00 AM 4.38 39.884 0.07 7.21 2.34 12.6
4/29/2022 6:00:00 AM 4.32 39.776 0.07 7.22 2.91 12.63
4/29/2022 6:15:00 AM 4.25 39.65 0.07 7.22 2.38 12.67
4/29/2022 6:30:00 AM 4.2 39.56 0.07 7.23 2.95 12.74
4/29/2022 6:45:00 AM 4.15 39.47 0.07 7.25 2.37 12.82
4/29/2022 7:00:00 AM 4.11 39.398 0.07 7.26 2.72 12.91
4/29/2022 7:15:00 AM 4.07 39.326 0.07 7.27 2.28 13
4/29/2022 7:30:00 AM 4.06 39.308 0.07 7.32 2.83 13.1
4/29/2022 7:45:00 AM 4.08 39.344 0.07 7.36 2.36 13.18
4/29/2022 8:00:00 AM 4.13 39.434 0.07 7.4 2.52 13.28
4/29/2022 8:15:00 AM 4.17 39.506 0.07 7.42 2.26 13.35
4/29/2022 8:30:00 AM 4.23 39.614 0.07 7.48 2.78 13.4
4/29/2022 8:45:00 AM 4.34 39.812 0.069 7.5 2.19 13.43
4/29/2022 9:00:00 AM 4.47 40.046 0.069 7.56 2.58 13.44
4/29/2022 9:15:00 AM 4.63 40.334 0.069 7.59 2.37 13.45
4/29/2022 9:30:00 AM 4.81 40.658 0.069 7.62 2.69 13.45
4/29/2022 9:45:00 AM 5 41 0.069 7.65 2.42 13.42
4/29/2022 10:00:00 AM 5.21 41.378 0.069 7.67 2.6 13.38
4/29/2022 10:15:00 AM 5.43 41.774 0.069 7.69 2.24 13.36
4/29/2022 10:30:00 AM 5.66 42.188 0.069 7.7 2.78 13.3
4/29/2022 10:45:00 AM 5.89 42.602 0.069 7.72 2.22 13.25
4/29/2022 11:00:00 AM 6.15 43.07 0.068 7.74 2.7 13.2
4/29/2022 11:15:00 AM 6.43 43.574 0.068 7.74 2.17 13.09
4/29/2022 11:30:00 AM 6.73 44.114 0.068 7.77 2.7 13.04
4/29/2022 11:45:00 AM 7.02 44.636 0.068 7.78 2.18 12.95
4/29/2022 12:00:00 PM 7.32 45.176 0.068 7.81 2.74 12.89
4/29/2022 12:15:00 PM 7.62 45.716 0.068 7.84 2.2 12.78
4/29/2022 12:30:00 PM 7.92 46.256 0.068 7.86 2.44 12.7
4/29/2022 12:45:00 PM 8.23 46.814 0.068 7.89 2.19 12.6
4/29/2022 1:00:00 PM 8.52 47.336 0.068 7.9 2.18 12.54
4/29/2022 1:15:00 PM 8.8 47.84 0.068 7.93 2.13 12.45
4/29/2022 1:30:00 PM 9.06 48.308 0.068 7.93 2.17 12.36
4/29/2022 1:45:00 PM 9.29 48.722 0.068 7.98 2.34 12.29
4/29/2022 2:00:00 PM 9.51 49.118 0.068 8 2.2 12.21
4/29/2022 2:15:00 PM 9.72 49.496 0.068 8.01 2.08 12.14
4/29/2022 2:30:00 PM 9.9 49.82 0.068 8.03 2.17 12.09
4/29/2022 2:45:00 PM 10.06 50.108 0.068 8.03 2.14 12.01
4/29/2022 3:00:00 PM 10.2 50.36 0.068 8.03 2.08 11.94
4/29/2022 3:15:00 PM 10.3 50.54 0.067 8.04 2.22 11.89
4/29/2022 3:30:00 PM 10.39 50.702 0.067 8.05 2.22 11.86
4/29/2022 3:45:00 PM 10.44 50.792 0.067 8.05 2.19 11.81
4/29/2022 4:00:00 PM 10.47 50.846 0.067 8.04 2.14 11.77
4/29/2022 4:15:00 PM 10.48 50.864 0.067 8.03 2.2 11.74
4/29/2022 4:30:00 PM 10.48 50.864 0.067 8.01 2.23 11.71
4/29/2022 4:45:00 PM 10.46 50.828 0.067 7.99 2.13 11.68
4/29/2022 5:00:00 PM 10.44 50.792 0.067 7.97 2.27 11.66
4/29/2022 5:15:00 PM 10.4 50.72 0.068 7.95 2.25 11.63
4/29/2022 5:30:00 PM 10.33 50.594 0.068 7.89 2.21 11.6
4/29/2022 5:45:00 PM 10.25 50.45 0.068 7.88 2.26 11.57
4/29/2022 6:00:00 PM 10.14 50.252 0.068 7.84 2.36 11.55
4/29/2022 6:15:00 PM 10.03 50.054 0.068 7.81 2.26 11.54
4/29/2022 6:30:00 PM 9.91 49.838 0.068 7.76 2.25 11.53
4/29/2022 6:45:00 PM 9.79 49.622 0.068 7.71 2.16 11.49
4/29/2022 7:00:00 PM 9.66 49.388 0.068 7.67 2.14 11.44
4/29/2022 7:15:00 PM 9.53 49.154 0.068 7.63 2.25 11.4
4/29/2022 7:30:00 PM 9.4 48.92 0.068 7.59 2.36 11.38
4/29/2022 7:45:00 PM 9.26 48.668 0.069 7.55 2.25 11.36
4/29/2022 8:00:00 PM 9.11 48.398 0.069 7.52 2.33 11.32
4/29/2022 8:15:00 PM 8.99 48.182 0.069 7.48 2.66 11.26
4/29/2022 8:30:00 PM 8.88 47.984 0.069 7.45 2.41 11.24
4/29/2022 8:45:00 PM 8.76 47.768 0.069 7.4 2.79 11.25
4/29/2022 9:00:00 PM 8.65 47.57 0.069 7.41 2.28 11.26
4/29/2022 9:15:00 PM 8.55 47.39 0.069 7.38 2.9 11.28
4/29/2022 9:30:00 PM 8.45 47.21 0.07 7.39 2.3 11.3
4/29/2022 9:45:00 PM 8.34 47.012 0.07 7.36 2.84 11.31
4/29/2022 10:00:00 PM 8.22 46.796 0.07 7.37 2.23 11.34
4/29/2022 10:15:00 PM 8.1 46.58 0.07 7.36 2.84 11.4
4/29/2022 10:30:00 PM 7.96 46.328 0.07 7.35 2.29 11.44
4/29/2022 10:45:00 PM 7.81 46.058 0.07 7.34 3.06 11.48
4/29/2022 11:00:00 PM 7.67 45.806 0.07 7.35 2.31 11.5
4/29/2022 11:15:00 PM 7.53 45.554 0.07 7.34 3.16 11.56
4/29/2022 11:30:00 PM 7.4 45.32 0.071 7.34 2.32 11.61
4/29/2022 11:45:00 PM 7.27 45.086 0.071 7.33 2.95 11.66
4/30/2022 12:00:00 AM 7.15 44.87 0.071 7.34 2.37 11.68
4/30/2022 12:15:00 AM 7.03 44.654 0.071 7.33 2.95 11.71
4/30/2022 12:30:00 AM 6.91 44.438 0.071 7.33 2.31 11.76
4/30/2022 12:45:00 AM 6.79 44.222 0.071 7.33 2.98 11.8
4/30/2022 1:00:00 AM 6.67 44.006 0.071 7.33 2.37 11.84
4/30/2022 1:15:00 AM 6.56 43.808 0.071 7.31 2.95 11.88
4/30/2022 1:30:00 AM 6.45 43.61 0.071 7.33 2.3 11.89
4/30/2022 1:45:00 AM 6.35 43.43 0.071 7.33 2.98 11.92
4/30/2022 2:00:00 AM 6.25 43.25 0.071 7.33 2.3 11.98
4/30/2022 2:15:00 AM 6.14 43.052 0.071 7.32 2.85 12.01
4/30/2022 2:30:00 AM 6.04 42.872 0.071 7.32 2.41 12.05
4/30/2022 2:45:00 AM 5.95 42.71 0.071 7.32 2.54 12.07
4/30/2022 3:00:00 AM 5.85 42.53 0.071 7.3 2.58 12.09
4/30/2022 3:15:00 AM 5.76 42.368 0.071 7.32 2.33 12.11
4/30/2022 3:30:00 AM 5.66 42.188 0.071 7.32 2.44 12.16
4/30/2022 3:45:00 AM 5.57 42.026 0.071 7.31 2.65 12.2
4/30/2022 4:00:00 AM 5.48 41.864 0.071 7.3 2.66 12.24
4/30/2022 4:15:00 AM 5.39 41.702 0.071 7.3 2.3 12.26
4/30/2022 4:30:00 AM 5.31 41.558 0.071 7.28 2.84 12.27
4/30/2022 4:45:00 AM 5.22 41.396 0.071 7.27 2.26 12.3
4/30/2022 5:00:00 AM 5.14 41.252 0.071 7.27 2.7 12.32
4/30/2022 5:15:00 AM 5.06 41.108 0.071 7.25 2.18 12.36
4/30/2022 5:30:00 AM 4.97 40.946 0.071 7.26 2.61 12.4
4/30/2022 5:45:00 AM 4.9 40.82 0.071 7.25 2.21 12.43
4/30/2022 6:00:00 AM 4.82 40.676 0.071 7.25 2.78 12.46
4/30/2022 6:15:00 AM 4.75 40.55 0.071 7.26 2.31 12.52
4/30/2022 6:30:00 AM 4.68 40.424 0.071 7.27 2.56 12.59
4/30/2022 6:45:00 AM 4.61 40.298 0.071 7.29 2.57 12.68
4/30/2022 7:00:00 AM 4.55 40.19 0.071 7.3 2.57 12.77
4/30/2022 7:15:00 AM 4.51 40.118 0.071 7.33 2.71 12.87
4/30/2022 7:30:00 AM 4.48 40.064 0.071 7.35 2.38 12.98
4/30/2022 7:45:00 AM 4.47 40.046 0.071 7.4 2.73 13.09
4/30/2022 8:00:00 AM 4.51 40.118 0.071 7.44 2.25 13.19
4/30/2022 8:15:00 AM 4.56 40.208 0.071 7.47 2.35 13.26
4/30/2022 8:30:00 AM 4.63 40.334 0.07 7.52 2.24 13.32
4/30/2022 8:45:00 AM 4.73 40.514 0.07 7.56 2.37 13.38
4/30/2022 9:00:00 AM 4.88 40.784 0.07 7.59 2.63 13.4
4/30/2022 9:15:00 AM 5.07 41.126 0.07 7.62 2.1 13.39
4/30/2022 9:30:00 AM 5.29 41.522 0.07 7.65 2.79 13.37
4/30/2022 9:45:00 AM 5.52 41.936 0.07 7.67 2.08 13.37
4/30/2022 10:00:00 AM 5.76 42.368 0.07 7.71 2.75 13.29
4/30/2022 10:15:00 AM 6.02 42.836 0.07 7.73 2.11 13.25
4/30/2022 10:30:00 AM 6.28 43.304 0.069 7.77 2.77 13.19
4/30/2022 10:45:00 AM 6.54 43.772 0.069 7.79 2.14 13.12
4/30/2022 11:00:00 AM 6.83 44.294 0.069 7.8 2.66 13.06
4/30/2022 11:15:00 AM 7.12 44.816 0.069 7.83 2.14 12.96
4/30/2022 11:30:00 AM 7.42 45.356 0.069 7.84 2.57 12.9
4/30/2022 11:45:00 AM 7.74 45.932 0.069 7.88 2.11 12.79
4/30/2022 12:00:00 PM 8.06 46.508 0.069 7.89 2.53 12.73
4/30/2022 12:15:00 PM 8.41 47.138 0.069 7.94 2.08 12.63
4/30/2022 12:30:00 PM 8.74 47.732 0.069 7.96 2.17 12.55
4/30/2022 12:45:00 PM 9.06 48.308 0.069 7.99 2.13 12.44
4/30/2022 1:00:00 PM 9.38 48.884 0.069 8.02 2.06 12.37
4/30/2022 1:15:00 PM 9.68 49.424 0.068 8.03 2.09 12.26
4/30/2022 1:30:00 PM 9.97 49.946 0.068 8.08 2.15 12.19
4/30/2022 1:45:00 PM 10.25 50.45 0.068 8.1 2.21 12.08
4/30/2022 2:00:00 PM 10.52 50.936 0.068 8.12 2.27 12.02
4/30/2022 2:15:00 PM 10.74 51.332 0.068 8.15 2.24 11.93
4/30/2022 2:30:00 PM 10.95 51.71 0.068 8.17 2.12 11.84
4/30/2022 2:45:00 PM 11.14 52.052 0.068 8.18 2.16 11.79
4/30/2022 3:00:00 PM 11.29 52.322 0.068 8.21 2.12 11.73
4/30/2022 3:15:00 PM 11.41 52.538 0.068 8.21 2.2 11.67
4/30/2022 3:30:00 PM 11.54 52.772 0.068 8.22 2.17 11.6
4/30/2022 3:45:00 PM 11.61 52.898 0.068 8.23 2.15 11.55
4/30/2022 4:00:00 PM 11.67 53.006 0.068 8.21 2.11 11.51
4/30/2022 4:15:00 PM 11.71 53.078 0.068 8.19 2.22 11.48
4/30/2022 4:30:00 PM 11.72 53.096 0.068 8.18 2.14 11.44
4/30/2022 4:45:00 PM 11.74 53.132 0.068 8.14 2.19 11.41
4/30/2022 5:00:00 PM 11.74 53.132 0.068 8.11 2.13 11.36
4/30/2022 5:15:00 PM 11.73 53.114 0.068 8.08 2.16 11.32
4/30/2022 5:30:00 PM 11.69 53.042 0.068 8.02 2.2 11.29
4/30/2022 5:45:00 PM 11.62 52.916 0.068 7.99 2.17 11.23
4/30/2022 6:00:00 PM 11.55 52.79 0.068 7.91 2.17 11.19
4/30/2022 6:15:00 PM 11.45 52.61 0.068 7.88 2.18 11.17
4/30/2022 6:30:00 PM 11.34 52.412 0.068 7.82 2.22 11.13
4/30/2022 6:45:00 PM 11.23 52.214 0.069 7.76 2.27 11.09
4/30/2022 7:00:00 PM 11.12 52.016 0.069 7.71 2.2 11.06
4/30/2022 7:15:00 PM 11.02 51.836 0.069 7.67 2.24 11.03
4/30/2022 7:30:00 PM 10.91 51.638 0.069 7.63 2.3 10.98
4/30/2022 7:45:00 PM 10.79 51.422 0.069 7.58 2.37 10.92
4/30/2022 8:00:00 PM 10.68 51.224 0.07 7.53 2.29 10.87
4/30/2022 8:15:00 PM 10.57 51.026 0.07 7.48 2.64 10.82
4/30/2022 8:30:00 PM 10.45 50.81 0.07 7.46 2.29 10.78
4/30/2022 8:45:00 PM 10.34 50.612 0.07 7.41 2.69 10.77
4/30/2022 9:00:00 PM 10.23 50.414 0.07 7.41 2.32 10.75
4/30/2022 9:15:00 PM 10.11 50.198 0.071 7.37 2.98 10.78
4/30/2022 9:30:00 PM 9.97 49.946 0.071 7.38 2.36 10.82
4/30/2022 9:45:00 PM 9.84 49.712 0.071 7.34 2.68 10.84
4/30/2022 10:00:00 PM 9.7 49.46 0.071 7.36 2.28 10.87
4/30/2022 10:15:00 PM 9.56 49.208 0.071 7.33 2.87 10.9
4/30/2022 10:30:00 PM 9.42 48.956 0.071 7.35 2.38 10.94
4/30/2022 10:45:00 PM 9.28 48.704 0.071 7.32 2.89 11
4/30/2022 11:00:00 PM 9.14 48.452 0.072 7.34 2.3 11.04
4/30/2022 11:15:00 PM 9 48.2 0.072 7.31 2.78 11.06
4/30/2022 11:30:00 PM 8.86 47.948 0.072 7.33 2.34 11.1
4/30/2022 11:45:00 PM 8.72 47.696 0.072 7.31 2.88 11.16
5/1/2022 12:00:00 AM 8.58 47.444 0.072 7.32 2.33 11.2
5/1/2022 12:15:00 AM 8.44 47.192 0.072 7.3 3.06 11.24
5/1/2022 12:30:00 AM 8.31 46.958 0.072 7.32 2.29 11.26
5/1/2022 12:45:00 AM 8.17 46.706 0.072 7.32 2.73 11.32
5/1/2022 1:00:00 AM 8.05 46.49 0.072 7.31 2.21 11.37
5/1/2022 1:15:00 AM 7.92 46.256 0.072 7.31 4.93 11.41
5/1/2022 1:30:00 AM 7.8 46.04 0.072 7.3 2.3 11.44
5/1/2022 1:45:00 AM 7.68 45.824 0.072 7.31 2.88 11.45
5/1/2022 2:00:00 AM 7.55 45.59 0.072 7.3 2.26 11.51
5/1/2022 2:15:00 AM 7.44 45.392 0.072 7.3 2.88 11.55
5/1/2022 2:30:00 AM 7.32 45.176 0.072 7.3 2.37 11.59
5/1/2022 2:45:00 AM 7.21 44.978 0.072 7.29 3.15 11.62
5/1/2022 3:00:00 AM 7.09 44.762 0.072 7.3 2.71 11.65
5/1/2022 3:15:00 AM 6.99 44.582 0.073 7.3 3.58 11.68
5/1/2022 3:30:00 AM 6.88 44.384 0.073 7.3 3.13 11.73
5/1/2022 3:45:00 AM 6.77 44.186 0.073 7.28 3.54 11.77
5/1/2022 4:00:00 AM 6.67 44.006 0.073 7.29 2.96 11.81
5/1/2022 4:15:00 AM 6.57 43.826 0.073 7.29 3.05 11.84
5/1/2022 4:30:00 AM 6.47 43.646 0.073 7.29 2.68 11.85
5/1/2022 4:45:00 AM 6.37 43.466 0.073 7.27 2.89 11.88
5/1/2022 5:00:00 AM 6.28 43.304 0.073 7.28 2.47 11.91
5/1/2022 5:15:00 AM 6.19 43.142 0.073 7.29 3.04 11.95
5/1/2022 5:30:00 AM 6.09 42.962 0.073 7.28 2.51 12
5/1/2022 5:45:00 AM 6 42.8 0.073 7.28 2.74 12.03
5/1/2022 6:00:00 AM 5.91 42.638 0.073 7.28 2.35 12.05
5/1/2022 6:15:00 AM 5.83 42.494 0.073 7.27 2.33 12.1
5/1/2022 6:30:00 AM 5.75 42.35 0.071 7.3 3.76 12.19
5/1/2022 6:45:00 AM 5.68 42.224 0.071 7.3 2.94 12.3
5/1/2022 7:00:00 AM 5.62 42.116 0.071 7.34 2.84 12.42
5/1/2022 7:15:00 AM 5.57 42.026 0.072 7.37 2.27 12.55
5/1/2022 7:30:00 AM 5.54 41.972 0.072 7.4 2.46 12.68
5/1/2022 7:45:00 AM 5.54 41.972 0.072 7.44 2.3 12.81
5/1/2022 8:00:00 AM 5.58 42.044 0.072 7.47 2.62 12.9
5/1/2022 8:15:00 AM 5.61 42.098 0.072 7.52 2.22 12.98
5/1/2022 8:30:00 AM 5.68 42.224 0.072 7.55 2.82 13.05
5/1/2022 8:45:00 AM 5.78 42.404 0.071 7.59 2.24 13.09
5/1/2022 9:00:00 AM 5.92 42.656 0.071 7.64 2.75 13.14
5/1/2022 9:15:00 AM 6.08 42.944 0.071 7.68 2.21 13.16
5/1/2022 9:30:00 AM 6.27 43.286 0.071 7.72 2.6 13.14
5/1/2022 9:45:00 AM 6.49 43.682 0.071 7.75 2.22 13.1
5/1/2022 10:00:00 AM 6.74 44.132 0.071 7.81 2.71 13.08
5/1/2022 10:15:00 AM 7.01 44.618 0.07 7.83 2.16 13
5/1/2022 10:30:00 AM 7.3 45.14 0.07 7.86 2.39 12.97
5/1/2022 10:45:00 AM 7.61 45.698 0.07 7.91 2.24 12.89
5/1/2022 11:00:00 AM 7.88 46.184 0.07 7.93 2.26 12.83
5/1/2022 11:15:00 AM 8.14 46.652 0.07 7.97 2.2 12.76
5/1/2022 11:30:00 AM 8.43 47.174 0.07 8.02 2.35 12.68
5/1/2022 11:45:00 AM 8.75 47.75 0.069 8.07 2.7 12.63
5/1/2022 12:00:00 PM 9 48.2 0.069 8.13 2.55 12.56
5/1/2022 12:15:00 PM 9.28 48.704 0.069 8.19 2.4 12.5
5/1/2022 12:30:00 PM 9.59 49.262 0.069 8.22 2.36 12.42
5/1/2022 12:45:00 PM 9.91 49.838 0.069 8.31 2.37 12.36
5/1/2022 1:00:00 PM 10.2 50.36 0.069 8.34 2.36 12.26
5/1/2022 1:15:00 PM 10.55 50.99 0.069 8.4 2.19 12.16
5/1/2022 1:30:00 PM 10.87 51.566 0.069 8.43 2.19 12.05
5/1/2022 1:45:00 PM 11.19 52.142 0.069 8.48 2.23 11.97
5/1/2022 2:00:00 PM 11.45 52.61 0.069 8.52 2.15 11.86
5/1/2022 2:15:00 PM 11.69 53.042 0.068 8.56 2.17 11.79
5/1/2022 2:30:00 PM 11.9 53.42 0.068 8.61 2.14 11.74
5/1/2022 2:45:00 PM 12.08 53.744 0.068 8.66 2.28 11.67
5/1/2022 3:00:00 PM 12.2 53.96 0.068 8.71 2.21 11.6
5/1/2022 3:15:00 PM 12.27 54.086 0.068 8.76 2.21 11.58
5/1/2022 3:30:00 PM 12.29 54.122 0.068 8.8 2.17 11.56
5/1/2022 3:45:00 PM 12.39 54.302 0.068 8.86 2.25 11.56
5/1/2022 4:00:00 PM 12.51 54.518 0.068 8.91 2.36 11.51
5/1/2022 4:15:00 PM 12.53 54.554 0.068 8.93 2.31 11.48
5/1/2022 4:30:00 PM 12.51 54.518 0.068 8.95 2.23 11.45
5/1/2022 4:45:00 PM 12.56 54.608 0.068 8.97 2.24 11.41
5/1/2022 5:00:00 PM 12.63 54.734 0.068 8.96 2.25 11.38
5/1/2022 5:15:00 PM 12.66 54.788 0.068 8.98 2.26 11.33
5/1/2022 5:30:00 PM 12.64 54.752 0.068 8.96 2.37 11.29
5/1/2022 5:45:00 PM 12.61 54.698 0.068 8.92 2.34 11.22
5/1/2022 6:00:00 PM 12.58 54.644 0.068 8.88 2.19 11.16
5/1/2022 6:15:00 PM 12.52 54.536 0.068 8.75 2.27 11.01
5/1/2022 6:30:00 PM 12.44 54.392 0.068 8.53 2.31 10.88
5/1/2022 6:45:00 PM 12.36 54.248 0.068 8.28 2.54 10.78
5/1/2022 7:00:00 PM 12.27 54.086 0.068 8.08 2.32 10.73
5/1/2022 7:15:00 PM 12.19 53.942 0.069 7.9 2.37 10.7
5/1/2022 7:30:00 PM 12.11 53.798 0.069 7.81 2.23 10.64
5/1/2022 7:45:00 PM 12.03 53.654 0.069 7.73 2.35 10.58
5/1/2022 8:00:00 PM 11.96 53.528 0.07 7.65 2.34 10.5
5/1/2022 8:15:00 PM 11.9 53.42 0.07 7.59 2.38 10.44
5/1/2022 8:30:00 PM 11.83 53.294 0.07 7.53 2.28 10.39
5/1/2022 8:45:00 PM 11.76 53.168 0.071 7.49 2.44 10.36
5/1/2022 9:00:00 PM 11.7 53.06 0.071 7.48 2.54 10.36
5/1/2022 9:15:00 PM 11.64 52.952 0.071 7.44 2.63 10.35
5/1/2022 9:30:00 PM 11.57 52.826 0.072 7.44 2.32 10.35
5/1/2022 9:45:00 PM 11.5 52.7 0.072 7.41 2.45 10.37
5/1/2022 10:00:00 PM 11.42 52.556 0.072 7.42 2.46 10.37
5/1/2022 10:15:00 PM 11.36 52.448 0.072 7.39 2.47 10.4
5/1/2022 10:30:00 PM 11.29 52.322 0.072 7.4 2.47 10.42
5/1/2022 10:45:00 PM 11.22 52.196 0.072 7.36 2.72 10.44
5/1/2022 11:00:00 PM 11.15 52.07 0.072 7.39 2.46 10.46
5/1/2022 11:15:00 PM 11.08 51.944 0.073 7.37 2.76 10.48
5/1/2022 11:30:00 PM 11.01 51.818 0.073 7.37 2.58 10.49
5/1/2022 11:45:00 PM 10.94 51.692 0.073 7.34 3.09 10.5
5/2/2022 12:00:00 AM 10.88 51.584 0.073 7.37 2.92 10.52
5/2/2022 12:15:00 AM 10.82 51.476 0.073 7.33 3.4 10.54
5/2/2022 12:30:00 AM 10.77 51.386 0.073 7.36 3.79 10.56
5/2/2022 12:45:00 AM 10.72 51.296 0.073 7.32 4.93 10.57
5/2/2022 1:00:00 AM 10.67 51.206 0.073 7.33 5.03 10.58
5/2/2022 1:15:00 AM 10.62 51.116 0.073 7.34 5.24 10.6
5/2/2022 1:30:00 AM 10.56 51.008 0.073 7.35 4.52 10.62
5/2/2022 1:45:00 AM 10.51 50.918 0.073 7.33 4.41 10.64
5/2/2022 2:00:00 AM 10.46 50.828 0.073 7.34 3.61 10.65
5/2/2022 2:15:00 AM 10.42 50.756 0.073 7.32 3.73 10.66
5/2/2022 2:30:00 AM 10.37 50.666 0.073 7.35 3.05 10.68
5/2/2022 2:45:00 AM 10.33 50.594 0.073 7.33 6.07 10.68
5/2/2022 3:00:00 AM 10.28 50.504 0.074 7.34 2.94 10.69
5/2/2022 3:15:00 AM 10.24 50.432 0.074 7.32 4.24 10.69
5/2/2022 3:30:00 AM 10.2 50.36 0.074 7.34 2.81 10.71
5/2/2022 3:45:00 AM 10.16 50.288 0.074 7.31 3.37 10.72
5/2/2022 4:00:00 AM 10.13 50.234 0.074 7.34 2.61 10.73
5/2/2022 4:15:00 AM 10.09 50.162 0.074 7.32 2.94 10.74
5/2/2022 4:30:00 AM 10.06 50.108 0.074 7.33 3.77 10.77
5/2/2022 4:45:00 AM 10.02 50.036 0.072 7.34 4.12 10.77
5/2/2022 5:00:00 AM 9.99 49.982 0.072 7.33 3.93 10.78
5/2/2022 5:15:00 AM 9.96 49.928 0.072 7.33 4.34 10.79
5/2/2022 5:30:00 AM 9.93 49.874 0.072 7.33 4.32 10.8
5/2/2022 5:45:00 AM 9.9 49.82 0.072 7.33 4.34 10.81
5/2/2022 6:00:00 AM 9.87 49.766 0.072 7.33 4.1 10.82
5/2/2022 6:15:00 AM 9.85 49.73 0.072 7.32 3.87 10.84
5/2/2022 6:30:00 AM 9.82 49.676 0.072 7.34 3.78 10.86
5/2/2022 6:45:00 AM 9.8 49.64 0.072 7.34 3.76 10.89
5/2/2022 7:00:00 AM 9.78 49.604 0.072 7.35 3.67 10.93
5/2/2022 7:15:00 AM 9.77 49.586 0.072 7.36 3.5 10.99
5/2/2022 7:30:00 AM 9.75 49.55 0.072 7.37 3.3 11.06
5/2/2022 7:45:00 AM 9.74 49.532 0.072 7.39 3.48 11.11
5/2/2022 8:00:00 AM 9.73 49.514 0.072 7.41 3.43 11.18
5/2/2022 8:15:00 AM 9.73 49.514 0.072 7.43 3.53 11.25
5/2/2022 8:30:00 AM 9.73 49.514 0.072 7.46 3.39 11.37
5/2/2022 8:45:00 AM 9.73 49.514 0.071 7.51 3.2 11.45
5/2/2022 9:00:00 AM 9.75 49.55 0.071 7.55 3.26 11.57
5/2/2022 9:15:00 AM 9.76 49.568 0.071 7.58 3.26 11.63
5/2/2022 9:30:00 AM 9.78 49.604 0.071 7.62 3.17 11.68
5/2/2022 9:45:00 AM 9.81 49.658 0.071 7.68 3.25 11.78
5/2/2022 10:00:00 AM 9.87 49.766 0.071 7.76 3.37 11.89
5/2/2022 10:15:00 AM 9.92 49.856 0.071 7.82 3.42 11.95
5/2/2022 10:30:00 AM 9.97 49.946 0.07 7.91 3.2 12
5/2/2022 10:45:00 AM 10 50 0.07 7.93 3.29 11.98
5/2/2022 11:00:00 AM 10.02 50.036 0.07 7.92 3.28 11.91
5/2/2022 11:15:00 AM 10.03 50.054 0.07 7.9 3.74 11.85
5/2/2022 11:30:00 AM 10.06 50.108 0.07 7.91 3.22 11.83
5/2/2022 11:45:00 AM 10.1 50.18 0.07 7.96 3.85 11.88
5/2/2022 12:00:00 PM 10.16 50.288 0.07 8.06 3.07 11.94
5/2/2022 12:15:00 PM 10.24 50.432 0.07 8.17 4.06 11.99
5/2/2022 12:30:00 PM 10.36 50.648 0.069 8.29 3.16 12.08
5/2/2022 12:45:00 PM 10.49 50.882 0.069 8.42 4.2 12.12
5/2/2022 1:00:00 PM 10.65 51.17 0.069 8.51 3.03 12.09
5/2/2022 1:15:00 PM 10.72 51.296 0.069 8.56 5.39 12.05
5/2/2022 1:30:00 PM 10.79 51.422 0.069 8.63 3.01 12.02
5/2/2022 1:45:00 PM 10.84 51.512 0.069 8.65 4.77 11.94
5/2/2022 2:00:00 PM 10.95 51.71 0.069 8.7 3 11.95
5/2/2022 2:15:00 PM 10.98 51.764 0.069 8.67 3.59 11.83
5/2/2022 2:30:00 PM 10.99 51.782 0.069 8.61 3.12 11.74
5/2/2022 2:45:00 PM 10.99 51.782 0.069 8.64 3.93 11.75
5/2/2022 3:00:00 PM 11.03 51.854 0.069 8.69 3 11.81
5/2/2022 3:15:00 PM 11.08 51.944 0.068 8.74 3.32 11.81
5/2/2022 3:30:00 PM 11.14 52.052 0.068 8.82 3.19 11.86
5/2/2022 3:45:00 PM 11.24 52.232 0.068 8.89 3.34 11.88
5/2/2022 4:00:00 PM 11.34 52.412 0.068 8.95 3.2 11.85
5/2/2022 4:15:00 PM 11.44 52.592 0.068 8.99 3.09 11.83
5/2/2022 4:30:00 PM 11.53 52.754 0.068 9.02 3.23 11.79
5/2/2022 4:45:00 PM 11.6 52.88 0.068 9.02 3.15 11.67
5/2/2022 5:00:00 PM 11.55 52.79 0.067 8.88 3.3 11.42
5/2/2022 5:15:00 PM 11.53 52.754 0.067 8.73 3.18 11.28
5/2/2022 5:30:00 PM 11.55 52.79 0.067 8.61 3.4 11.23
5/2/2022 5:45:00 PM 11.51 52.718 0.068 8.44 3.16 11.16
5/2/2022 6:00:00 PM 11.44 52.592 0.068 8.18 3.27 11.04
5/2/2022 6:15:00 PM 11.37 52.466 0.068 7.96 3.4 10.96
5/2/2022 6:30:00 PM 11.34 52.412 0.068 7.89 3.27 10.94
5/2/2022 6:45:00 PM 11.31 52.358 0.068 7.81 3.22 10.89
5/2/2022 7:00:00 PM 11.28 52.304 0.069 7.75 3.1 10.91
5/2/2022 7:15:00 PM 11.25 52.25 0.069 7.69 3.22 10.84
5/2/2022 7:30:00 PM 11.21 52.178 0.069 7.63 3.27 10.8
5/2/2022 7:45:00 PM 11.17 52.106 0.069 7.59 3.3 10.73
5/2/2022 8:00:00 PM 11.13 52.034 0.07 7.53 3.23 10.69
5/2/2022 8:15:00 PM 11.08 51.944 0.07 7.51 3.47 10.65
5/2/2022 8:30:00 PM 11.02 51.836 0.07 7.48 3.45 10.62
5/2/2022 8:45:00 PM 10.96 51.728 0.071 7.44 3.31 10.58
5/2/2022 9:00:00 PM 10.89 51.602 0.071 7.43 3.42 10.57
5/2/2022 9:15:00 PM 10.82 51.476 0.071 7.41 3.39 10.58
5/2/2022 9:30:00 PM 10.77 51.386 0.072 7.4 3.57 10.59
5/2/2022 9:45:00 PM 10.72 51.296 0.072 7.39 3.46 10.61
5/2/2022 10:00:00 PM 10.67 51.206 0.072 7.38 3.3 10.62
5/2/2022 10:15:00 PM 10.62 51.116 0.072 7.37 3.31 10.64
5/2/2022 10:30:00 PM 10.58 51.044 0.072 7.36 3.55 10.65
5/2/2022 10:45:00 PM 10.54 50.972 0.072 7.35 3.28 10.67
5/2/2022 11:00:00 PM 10.5 50.9 0.072 7.35 3.42 10.68
5/2/2022 11:15:00 PM 10.46 50.828 0.072 7.34 3.41 10.69
5/2/2022 11:30:00 PM 10.42 50.756 0.072 7.35 4.01 10.7
5/2/2022 11:45:00 PM 10.37 50.666 0.072 7.35 3.44 10.71
5/3/2022 12:00:00 AM 10.31 50.558 0.072 7.33 3.49 10.72
5/3/2022 12:15:00 AM 10.25 50.45 0.072 7.32 3.76 10.73
5/3/2022 12:30:00 AM 10.2 50.36 0.072 7.33 3.33 10.74
5/3/2022 12:45:00 AM 10.16 50.288 0.073 7.33 3.58 10.75
5/3/2022 1:00:00 AM 10.12 50.216 0.073 7.33 3.35 10.78
5/3/2022 1:15:00 AM 10.08 50.144 0.073 7.32 3.59 10.79
5/3/2022 1:30:00 AM 10.05 50.09 0.073 7.32 3.31 10.8
5/3/2022 1:45:00 AM 10.01 50.018 0.073 7.32 3.24 10.83
5/3/2022 2:00:00 AM 9.97 49.946 0.073 7.3 3.45 10.82
5/3/2022 2:15:00 AM 9.93 49.874 0.073 7.31 3.25 10.84
5/3/2022 2:30:00 AM 9.9 49.82 0.073 7.31 3.46 10.85
5/3/2022 2:45:00 AM 9.86 49.748 0.073 7.32 3.42 10.86
5/3/2022 3:00:00 AM 9.82 49.676 0.073 7.31 3.32 10.87
5/3/2022 3:15:00 AM 9.78 49.604 0.073 7.3 3.25 10.88
5/3/2022 3:30:00 AM 9.74 49.532 0.073 7.31 3.74 10.89
5/3/2022 3:45:00 AM 9.71 49.478 0.073 7.3 3.26 10.89
5/3/2022 4:00:00 AM 9.67 49.406 0.073 7.31 3.35 10.9
5/3/2022 4:15:00 AM 9.63 49.334 0.073 7.3 3.48 10.9
5/3/2022 4:30:00 AM 9.59 49.262 0.073 7.3 3.36 10.91
5/3/2022 4:45:00 AM 9.55 49.19 0.073 7.29 3.16 10.92
5/3/2022 5:00:00 AM 9.51 49.118 0.073 7.31 3.57 10.94
5/3/2022 5:15:00 AM 9.47 49.046 0.073 7.31 3.51 10.96
5/3/2022 5:30:00 AM 9.43 48.974 0.073 7.3 3.66 10.98
5/3/2022 5:45:00 AM 9.39 48.902 0.073 7.31 3.57 10.99
5/3/2022 6:00:00 AM 9.35 48.83 0.073 7.31 3.42 11.02
5/3/2022 6:15:00 AM 9.32 48.776 0.073 7.31 3.49 11.06
5/3/2022 6:30:00 AM 9.28 48.704 0.073 7.33 3.25 11.12
5/3/2022 6:45:00 AM 9.26 48.668 0.073 7.34 3.4 11.2
5/3/2022 7:00:00 AM 9.25 48.65 0.073 7.39 3.5 11.33
5/3/2022 7:15:00 AM 9.25 48.65 0.072 7.42 3.31 11.46
5/3/2022 7:30:00 AM 9.25 48.65 0.072 7.45 3.94 11.61
5/3/2022 7:45:00 AM 9.26 48.668 0.072 7.51 3.22 11.75
5/3/2022 8:00:00 AM 9.28 48.704 0.072 7.57 3.6 11.9
5/3/2022 8:15:00 AM 9.34 48.812 0.072 7.65 3.48 12.05
5/3/2022 8:30:00 AM 9.41 48.938 0.071 7.75 3.51 12.14
5/3/2022 8:45:00 AM 9.48 49.064 0.071 7.83 3.36 12.22
5/3/2022 9:00:00 AM 9.57 49.226 0.071 7.91 3.48 12.24
5/3/2022 9:15:00 AM 9.63 49.334 0.071 8 3.36 12.27
5/3/2022 9:30:00 AM 9.73 49.514 0.071 8.08 3.31 12.3
5/3/2022 9:45:00 AM 9.83 49.694 0.071 8.18 3.12 12.31
5/3/2022 10:00:00 AM 9.96 49.928 0.071 8.24 3.62 12.28
5/3/2022 10:15:00 AM 10.07 50.126 0.07 8.29 2.99 12.24
5/3/2022 10:30:00 AM 10.29 50.522 0.07 8.38 3.52 12.22
5/3/2022 10:45:00 AM 10.56 51.008 0.07 8.47 3.07 12.21
5/3/2022 11:00:00 AM 10.89 51.602 0.07 8.53 3.15 12.13
5/3/2022 11:15:00 AM 11.15 52.07 0.07 8.58 3.37 12.07
5/3/2022 11:30:00 AM 11.42 52.556 0.07 8.61 3.19 12
5/3/2022 11:45:00 AM 11.71 53.078 0.069 8.68 3.12 11.96
5/3/2022 12:00:00 PM 12.13 53.834 0.069 8.77 3.06 11.87
5/3/2022 12:15:00 PM 12.44 54.392 0.069 8.83 3.2 11.81
5/3/2022 12:30:00 PM 12.76 54.968 0.069 8.9 3.21 11.72
5/3/2022 12:45:00 PM 13.08 55.544 0.069 8.96 3.03 11.67
5/3/2022 1:00:00 PM 13.27 55.886 0.069 9.01 3.07 11.58
5/3/2022 1:15:00 PM 13.52 56.336 0.069 9.05 3.24 11.54
5/3/2022 1:30:00 PM 13.73 56.714 0.069 9.1 3.13 11.49
5/3/2022 1:45:00 PM 13.87 56.966 0.069 9.16 3.09 11.45
5/3/2022 2:00:00 PM 13.92 57.056 0.069 9.19 3.23 11.42
5/3/2022 2:15:00 PM 13.92 57.056 0.069 9.21 3.21 11.35
5/3/2022 2:30:00 PM 13.95 57.11 0.069 9.24 2.96 11.3
5/3/2022 2:45:00 PM 14.01 57.218 0.069 9.27 3.18 11.28
5/3/2022 3:00:00 PM 14.01 57.218 0.069 9.27 3.09 11.2
5/3/2022 3:15:00 PM 13.97 57.146 0.069 9.28 3.2 11.18
5/3/2022 3:30:00 PM 13.93 57.074 0.069 9.3 3.07 11.19
5/3/2022 3:45:00 PM 13.93 57.074 0.069 9.31 3.15 11.19
5/3/2022 4:00:00 PM 13.94 57.092 0.069 9.33 3.03 11.17
5/3/2022 4:15:00 PM 13.94 57.092 0.068 9.34 3.2 11.16
5/3/2022 4:30:00 PM 13.94 57.092 0.068 9.34 3.01 11.12
5/3/2022 4:45:00 PM 13.94 57.092 0.068 9.33 3.15 11.05
5/3/2022 5:00:00 PM 13.95 57.11 0.068 9.32 3.27 11.03
5/3/2022 5:15:00 PM 13.95 57.11 0.068 9.3 3.24 10.96
5/3/2022 5:30:00 PM 13.93 57.074 0.068 9.25 3.11 10.88
5/3/2022 5:45:00 PM 13.89 57.002 0.068 9.2 3.19 10.82
5/3/2022 6:00:00 PM 13.85 56.93 0.068 9.13 3.28 10.76
5/3/2022 6:15:00 PM 13.79 56.822 0.068 9.05 3.34 10.68
5/3/2022 6:30:00 PM 13.73 56.714 0.068 8.94 3.43 10.63
5/3/2022 6:45:00 PM 13.67 56.606 0.068 8.81 3.11 10.56
5/3/2022 7:00:00 PM 13.61 56.498 0.068 8.68 3.27 10.56
5/3/2022 7:15:00 PM 13.55 56.39 0.069 8.49 3.07 10.49
5/3/2022 7:30:00 PM 13.48 56.264 0.069 8.23 3.38 10.38
5/3/2022 7:45:00 PM 13.4 56.12 0.069 7.98 3.34 10.26
5/3/2022 8:00:00 PM 13.33 55.994 0.07 7.83 3.17 10.17
5/3/2022 8:15:00 PM 13.25 55.85 0.07 7.72 3.31 10.09
5/3/2022 8:30:00 PM 13.17 55.706 0.071 7.64 3.34 10.04
5/3/2022 8:45:00 PM 13.09 55.562 0.071 7.58 3.62 10
5/3/2022 9:00:00 PM 13 55.4 0.072 7.55 3.54 9.99
5/3/2022 9:15:00 PM 12.91 55.238 0.072 7.52 3.95 9.97
5/3/2022 9:30:00 PM 12.81 55.058 0.073 7.49 4.38 9.97
5/3/2022 9:45:00 PM 12.73 54.914 0.073 7.48 4.92 9.99
5/3/2022 10:00:00 PM 12.64 54.752 0.073 7.47 5.27 10.02
5/3/2022 10:15:00 PM 12.55 54.59 0.073 7.47 5.09 10.04
5/3/2022 10:30:00 PM 12.47 54.446 0.073 7.45 4.77 10.06
5/3/2022 10:45:00 PM 12.41 54.338 0.073 7.43 4.55 10.09
5/3/2022 11:00:00 PM 12.34 54.212 0.074 7.43 4.25 10.11
5/3/2022 11:15:00 PM 12.27 54.086 0.074 7.42 4.23 10.12
5/3/2022 11:30:00 PM 12.19 53.942 0.074 7.41 4.05 10.13
5/3/2022 11:45:00 PM 12.12 53.816 0.074 7.41 4.05 10.14
5/4/2022 12:00:00 AM 12.06 53.708 0.074 7.4 3.74 10.17
5/4/2022 12:15:00 AM 11.98 53.564 0.074 7.4 3.69 10.18
5/4/2022 12:30:00 AM 11.9 53.42 0.074 7.4 4 10.23
5/4/2022 12:45:00 AM 11.82 53.276 0.074 7.38 3.71 10.24
5/4/2022 1:00:00 AM 11.75 53.15 0.074 7.4 3.57 10.26
5/4/2022 1:15:00 AM 11.68 53.024 0.074 7.39 3.46 10.28
5/4/2022 1:30:00 AM 11.6 52.88 0.074 7.38 3.69 10.27
5/4/2022 1:45:00 AM 11.54 52.772 0.074 7.38 3.53 10.29
5/4/2022 2:00:00 AM 11.47 52.646 0.074 7.38 3.64 10.31
5/4/2022 2:15:00 AM 11.4 52.52 0.074 7.39 3.58 10.34
5/4/2022 2:30:00 AM 11.33 52.394 0.074 7.38 3.63 10.35
5/4/2022 2:45:00 AM 11.27 52.286 0.074 7.36 3.36 10.37
5/4/2022 3:00:00 AM 11.21 52.178 0.074 7.38 3.73 10.39
5/4/2022 3:15:00 AM 11.15 52.07 0.074 7.37 3.53 10.4
5/4/2022 3:30:00 AM 11.09 51.962 0.074 7.37 3.63 10.41
5/4/2022 3:45:00 AM 11.03 51.854 0.074 7.37 3.63 10.42
5/4/2022 4:00:00 AM 10.97 51.746 0.074 7.37 4.07 10.43
5/4/2022 4:15:00 AM 10.91 51.638 0.075 7.36 3.31 10.44
5/4/2022 4:30:00 AM 10.86 51.548 0.075 7.36 3.54 10.46
5/4/2022 4:45:00 AM 10.8 51.44 0.075 7.37 3.65 10.48
5/4/2022 5:00:00 AM 10.75 51.35 0.075 7.37 3.43 10.5
5/4/2022 5:15:00 AM 10.7 51.26 0.075 7.36 3.59 10.53
5/4/2022 5:30:00 AM 10.66 51.188 0.075 7.35 3.61 10.53
5/4/2022 5:45:00 AM 10.61 51.098 0.075 7.36 3.64 10.55
5/4/2022 6:00:00 AM 10.57 51.026 0.075 7.36 3.44 10.57
5/4/2022 6:15:00 AM 10.53 50.954 0.075 7.36 3.32 10.6
5/4/2022 6:30:00 AM 10.5 50.9 0.075 7.37 3.39 10.65
5/4/2022 6:45:00 AM 10.47 50.846 0.075 7.38 3.53 10.69
5/4/2022 7:00:00 AM 10.44 50.792 0.075 7.39 3.47 10.73
5/4/2022 7:15:00 AM 10.4 50.72 0.075 7.4 3.53 10.77
5/4/2022 7:30:00 AM 10.38 50.684 0.075 7.42 3.62 10.84
5/4/2022 7:45:00 AM 10.36 50.648 0.074 7.44 3.35 10.92
5/4/2022 8:00:00 AM 10.36 50.648 0.074 7.46 3.37 11.06
5/4/2022 8:15:00 AM 10.35 50.63 0.074 7.5 3.28 11.19
5/4/2022 8:30:00 AM 10.35 50.63 0.074 7.53 3.33 11.26
5/4/2022 8:45:00 AM 10.34 50.612 0.074 7.56 3.29 11.25
5/4/2022 9:00:00 AM 10.34 50.612 0.074 7.57 3.66 11.28
5/4/2022 9:15:00 AM 10.33 50.594 0.074 7.57 3.25 11.27
5/4/2022 9:30:00 AM 10.35 50.63 0.074 7.61 3.35 11.4
5/4/2022 9:45:00 AM 10.36 50.648 0.073 7.66 3.28 11.46
5/4/2022 10:00:00 AM 10.35 50.63 0.073 7.66 3.63 11.45
5/4/2022 10:15:00 AM 10.35 50.63 0.073 7.68 3.85 11.5
5/4/2022 10:30:00 AM 10.36 50.648 0.073 7.72 3.39 11.53
5/4/2022 10:45:00 AM 10.36 50.648 0.073 7.72 3.6 11.5
5/4/2022 11:00:00 AM 10.35 50.63 0.073 7.71 3.32 11.47
5/4/2022 11:15:00 AM 10.36 50.648 0.072 7.73 3.27 11.51
5/4/2022 11:30:00 AM 10.38 50.684 0.072 7.74 3.45 11.54
5/4/2022 11:45:00 AM 10.42 50.756 0.072 7.82 3.41 11.66
5/4/2022 12:00:00 PM 10.46 50.828 0.072 7.9 3.47 11.74
5/4/2022 12:15:00 PM 10.51 50.918 0.072 7.98 3.24 11.79
5/4/2022 12:30:00 PM 10.55 50.99 0.072 8.05 3.67 11.82
5/4/2022 12:45:00 PM 10.62 51.116 0.072 8.16 3.41 11.86
5/4/2022 1:00:00 PM 10.68 51.224 0.072 8.21 3.43 11.85
5/4/2022 1:15:00 PM 10.75 51.35 0.072 8.29 3.31 11.86
5/4/2022 1:30:00 PM 10.81 51.458 0.072 8.32 3.59 11.82
5/4/2022 1:45:00 PM 10.86 51.548 0.071 8.4 3.56 11.8
5/4/2022 2:00:00 PM 10.92 51.656 0.071 8.42 3.53 11.78
5/4/2022 2:15:00 PM 10.98 51.764 0.071 8.46 3.52 11.76
5/4/2022 2:30:00 PM 11.07 51.926 0.071 8.53 3.51 11.79
5/4/2022 2:45:00 PM 11.14 52.052 0.071 8.59 3.59 11.79
5/4/2022 3:00:00 PM 11.18 52.124 0.071 8.63 3.67 11.76
5/4/2022 3:15:00 PM 11.24 52.232 0.071 8.65 3.72 11.72
5/4/2022 3:30:00 PM 11.32 52.376 0.071 8.69 3.51 11.7
5/4/2022 3:45:00 PM 11.44 52.592 0.071 8.75 3.26 11.69
5/4/2022 4:00:00 PM 11.53 52.754 0.071 8.77 3.57 11.62
5/4/2022 4:15:00 PM 11.56 52.808 0.07 8.78 3.44 11.57
5/4/2022 4:30:00 PM 11.59 52.862 0.07 8.77 3.27 11.53
5/4/2022 4:45:00 PM 11.6 52.88 0.07 8.67 3.73 11.38
5/4/2022 5:00:00 PM 11.59 52.862 0.07 8.51 3.41 11.25
5/4/2022 5:15:00 PM 11.57 52.826 0.07 8.35 3.6 11.15
5/4/2022 5:30:00 PM 11.54 52.772 0.07 8.13 3.47 11
5/4/2022 5:45:00 PM 11.53 52.754 0.071 7.93 3.72 10.87
5/4/2022 6:00:00 PM 11.54 52.772 0.071 7.83 3.7 10.81
5/4/2022 6:15:00 PM 11.56 52.808 0.071 7.79 3.51 10.79
5/4/2022 6:30:00 PM 11.57 52.826 0.071 7.72 3.51 10.73
5/4/2022 6:45:00 PM 11.58 52.844 0.071 7.67 3.55 10.67
5/4/2022 7:00:00 PM 11.59 52.862 0.071 7.63 3.61 10.64
5/4/2022 7:15:00 PM 11.59 52.862 0.071 7.61 3.79 10.63
5/4/2022 7:30:00 PM 11.58 52.844 0.072 7.58 3.88 10.59
5/4/2022 7:45:00 PM 11.56 52.808 0.072 7.55 4.02 10.54
5/4/2022 8:00:00 PM 11.53 52.754 0.072 7.52 3.97 10.49
5/4/2022 8:15:00 PM 11.5 52.7 0.073 7.5 3.88 10.46
5/4/2022 8:30:00 PM 11.45 52.61 0.073 7.47 3.79 10.44
5/4/2022 8:45:00 PM 11.41 52.538 0.073 7.45 3.9 10.43
5/4/2022 9:00:00 PM 11.37 52.466 0.073 7.44 3.8 10.42
5/4/2022 9:15:00 PM 11.33 52.394 0.073 7.41 3.82 10.44
5/4/2022 9:30:00 PM 11.29 52.322 0.073 7.42 3.77 10.44
5/4/2022 9:45:00 PM 11.26 52.268 0.073 7.41 4 10.45
5/4/2022 10:00:00 PM 11.23 52.214 0.073 7.4 3.62 10.46
5/4/2022 10:15:00 PM 11.2 52.16 0.073 7.39 4.18 10.47
5/4/2022 10:30:00 PM 11.18 52.124 0.073 7.39 3.55 10.48
5/4/2022 10:45:00 PM 11.15 52.07 0.073 7.39 4.17 10.48
5/4/2022 11:00:00 PM 11.13 52.034 0.073 7.38 3.89 10.49
5/4/2022 11:15:00 PM 11.11 51.998 0.073 7.39 6.05 10.49
5/4/2022 11:30:00 PM 11.08 51.944 0.073 7.38 3.63 10.5
5/4/2022 11:45:00 PM 11.06 51.908 0.073 7.38 3.83 10.5
5/5/2022 12:00:00 AM 11.03 51.854 0.073 7.38 3.54 10.51
5/5/2022 12:15:00 AM 11 51.8 0.073 7.38 4.23 10.51
5/5/2022 12:30:00 AM 10.97 51.746 0.074 7.37 3.57 10.52
5/5/2022 12:45:00 AM 10.94 51.692 0.074 7.37 4.1 10.52
5/5/2022 1:00:00 AM 10.92 51.656 0.074 7.37 3.43 10.53
5/5/2022 1:15:00 AM 10.89 51.602 0.074 7.36 3.61 10.54
5/5/2022 1:30:00 AM 10.86 51.548 0.074 7.36 3.49 10.55
5/5/2022 1:45:00 AM 10.83 51.494 0.074 7.35 3.72 10.56
5/5/2022 2:00:00 AM 10.79 51.422 0.074 7.36 3.36 10.58
5/5/2022 2:15:00 AM 10.73 51.314 0.074 7.36 3.86 10.59
5/5/2022 2:30:00 AM 10.66 51.188 0.074 7.35 3.42 10.61
5/5/2022 2:45:00 AM 10.6 51.08 0.074 7.36 4.03 10.63
5/5/2022 3:00:00 AM 10.54 50.972 0.074 7.35 3.46 10.65
5/5/2022 3:15:00 AM 10.5 50.9 0.074 7.34 4.12 10.66
5/5/2022 3:30:00 AM 10.44 50.792 0.074 7.35 3.53 10.68
5/5/2022 3:45:00 AM 10.38 50.684 0.074 7.34 3.76 10.69
5/5/2022 4:00:00 AM 10.32 50.576 0.074 7.34 3.3 10.7
5/5/2022 4:15:00 AM 10.26 50.468 0.074 7.35 3.61 10.71
5/5/2022 4:30:00 AM 10.21 50.378 0.074 7.34 3.48 10.71
5/5/2022 4:45:00 AM 10.18 50.324 0.074 7.34 3.58 10.73
5/5/2022 5:00:00 AM 10.12 50.216 0.074 7.33 3.47 10.75
5/5/2022 5:15:00 AM 10.05 50.09 0.074 7.33 3.6 10.77
5/5/2022 5:30:00 AM 9.97 49.946 0.074 7.34 3.5 10.79
5/5/2022 5:45:00 AM 9.89 49.802 0.074 7.33 3.61 10.82
5/5/2022 6:00:00 AM 9.82 49.676 0.074 7.34 3.57 10.85
5/5/2022 6:15:00 AM 9.74 49.532 0.074 7.32 3.5 10.9
5/5/2022 6:30:00 AM 9.68 49.424 0.074 7.35 3.59 11
5/5/2022 6:45:00 AM 9.63 49.334 0.074 7.37 3.52 11.09
5/5/2022 7:00:00 AM 9.61 49.298 0.074 7.4 3.64 11.2
5/5/2022 7:15:00 AM 9.58 49.244 0.074 7.42 3.3 11.32
5/5/2022 7:30:00 AM 9.58 49.244 0.073 7.48 3.74 11.45
5/5/2022 7:45:00 AM 9.59 49.262 0.073 7.52 3.4 11.59
5/5/2022 8:00:00 AM 9.62 49.316 0.073 7.57 3.41 11.7
5/5/2022 8:15:00 AM 9.67 49.406 0.073 7.63 3.48 11.82
5/5/2022 8:30:00 AM 9.74 49.532 0.073 7.68 3.26 11.9
5/5/2022 8:45:00 AM 9.82 49.676 0.073 7.74 3.38 11.96
5/5/2022 9:00:00 AM 9.93 49.874 0.073 7.79 3.53 12
5/5/2022 9:15:00 AM 10.09 50.162 0.072 7.86 3.53 12.02
5/5/2022 9:30:00 AM 10.27 50.486 0.072 7.93 3.63 12.03
5/5/2022 9:45:00 AM 10.47 50.846 0.072 7.99 3.4 12.03
5/5/2022 10:00:00 AM 10.68 51.224 0.072 8.06 3.45 12
5/5/2022 10:15:00 AM 10.91 51.638 0.072 8.13 3.56 11.96
5/5/2022 10:30:00 AM 11.13 52.034 0.072 8.16 3.32 11.93
5/5/2022 10:45:00 AM 11.38 52.484 0.072 8.25 3.42 11.9
5/5/2022 11:00:00 AM 11.61 52.898 0.071 8.31 3.4 11.84
5/5/2022 11:15:00 AM 11.87 53.366 0.071 8.36 3.25 11.8
5/5/2022 11:30:00 AM 12.12 53.816 0.071 8.42 3.36 11.77
5/5/2022 11:45:00 AM 12.4 54.32 0.071 8.47 3.37 11.69
5/5/2022 12:00:00 PM 12.69 54.842 0.071 8.53 3.41 11.62
5/5/2022 12:15:00 PM 12.98 55.364 0.071 8.6 3.24 11.58
5/5/2022 12:30:00 PM 13.28 55.904 0.071 8.66 3.23 11.5
5/5/2022 12:45:00 PM 13.56 56.408 0.071 8.74 3.39 11.43
5/5/2022 1:00:00 PM 13.81 56.858 0.07 8.79 3.22 11.39
5/5/2022 1:15:00 PM 14.04 57.272 0.07 8.86 3.28 11.31
5/5/2022 1:30:00 PM 14.24 57.632 0.07 8.92 3.19 11.26
5/5/2022 1:45:00 PM 14.43 57.974 0.07 8.96 3.43 11.22
5/5/2022 2:00:00 PM 14.61 58.298 0.07 9.02 3.23 11.15
5/5/2022 2:15:00 PM 14.77 58.586 0.07 9.06 3.5 11.1
5/5/2022 2:30:00 PM 14.88 58.784 0.07 9.1 3.67 11.08
5/5/2022 2:45:00 PM 14.99 58.982 0.07 9.15 3.45 11.03
5/5/2022 3:00:00 PM 15.11 59.198 0.07 9.18 3.59 10.99
5/5/2022 3:15:00 PM 15.16 59.288 0.07 9.23 3.6 10.97
5/5/2022 3:30:00 PM 15.2 59.36 0.07 9.25 3.37 10.92
5/5/2022 3:45:00 PM 15.25 59.45 0.07 9.26 3.39 10.88
5/5/2022 4:00:00 PM 15.33 59.594 0.07 9.3 3.56 10.84
5/5/2022 4:15:00 PM 15.33 59.594 0.07 9.31 3.96 10.8
5/5/2022 4:30:00 PM 15.32 59.576 0.07 9.33 3.43 10.77
5/5/2022 4:45:00 PM 15.27 59.486 0.07 9.33 3.41 10.75
5/5/2022 5:00:00 PM 15.25 59.45 0.07 9.35 3.28 10.73
5/5/2022 5:15:00 PM 15.19 59.342 0.07 9.33 3.3 10.69
5/5/2022 5:30:00 PM 15.15 59.27 0.07 9.34 3.31 10.7
5/5/2022 5:45:00 PM 15.08 59.144 0.07 9.33 3.49 10.66
5/5/2022 6:00:00 PM 15 59 0.07 9.3 3.56 10.61
5/5/2022 6:15:00 PM 14.89 58.802 0.07 9.27 3.43 10.54
5/5/2022 6:30:00 PM 14.79 58.622 0.07 9.21 3.49 10.48
5/5/2022 6:45:00 PM 14.7 58.46 0.07 9.15 3.36 10.41
5/5/2022 7:00:00 PM 14.62 58.316 0.07 9.06 3.4 10.34
5/5/2022 7:15:00 PM 14.52 58.136 0.07 8.93 3.57 10.25
5/5/2022 7:30:00 PM 14.41 57.938 0.07 8.74 3.36 10.16
5/5/2022 7:45:00 PM 14.3 57.74 0.07 8.43 3.59 10.05
5/5/2022 8:00:00 PM 14.19 57.542 0.071 8.1 3.37 9.96
5/5/2022 8:15:00 PM 14.08 57.344 0.071 7.88 3.35 9.87
5/5/2022 8:30:00 PM 13.96 57.128 0.072 7.75 3.53 9.81
5/5/2022 8:45:00 PM 13.85 56.93 0.072 7.65 3.53 9.78
5/5/2022 9:00:00 PM 13.74 56.732 0.073 7.6 3.6 9.78
5/5/2022 9:15:00 PM 13.63 56.534 0.073 7.55 3.55 9.79
5/5/2022 9:30:00 PM 13.51 56.318 0.074 7.52 3.42 9.79
5/5/2022 9:45:00 PM 13.39 56.102 0.074 7.49 3.59 9.78
5/5/2022 10:00:00 PM 13.27 55.886 0.075 7.45 3.28 9.82
5/5/2022 10:15:00 PM 13.15 55.67 0.075 7.46 3.33 9.86
5/5/2022 10:30:00 PM 13.02 55.436 0.075 7.42 3.44 9.88
5/5/2022 10:45:00 PM 12.91 55.238 0.075 7.43 3.32 9.91
5/5/2022 11:00:00 PM 12.81 55.058 0.076 7.41 3.56 9.92
5/5/2022 11:15:00 PM 12.7 54.86 0.076 7.42 3.31 9.96
5/5/2022 11:30:00 PM 12.6 54.68 0.076 7.4 3.69 9.99
5/5/2022 11:45:00 PM 12.49 54.482 0.076 7.4 3.43 10.02
5/6/2022 12:00:00 AM 12.38 54.284 0.076 7.39 3.42 10.04
5/6/2022 12:15:00 AM 12.27 54.086 0.076 7.39 3.27 10.06
5/6/2022 12:30:00 AM 12.16 53.888 0.077 7.38 3.32 10.09
5/6/2022 12:45:00 AM 12.05 53.69 0.077 7.37 3.48 10.1
5/6/2022 1:00:00 AM 11.96 53.528 0.077 7.38 3.23 10.14
5/6/2022 1:15:00 AM 11.86 53.348 0.077 7.37 3.71 10.18
5/6/2022 1:30:00 AM 11.77 53.186 0.077 7.35 3.43 10.21
5/6/2022 1:45:00 AM 11.68 53.024 0.077 7.36 3.57 10.23
5/6/2022 2:00:00 AM 11.6 52.88 0.077 7.35 3.46 10.24
5/6/2022 2:15:00 AM 11.51 52.718 0.077 7.36 3.46 10.26
5/6/2022 2:30:00 AM 11.43 52.574 0.077 7.34 3.4 10.28
5/6/2022 2:45:00 AM 11.35 52.43 0.077 7.35 3.38 10.32
5/6/2022 3:00:00 AM 11.28 52.304 0.077 7.34 3.47 10.33
5/6/2022 3:15:00 AM 11.2 52.16 0.077 7.35 3.53 10.37
5/6/2022 3:30:00 AM 11.13 52.034 0.077 7.34 3.35 10.38
5/6/2022 3:45:00 AM 11.06 51.908 0.077 7.34 3.49 10.4
5/6/2022 4:00:00 AM 10.99 51.782 0.077 7.34 3.5 10.41
5/6/2022 4:15:00 AM 10.92 51.656 0.077 7.33 3.39 10.4
5/6/2022 4:30:00 AM 10.86 51.548 0.077 7.34 3.5 10.43
5/6/2022 4:45:00 AM 10.8 51.44 0.077 7.32 3.46 10.45
5/6/2022 5:00:00 AM 10.74 51.332 0.077 7.33 3.55 10.48
5/6/2022 5:15:00 AM 10.68 51.224 0.077 7.32 3.45 10.49
5/6/2022 5:30:00 AM 10.62 51.116 0.077 7.34 3.51 10.52
5/6/2022 5:45:00 AM 10.58 51.044 0.077 7.32 3.46 10.54
5/6/2022 6:00:00 AM 10.52 50.936 0.077 7.34 3.54 10.55
5/6/2022 6:15:00 AM 10.48 50.864 0.077 7.34 3.4 10.59
5/6/2022 6:30:00 AM 10.44 50.792 0.077 7.34 3.24 10.62
5/6/2022 6:45:00 AM 10.41 50.738 0.077 7.36 4.23 10.69
5/6/2022 7:00:00 AM 10.37 50.666 0.077 7.36 3.42 10.76
5/6/2022 7:15:00 AM 10.35 50.63 0.077 7.39 3.27 10.86
5/6/2022 7:30:00 AM 10.32 50.576 0.077 7.41 3.35 10.95
5/6/2022 7:45:00 AM 10.3 50.54 0.077 7.42 3.31 11.01
5/6/2022 8:00:00 AM 10.28 50.504 0.077 7.46 3.23 11.09
5/6/2022 8:15:00 AM 10.27 50.486 0.077 7.47 4.02 11.15
5/6/2022 8:30:00 AM 10.26 50.468 0.076 7.5 3.26 11.21
5/6/2022 8:45:00 AM 10.26 50.468 0.076 7.52 3.57 11.3
5/6/2022 9:00:00 AM 10.26 50.468 0.076 7.55 3.5 11.38
5/6/2022 9:15:00 AM 10.28 50.504 0.076 7.6 3.36 11.48
5/6/2022 9:30:00 AM 10.29 50.522 0.076 7.63 3.34 11.53
5/6/2022 9:45:00 AM 10.32 50.576 0.076 7.68 3.52 11.61
5/6/2022 10:00:00 AM 10.32 50.576 0.075 7.7 3.33 11.61
5/6/2022 10:15:00 AM 10.32 50.576 0.075 7.74 3.66 11.62
5/6/2022 10:30:00 AM 10.32 50.576 0.075 7.76 3.3 11.63
5/6/2022 10:45:00 AM 10.33 50.594 0.075 7.8 3.29 11.64
5/6/2022 11:00:00 AM 10.36 50.648 0.075 7.85 3.27 11.71
5/6/2022 11:15:00 AM 10.39 50.702 0.074 7.9 3.47 11.74
5/6/2022 11:30:00 AM 10.42 50.756 0.074 7.94 3.24 11.8
5/6/2022 11:45:00 AM 10.47 50.846 0.074 8.02 3.38 11.82
5/6/2022 12:00:00 PM 10.51 50.918 0.074 8.06 3.28 11.84
5/6/2022 12:15:00 PM 10.56 51.008 0.073 8.12 3.22 11.85
5/6/2022 12:30:00 PM 10.62 51.116 0.073 8.18 3.27 11.84
5/6/2022 12:45:00 PM 10.67 51.206 0.073 8.22 3.39 11.84
5/6/2022 1:00:00 PM 10.73 51.314 0.073 8.26 3.28 11.82
5/6/2022 1:15:00 PM 10.77 51.386 0.073 8.29 3.54 11.8
5/6/2022 1:30:00 PM 10.81 51.458 0.073 8.35 3.28 11.77
5/6/2022 1:45:00 PM 10.84 51.512 0.073 8.36 3.32 11.75
5/6/2022 2:00:00 PM 10.89 51.602 0.072 8.4 3.41 11.75
5/6/2022 2:15:00 PM 10.93 51.674 0.072 8.44 3.33 11.71
5/6/2022 2:30:00 PM 10.97 51.746 0.072 8.48 3.43 11.71
5/6/2022 2:45:00 PM 11.01 51.818 0.072 8.5 3.54 11.7
5/6/2022 3:00:00 PM 11.04 51.872 0.072 8.52 3.51 11.67
5/6/2022 3:15:00 PM 11.06 51.908 0.072 8.53 3.4 11.62
5/6/2022 3:30:00 PM 11.07 51.926 0.071 8.49 3.49 11.57
5/6/2022 3:45:00 PM 11.09 51.962 0.071 8.48 3.51 11.52
5/6/2022 4:00:00 PM 11.11 51.998 0.071 8.49 3.47 11.51
5/6/2022 4:15:00 PM 11.13 52.034 0.071 8.48 4.11 11.48
5/6/2022 4:30:00 PM 11.15 52.07 0.071 8.48 3.56 11.47
5/6/2022 4:45:00 PM 11.16 52.088 0.071 8.47 3.6 11.46
5/6/2022 5:00:00 PM 11.17 52.106 0.071 8.45 3.67 11.43
5/6/2022 5:15:00 PM 11.17 52.106 0.071 8.39 5.26 11.38
5/6/2022 5:30:00 PM 11.17 52.106 0.071 8.34 3.76 11.37
5/6/2022 5:45:00 PM 11.18 52.124 0.071 8.32 4.96 11.36
5/6/2022 6:00:00 PM 11.18 52.124 0.071 8.25 3.72 11.31
5/6/2022 6:15:00 PM 11.17 52.106 0.071 8.15 3.63 11.23
5/6/2022 6:30:00 PM 11.15 52.07 0.072 8.01 3.74 11.13
5/6/2022 6:45:00 PM 11.13 52.034 0.072 7.9 3.92 11.02
5/6/2022 7:00:00 PM 11.1 51.98 0.072 7.81 3.88 10.94
5/6/2022 7:15:00 PM 11.07 51.926 0.072 7.74 3.72 10.87
5/6/2022 7:30:00 PM 11.03 51.854 0.073 7.69 3.76 10.8
5/6/2022 7:45:00 PM 10.99 51.782 0.073 7.64 4 10.73
5/6/2022 8:00:00 PM 10.96 51.728 0.073 7.6 3.88 10.66
5/6/2022 8:15:00 PM 10.92 51.656 0.073 7.55 3.9 10.59
5/6/2022 8:30:00 PM 10.89 51.602 0.073 7.52 3.95 10.54
5/6/2022 8:45:00 PM 10.86 51.548 0.074 7.5 4.13 10.52
5/6/2022 9:00:00 PM 10.83 51.494 0.074 7.48 4 10.5
5/6/2022 9:15:00 PM 10.8 51.44 0.074 7.47 4.09 10.5
5/6/2022 9:30:00 PM 10.77 51.386 0.074 7.43 3.79 10.49
5/6/2022 9:45:00 PM 10.74 51.332 0.074 7.44 3.79 10.5
5/6/2022 10:00:00 PM 10.72 51.296 0.074 7.43 4.23 10.5
5/6/2022 10:15:00 PM 10.69 51.242 0.074 7.42 3.83 10.51
5/6/2022 10:30:00 PM 10.66 51.188 0.074 7.41 3.92 10.53
5/6/2022 10:45:00 PM 10.63 51.134 0.075 7.4 4.25 10.53
5/6/2022 11:00:00 PM 10.6 51.08 0.075 7.41 3.83 10.53
5/6/2022 11:15:00 PM 10.58 51.044 0.075 7.41 3.84 10.54
5/6/2022 11:30:00 PM 10.55 50.99 0.075 7.41 3.73 10.55
5/6/2022 11:45:00 PM 10.52 50.936 0.075 7.4 3.92 10.56
5/7/2022 12:00:00 AM 10.49 50.882 0.075 7.39 4.09 10.57
5/7/2022 12:15:00 AM 10.45 50.81 0.075 7.41 4.17 10.57
5/7/2022 12:30:00 AM 10.42 50.756 0.075 7.4 3.8 10.58
5/7/2022 12:45:00 AM 10.4 50.72 0.075 7.39 3.9 10.59
5/7/2022 1:00:00 AM 10.36 50.648 0.075 7.4 3.95 10.59
5/7/2022 1:15:00 AM 10.33 50.594 0.075 7.4 3.85 10.6
5/7/2022 1:30:00 AM 10.3 50.54 0.075 7.39 3.75 10.61
5/7/2022 1:45:00 AM 10.27 50.486 0.075 7.39 4.12 10.61
5/7/2022 2:00:00 AM 10.24 50.432 0.075 7.38 3.67 10.61
5/7/2022 2:15:00 AM 10.21 50.378 0.075 7.38 4.37 10.62
5/7/2022 2:30:00 AM 10.18 50.324 0.075 7.37 3.7 10.64
5/7/2022 2:45:00 AM 10.16 50.288 0.074 7.38 3.76 10.65
5/7/2022 3:00:00 AM 10.14 50.252 0.074 7.37 3.71 10.65
5/7/2022 3:15:00 AM 10.11 50.198 0.074 7.38 4.11 10.66
5/7/2022 3:30:00 AM 10.09 50.162 0.074 7.37 3.61 10.67
5/7/2022 3:45:00 AM 10.07 50.126 0.074 7.38 3.61 10.68
5/7/2022 4:00:00 AM 10.05 50.09 0.074 7.36 3.67 10.69
5/7/2022 4:15:00 AM 10.01 50.018 0.074 7.37 3.68 10.69
5/7/2022 4:30:00 AM 9.97 49.946 0.074 7.38 3.86 10.71
5/7/2022 4:45:00 AM 9.93 49.874 0.074 7.35 3.93 10.72
5/7/2022 5:00:00 AM 9.88 49.784 0.074 7.37 3.78 10.73
5/7/2022 5:15:00 AM 9.84 49.712 0.074 7.37 3.74 10.73
5/7/2022 5:30:00 AM 9.81 49.658 0.074 7.36 3.76 10.74
5/7/2022 5:45:00 AM 9.77 49.586 0.074 7.37 3.87 10.76
5/7/2022 6:00:00 AM 9.74 49.532 0.074 7.37 3.67 10.77
5/7/2022 6:15:00 AM 9.7 49.46 0.074 7.37 3.84 10.79
5/7/2022 6:30:00 AM 9.67 49.406 0.074 7.36 3.83 10.84
5/7/2022 6:45:00 AM 9.65 49.37 0.074 7.4 3.68 10.9
5/7/2022 7:00:00 AM 9.62 49.316 0.074 7.41 3.8 10.99
5/7/2022 7:15:00 AM 9.6 49.28 0.074 7.43 4.06 11.08
5/7/2022 7:30:00 AM 9.58 49.244 0.074 7.45 3.75 11.16
5/7/2022 7:45:00 AM 9.57 49.226 0.074 7.49 4.2 11.28
5/7/2022 8:00:00 AM 9.56 49.208 0.073 7.52 3.51 11.37
5/7/2022 8:15:00 AM 9.54 49.172 0.073 7.55 4.1 11.43
5/7/2022 8:30:00 AM 9.52 49.136 0.073 7.57 3.53 11.49
5/7/2022 8:45:00 AM 9.53 49.154 0.073 7.61 3.56 11.55
5/7/2022 9:00:00 AM 9.53 49.154 0.073 7.63 3.63 11.6
5/7/2022 9:15:00 AM 9.52 49.136 0.073 7.66 3.62 11.64
5/7/2022 9:30:00 AM 9.53 49.154 0.073 7.7 3.51 11.68
5/7/2022 9:45:00 AM 9.54 49.172 0.073 7.72 3.36 11.77
5/7/2022 10:00:00 AM 9.55 49.19 0.073 7.77 3.62 11.8
5/7/2022 10:15:00 AM 9.57 49.226 0.072 7.82 3.53 11.81